<?xml version="1.0" encoding="UTF-8" standalone="no" ?>
<gpx xmlns="http://www.topografix.com/GPX/1/1" xmlns:xsi="http://www.w3.org/2001/XMLSchema-instance" xsi:schemaLocation="http://www.topografix.com/GPX/1/1 http://www.topografix.com/GPX/1/1/gpx.xsd" version="1.1" creator="VisuGPX - https://www.visugpx.com">
  <metadata>
    <name>Corrençon, le Tour du Grand Pot</name>
    <desc><![CDATA[Boucle à partir du golf de Corrençon.
Du parking du golf, prendre le GR 91 direction la cabane de Carrette. On passe par le \"Champ de la bataille\", la borne du 45° parallèle. On entre ensuite dans la réserve des Hauts Plateaux puis on atteint la Cabane de Carrette (1355m). Elle est à gauche du sentier un peu au dessus. Passer devant la cabane et monter à droite le sentier qui monte (300m D  en 1km300) en direction du Grand Pot (1670m) point culminant de la sortie. De là, prendre à gauche (nord) et redescendre vers Corrençon.  Au départ le sentier est un peu technique mais il permet de bien travailler les appuis en et la relance. On rejoint ensuite le gr91 puis le parking du golf. On peut bien évidemment faire cette boucle dans l\'autre sens, la montée est moins violente et la descente sur Carrette très technique (glissante en cas de pluie).
Bonne course!]]></desc>
  </metadata>
  <trk>
    <name><![CDATA[Corrençon, le Tour du Grand Pot_1]]></name>
    <trkseg>
      <trkpt lat="45.02433" lon="5.51742">
        <ele>1155.6420898438</ele>
        <time>2011-07-09T07:25:51Z</time>
      </trkpt>
      <trkpt lat="45.02433" lon="5.51741">
        <ele>1155.6420898438</ele>
        <time>2011-07-09T07:25:52Z</time>
      </trkpt>
      <trkpt lat="45.02429" lon="5.5174">
        <ele>1154.6806640625</ele>
        <time>2011-07-09T07:25:55Z</time>
      </trkpt>
      <trkpt lat="45.02417" lon="5.51735">
        <ele>1153.2387695312</ele>
        <time>2011-07-09T07:26:00Z</time>
      </trkpt>
      <trkpt lat="45.02408" lon="5.51733">
        <ele>1153.7194824219</ele>
        <time>2011-07-09T07:26:04Z</time>
      </trkpt>
      <trkpt lat="45.02396" lon="5.51735">
        <ele>1154.2001953125</ele>
        <time>2011-07-09T07:26:09Z</time>
      </trkpt>
      <trkpt lat="45.02388" lon="5.51735">
        <ele>1154.6806640625</ele>
        <time>2011-07-09T07:26:13Z</time>
      </trkpt>
      <trkpt lat="45.02368" lon="5.51737">
        <ele>1155.1613769531</ele>
        <time>2011-07-09T07:26:22Z</time>
      </trkpt>
      <trkpt lat="45.02357" lon="5.51737">
        <ele>1155.1613769531</ele>
        <time>2011-07-09T07:26:27Z</time>
      </trkpt>
      <trkpt lat="45.02346" lon="5.51742">
        <ele>1153.7194824219</ele>
        <time>2011-07-09T07:26:32Z</time>
      </trkpt>
      <trkpt lat="45.02336" lon="5.51741">
        <ele>1153.7194824219</ele>
        <time>2011-07-09T07:26:37Z</time>
      </trkpt>
      <trkpt lat="45.02322" lon="5.5174">
        <ele>1155.6420898438</ele>
        <time>2011-07-09T07:26:44Z</time>
      </trkpt>
      <trkpt lat="45.0232" lon="5.5174">
        <ele>1155.6420898438</ele>
        <time>2011-07-09T07:26:45Z</time>
      </trkpt>
      <trkpt lat="45.02311" lon="5.51739">
        <ele>1156.6032714844</ele>
        <time>2011-07-09T07:26:49Z</time>
      </trkpt>
      <trkpt lat="45.02299" lon="5.51734">
        <ele>1158.5258789062</ele>
        <time>2011-07-09T07:26:55Z</time>
      </trkpt>
      <trkpt lat="45.02286" lon="5.51727">
        <ele>1159.0065917969</ele>
        <time>2011-07-09T07:27:02Z</time>
      </trkpt>
      <trkpt lat="45.02273" lon="5.5172">
        <ele>1160.4484863281</ele>
        <time>2011-07-09T07:27:09Z</time>
      </trkpt>
      <trkpt lat="45.02261" lon="5.51718">
        <ele>1161.4099121094</ele>
        <time>2011-07-09T07:27:15Z</time>
      </trkpt>
      <trkpt lat="45.02248" lon="5.51718">
        <ele>1161.4099121094</ele>
        <time>2011-07-09T07:27:21Z</time>
      </trkpt>
      <trkpt lat="45.02239" lon="5.51717">
        <ele>1161.890625</ele>
        <time>2011-07-09T07:27:26Z</time>
      </trkpt>
      <trkpt lat="45.02229" lon="5.51714">
        <ele>1161.890625</ele>
        <time>2011-07-09T07:27:31Z</time>
      </trkpt>
      <trkpt lat="45.02215" lon="5.51704">
        <ele>1162.8518066406</ele>
        <time>2011-07-09T07:27:38Z</time>
      </trkpt>
      <trkpt lat="45.02204" lon="5.51695">
        <ele>1162.37109375</ele>
        <time>2011-07-09T07:27:44Z</time>
      </trkpt>
      <trkpt lat="45.02193" lon="5.51688">
        <ele>1161.890625</ele>
        <time>2011-07-09T07:27:50Z</time>
      </trkpt>
      <trkpt lat="45.02179" lon="5.51681">
        <ele>1162.37109375</ele>
        <time>2011-07-09T07:27:57Z</time>
      </trkpt>
      <trkpt lat="45.02165" lon="5.51676">
        <ele>1163.3325195312</ele>
        <time>2011-07-09T07:28:04Z</time>
      </trkpt>
      <trkpt lat="45.02159" lon="5.51674">
        <ele>1163.8129882812</ele>
        <time>2011-07-09T07:28:07Z</time>
      </trkpt>
      <trkpt lat="45.0214" lon="5.51667">
        <ele>1165.2553710938</ele>
        <time>2011-07-09T07:28:16Z</time>
      </trkpt>
      <trkpt lat="45.02129" lon="5.51663">
        <ele>1165.2553710938</ele>
        <time>2011-07-09T07:28:22Z</time>
      </trkpt>
      <trkpt lat="45.02115" lon="5.51654">
        <ele>1163.8129882812</ele>
        <time>2011-07-09T07:28:29Z</time>
      </trkpt>
      <trkpt lat="45.02104" lon="5.5164">
        <ele>1163.8129882812</ele>
        <time>2011-07-09T07:28:36Z</time>
      </trkpt>
      <trkpt lat="45.02094" lon="5.51623">
        <ele>1163.8129882812</ele>
        <time>2011-07-09T07:28:43Z</time>
      </trkpt>
      <trkpt lat="45.02091" lon="5.51609">
        <ele>1164.2939453125</ele>
        <time>2011-07-09T07:28:48Z</time>
      </trkpt>
      <trkpt lat="45.02086" lon="5.51593">
        <ele>1165.7360839844</ele>
        <time>2011-07-09T07:28:54Z</time>
      </trkpt>
      <trkpt lat="45.02078" lon="5.51578">
        <ele>1166.697265625</ele>
        <time>2011-07-09T07:29:00Z</time>
      </trkpt>
      <trkpt lat="45.02068" lon="5.51569">
        <ele>1167.6584472656</ele>
        <time>2011-07-09T07:29:06Z</time>
      </trkpt>
      <trkpt lat="45.02057" lon="5.51563">
        <ele>1168.6198730469</ele>
        <time>2011-07-09T07:29:12Z</time>
      </trkpt>
      <trkpt lat="45.02048" lon="5.51553">
        <ele>1168.6198730469</ele>
        <time>2011-07-09T07:29:17Z</time>
      </trkpt>
      <trkpt lat="45.02038" lon="5.51546">
        <ele>1168.6198730469</ele>
        <time>2011-07-09T07:29:22Z</time>
      </trkpt>
      <trkpt lat="45.02026" lon="5.5154">
        <ele>1168.6198730469</ele>
        <time>2011-07-09T07:29:28Z</time>
      </trkpt>
      <trkpt lat="45.0202" lon="5.51537">
        <ele>1168.1391601562</ele>
        <time>2011-07-09T07:29:31Z</time>
      </trkpt>
      <trkpt lat="45.02012" lon="5.51538">
        <ele>1169.1005859375</ele>
        <time>2011-07-09T07:29:35Z</time>
      </trkpt>
      <trkpt lat="45.02" lon="5.51536">
        <ele>1169.5812988281</ele>
        <time>2011-07-09T07:29:41Z</time>
      </trkpt>
      <trkpt lat="45.01986" lon="5.51534">
        <ele>1170.0617675781</ele>
        <time>2011-07-09T07:29:48Z</time>
      </trkpt>
      <trkpt lat="45.0198" lon="5.51534">
        <ele>1170.0617675781</ele>
        <time>2011-07-09T07:29:51Z</time>
      </trkpt>
      <trkpt lat="45.01971" lon="5.51535">
        <ele>1170.5424804688</ele>
        <time>2011-07-09T07:29:55Z</time>
      </trkpt>
      <trkpt lat="45.01957" lon="5.51539">
        <ele>1171.0231933594</ele>
        <time>2011-07-09T07:30:01Z</time>
      </trkpt>
      <trkpt lat="45.01947" lon="5.51539">
        <ele>1171.5036621094</ele>
        <time>2011-07-09T07:30:06Z</time>
      </trkpt>
      <trkpt lat="45.01931" lon="5.51539">
        <ele>1172.9458007812</ele>
        <time>2011-07-09T07:30:13Z</time>
      </trkpt>
      <trkpt lat="45.0192" lon="5.51537">
        <ele>1173.4265136719</ele>
        <time>2011-07-09T07:30:18Z</time>
      </trkpt>
      <trkpt lat="45.01909" lon="5.51535">
        <ele>1173.9069824219</ele>
        <time>2011-07-09T07:30:24Z</time>
      </trkpt>
      <trkpt lat="45.01902" lon="5.5153">
        <ele>1174.3876953125</ele>
        <time>2011-07-09T07:30:28Z</time>
      </trkpt>
      <trkpt lat="45.01891" lon="5.5152">
        <ele>1174.8684082031</ele>
        <time>2011-07-09T07:30:34Z</time>
      </trkpt>
      <trkpt lat="45.01882" lon="5.51509">
        <ele>1174.8684082031</ele>
        <time>2011-07-09T07:30:39Z</time>
      </trkpt>
      <trkpt lat="45.01872" lon="5.51497">
        <ele>1175.3488769531</ele>
        <time>2011-07-09T07:30:45Z</time>
      </trkpt>
      <trkpt lat="45.0186" lon="5.51484">
        <ele>1177.2717285156</ele>
        <time>2011-07-09T07:30:51Z</time>
      </trkpt>
      <trkpt lat="45.01846" lon="5.51475">
        <ele>1177.2717285156</ele>
        <time>2011-07-09T07:30:58Z</time>
      </trkpt>
      <trkpt lat="45.01836" lon="5.51468">
        <ele>1176.3103027344</ele>
        <time>2011-07-09T07:31:03Z</time>
      </trkpt>
      <trkpt lat="45.01821" lon="5.51462">
        <ele>1175.8295898438</ele>
        <time>2011-07-09T07:31:09Z</time>
      </trkpt>
      <trkpt lat="45.0181" lon="5.51458">
        <ele>1174.8684082031</ele>
        <time>2011-07-09T07:31:14Z</time>
      </trkpt>
      <trkpt lat="45.01799" lon="5.51454">
        <ele>1174.3876953125</ele>
        <time>2011-07-09T07:31:19Z</time>
      </trkpt>
      <trkpt lat="45.01785" lon="5.51449">
        <ele>1173.9069824219</ele>
        <time>2011-07-09T07:31:25Z</time>
      </trkpt>
      <trkpt lat="45.01771" lon="5.51443">
        <ele>1173.4265136719</ele>
        <time>2011-07-09T07:31:31Z</time>
      </trkpt>
      <trkpt lat="45.0176" lon="5.51439">
        <ele>1173.9069824219</ele>
        <time>2011-07-09T07:31:36Z</time>
      </trkpt>
      <trkpt lat="45.0175" lon="5.51433">
        <ele>1174.3876953125</ele>
        <time>2011-07-09T07:31:41Z</time>
      </trkpt>
      <trkpt lat="45.0174" lon="5.51431">
        <ele>1175.3488769531</ele>
        <time>2011-07-09T07:31:45Z</time>
      </trkpt>
      <trkpt lat="45.01726" lon="5.51425">
        <ele>1176.791015625</ele>
        <time>2011-07-09T07:31:51Z</time>
      </trkpt>
      <trkpt lat="45.01717" lon="5.51415">
        <ele>1177.2717285156</ele>
        <time>2011-07-09T07:31:56Z</time>
      </trkpt>
      <trkpt lat="45.01707" lon="5.514">
        <ele>1178.2329101562</ele>
        <time>2011-07-09T07:32:02Z</time>
      </trkpt>
      <trkpt lat="45.01701" lon="5.5139">
        <ele>1178.2329101562</ele>
        <time>2011-07-09T07:32:06Z</time>
      </trkpt>
      <trkpt lat="45.01694" lon="5.51382">
        <ele>1179.1940917969</ele>
        <time>2011-07-09T07:32:10Z</time>
      </trkpt>
      <trkpt lat="45.01683" lon="5.51365">
        <ele>1181.59765625</ele>
        <time>2011-07-09T07:32:16Z</time>
      </trkpt>
      <trkpt lat="45.01674" lon="5.51355">
        <ele>1180.1557617188</ele>
        <time>2011-07-09T07:32:21Z</time>
      </trkpt>
      <trkpt lat="45.01672" lon="5.51353">
        <ele>1180.6364746094</ele>
        <time>2011-07-09T07:32:22Z</time>
      </trkpt>
      <trkpt lat="45.01663" lon="5.51343">
        <ele>1181.59765625</ele>
        <time>2011-07-09T07:32:27Z</time>
      </trkpt>
      <trkpt lat="45.01657" lon="5.51338">
        <ele>1183.0395507812</ele>
        <time>2011-07-09T07:32:30Z</time>
      </trkpt>
      <trkpt lat="45.01646" lon="5.51328">
        <ele>1184.0009765625</ele>
        <time>2011-07-09T07:32:36Z</time>
      </trkpt>
      <trkpt lat="45.01637" lon="5.51325">
        <ele>1188.8076171875</ele>
        <time>2011-07-09T07:32:40Z</time>
      </trkpt>
      <trkpt lat="45.0163" lon="5.51321">
        <ele>1191.69140625</ele>
        <time>2011-07-09T07:32:43Z</time>
      </trkpt>
      <trkpt lat="45.0163" lon="5.51321">
        <ele>1191.69140625</ele>
        <time>2011-07-09T07:32:43Z</time>
      </trkpt>
      <trkpt lat="45.01625" lon="5.51316">
        <ele>1195.0559082031</ele>
        <time>2011-07-09T07:32:45Z</time>
      </trkpt>
      <trkpt lat="45.0162" lon="5.51312">
        <ele>1197.4594726562</ele>
        <time>2011-07-09T07:32:48Z</time>
      </trkpt>
      <trkpt lat="45.01609" lon="5.51311">
        <ele>1203.2272949219</ele>
        <time>2011-07-09T07:32:53Z</time>
      </trkpt>
      <trkpt lat="45.01597" lon="5.51307">
        <ele>1203.7080078125</ele>
        <time>2011-07-09T07:33:00Z</time>
      </trkpt>
      <trkpt lat="45.0159" lon="5.51301">
        <ele>1203.2272949219</ele>
        <time>2011-07-09T07:33:04Z</time>
      </trkpt>
      <trkpt lat="45.01583" lon="5.51296">
        <ele>1200.8239746094</ele>
        <time>2011-07-09T07:33:09Z</time>
      </trkpt>
      <trkpt lat="45.01571" lon="5.51284">
        <ele>1196.4982910156</ele>
        <time>2011-07-09T07:33:16Z</time>
      </trkpt>
      <trkpt lat="45.01559" lon="5.51278">
        <ele>1195.0559082031</ele>
        <time>2011-07-09T07:33:21Z</time>
      </trkpt>
      <trkpt lat="45.01555" lon="5.51278">
        <ele>1196.017578125</ele>
        <time>2011-07-09T07:33:23Z</time>
      </trkpt>
      <trkpt lat="45.01541" lon="5.51279">
        <ele>1201.3046875</ele>
        <time>2011-07-09T07:33:29Z</time>
      </trkpt>
      <trkpt lat="45.0153" lon="5.51278">
        <ele>1203.7080078125</ele>
        <time>2011-07-09T07:33:35Z</time>
      </trkpt>
      <trkpt lat="45.01521" lon="5.51273">
        <ele>1207.5532226562</ele>
        <time>2011-07-09T07:33:39Z</time>
      </trkpt>
      <trkpt lat="45.01514" lon="5.51257">
        <ele>1205.6306152344</ele>
        <time>2011-07-09T07:33:45Z</time>
      </trkpt>
      <trkpt lat="45.01512" lon="5.51248">
        <ele>1204.1887207031</ele>
        <time>2011-07-09T07:33:47Z</time>
      </trkpt>
      <trkpt lat="45.01511" lon="5.51225">
        <ele>1201.7854003906</ele>
        <time>2011-07-09T07:33:54Z</time>
      </trkpt>
      <trkpt lat="45.01508" lon="5.5122">
        <ele>1200.8239746094</ele>
        <time>2011-07-09T07:33:57Z</time>
      </trkpt>
      <trkpt lat="45.01498" lon="5.51215">
        <ele>1204.1887207031</ele>
        <time>2011-07-09T07:34:04Z</time>
      </trkpt>
      <trkpt lat="45.01494" lon="5.51213">
        <ele>1205.6306152344</ele>
        <time>2011-07-09T07:34:06Z</time>
      </trkpt>
      <trkpt lat="45.01488" lon="5.51209">
        <ele>1205.6306152344</ele>
        <time>2011-07-09T07:34:09Z</time>
      </trkpt>
      <trkpt lat="45.01476" lon="5.51207">
        <ele>1207.5532226562</ele>
        <time>2011-07-09T07:34:16Z</time>
      </trkpt>
      <trkpt lat="45.01466" lon="5.51204">
        <ele>1209.9562988281</ele>
        <time>2011-07-09T07:34:21Z</time>
      </trkpt>
      <trkpt lat="45.01456" lon="5.51197">
        <ele>1208.9951171875</ele>
        <time>2011-07-09T07:34:26Z</time>
      </trkpt>
      <trkpt lat="45.01449" lon="5.5119">
        <ele>1208.9951171875</ele>
        <time>2011-07-09T07:34:31Z</time>
      </trkpt>
      <trkpt lat="45.01442" lon="5.51183">
        <ele>1210.9177246094</ele>
        <time>2011-07-09T07:34:35Z</time>
      </trkpt>
      <trkpt lat="45.01432" lon="5.51174">
        <ele>1212.3598632812</ele>
        <time>2011-07-09T07:34:41Z</time>
      </trkpt>
      <trkpt lat="45.01419" lon="5.51162">
        <ele>1212.8405761719</ele>
        <time>2011-07-09T07:34:48Z</time>
      </trkpt>
      <trkpt lat="45.01409" lon="5.51155">
        <ele>1212.8405761719</ele>
        <time>2011-07-09T07:34:53Z</time>
      </trkpt>
      <trkpt lat="45.01401" lon="5.5115">
        <ele>1213.8017578125</ele>
        <time>2011-07-09T07:34:57Z</time>
      </trkpt>
      <trkpt lat="45.0139" lon="5.51143">
        <ele>1214.7631835938</ele>
        <time>2011-07-09T07:35:02Z</time>
      </trkpt>
      <trkpt lat="45.01382" lon="5.51137">
        <ele>1214.2824707031</ele>
        <time>2011-07-09T07:35:06Z</time>
      </trkpt>
      <trkpt lat="45.01374" lon="5.51129">
        <ele>1212.3598632812</ele>
        <time>2011-07-09T07:35:10Z</time>
      </trkpt>
      <trkpt lat="45.01366" lon="5.51119">
        <ele>1212.3598632812</ele>
        <time>2011-07-09T07:35:15Z</time>
      </trkpt>
      <trkpt lat="45.01358" lon="5.51102">
        <ele>1211.8791503906</ele>
        <time>2011-07-09T07:35:21Z</time>
      </trkpt>
      <trkpt lat="45.0135" lon="5.51089">
        <ele>1211.8791503906</ele>
        <time>2011-07-09T07:35:26Z</time>
      </trkpt>
      <trkpt lat="45.0134" lon="5.51079">
        <ele>1212.8405761719</ele>
        <time>2011-07-09T07:35:31Z</time>
      </trkpt>
      <trkpt lat="45.01332" lon="5.51072">
        <ele>1212.3598632812</ele>
        <time>2011-07-09T07:35:35Z</time>
      </trkpt>
      <trkpt lat="45.01318" lon="5.51061">
        <ele>1212.3598632812</ele>
        <time>2011-07-09T07:35:42Z</time>
      </trkpt>
      <trkpt lat="45.0131" lon="5.5105">
        <ele>1211.8791503906</ele>
        <time>2011-07-09T07:35:47Z</time>
      </trkpt>
      <trkpt lat="45.01302" lon="5.51036">
        <ele>1211.8791503906</ele>
        <time>2011-07-09T07:35:52Z</time>
      </trkpt>
      <trkpt lat="45.01294" lon="5.51024">
        <ele>1213.3212890625</ele>
        <time>2011-07-09T07:35:57Z</time>
      </trkpt>
      <trkpt lat="45.01284" lon="5.51016">
        <ele>1213.3212890625</ele>
        <time>2011-07-09T07:36:02Z</time>
      </trkpt>
      <trkpt lat="45.01272" lon="5.51009">
        <ele>1214.2824707031</ele>
        <time>2011-07-09T07:36:07Z</time>
      </trkpt>
      <trkpt lat="45.0127" lon="5.51008">
        <ele>1213.8017578125</ele>
        <time>2011-07-09T07:36:08Z</time>
      </trkpt>
      <trkpt lat="45.01254" lon="5.51007">
        <ele>1212.3598632812</ele>
        <time>2011-07-09T07:36:15Z</time>
      </trkpt>
      <trkpt lat="45.01239" lon="5.51008">
        <ele>1211.8791503906</ele>
        <time>2011-07-09T07:36:21Z</time>
      </trkpt>
      <trkpt lat="45.01235" lon="5.51008">
        <ele>1211.3984375</ele>
        <time>2011-07-09T07:36:23Z</time>
      </trkpt>
      <trkpt lat="45.01223" lon="5.51013">
        <ele>1210.9177246094</ele>
        <time>2011-07-09T07:36:28Z</time>
      </trkpt>
      <trkpt lat="45.01218" lon="5.51014">
        <ele>1210.9177246094</ele>
        <time>2011-07-09T07:36:30Z</time>
      </trkpt>
      <trkpt lat="45.01208" lon="5.51018">
        <ele>1209.9562988281</ele>
        <time>2011-07-09T07:36:34Z</time>
      </trkpt>
      <trkpt lat="45.01206" lon="5.51018">
        <ele>1209.4758300781</ele>
        <time>2011-07-09T07:36:35Z</time>
      </trkpt>
      <trkpt lat="45.01189" lon="5.51014">
        <ele>1208.5144042969</ele>
        <time>2011-07-09T07:36:43Z</time>
      </trkpt>
      <trkpt lat="45.01178" lon="5.51012">
        <ele>1208.5144042969</ele>
        <time>2011-07-09T07:36:48Z</time>
      </trkpt>
      <trkpt lat="45.01167" lon="5.51009">
        <ele>1209.4758300781</ele>
        <time>2011-07-09T07:36:53Z</time>
      </trkpt>
      <trkpt lat="45.01163" lon="5.51005">
        <ele>1210.4370117188</ele>
        <time>2011-07-09T07:36:55Z</time>
      </trkpt>
      <trkpt lat="45.01152" lon="5.50997">
        <ele>1213.3212890625</ele>
        <time>2011-07-09T07:37:00Z</time>
      </trkpt>
      <trkpt lat="45.01144" lon="5.50992">
        <ele>1214.7631835938</ele>
        <time>2011-07-09T07:37:04Z</time>
      </trkpt>
      <trkpt lat="45.01134" lon="5.50986">
        <ele>1216.205078125</ele>
        <time>2011-07-09T07:37:09Z</time>
      </trkpt>
      <trkpt lat="45.01125" lon="5.50982">
        <ele>1216.205078125</ele>
        <time>2011-07-09T07:37:14Z</time>
      </trkpt>
      <trkpt lat="45.01115" lon="5.50977">
        <ele>1218.1276855469</ele>
        <time>2011-07-09T07:37:19Z</time>
      </trkpt>
      <trkpt lat="45.01108" lon="5.50973">
        <ele>1218.6083984375</ele>
        <time>2011-07-09T07:37:23Z</time>
      </trkpt>
      <trkpt lat="45.01097" lon="5.50967">
        <ele>1219.0891113281</ele>
        <time>2011-07-09T07:37:29Z</time>
      </trkpt>
      <trkpt lat="45.01094" lon="5.50962">
        <ele>1219.5698242188</ele>
        <time>2011-07-09T07:37:31Z</time>
      </trkpt>
      <trkpt lat="45.0109" lon="5.5096">
        <ele>1220.5310058594</ele>
        <time>2011-07-09T07:37:33Z</time>
      </trkpt>
      <trkpt lat="45.01078" lon="5.50949">
        <ele>1221.9729003906</ele>
        <time>2011-07-09T07:37:39Z</time>
      </trkpt>
      <trkpt lat="45.0107" lon="5.50943">
        <ele>1223.8955078125</ele>
        <time>2011-07-09T07:37:44Z</time>
      </trkpt>
      <trkpt lat="45.01059" lon="5.50935">
        <ele>1226.7795410156</ele>
        <time>2011-07-09T07:37:50Z</time>
      </trkpt>
      <trkpt lat="45.01056" lon="5.50931">
        <ele>1227.2602539062</ele>
        <time>2011-07-09T07:37:52Z</time>
      </trkpt>
      <trkpt lat="45.01047" lon="5.50929">
        <ele>1228.2216796875</ele>
        <time>2011-07-09T07:37:58Z</time>
      </trkpt>
      <trkpt lat="45.01037" lon="5.50927">
        <ele>1226.7795410156</ele>
        <time>2011-07-09T07:38:04Z</time>
      </trkpt>
      <trkpt lat="45.01035" lon="5.50926">
        <ele>1226.7795410156</ele>
        <time>2011-07-09T07:38:05Z</time>
      </trkpt>
      <trkpt lat="45.01023" lon="5.50924">
        <ele>1226.7795410156</ele>
        <time>2011-07-09T07:38:10Z</time>
      </trkpt>
      <trkpt lat="45.01013" lon="5.50926">
        <ele>1227.7407226562</ele>
        <time>2011-07-09T07:38:15Z</time>
      </trkpt>
      <trkpt lat="45.01001" lon="5.50929">
        <ele>1229.1828613281</ele>
        <time>2011-07-09T07:38:20Z</time>
      </trkpt>
      <trkpt lat="45.00992" lon="5.50931">
        <ele>1229.6635742188</ele>
        <time>2011-07-09T07:38:24Z</time>
      </trkpt>
      <trkpt lat="45.00981" lon="5.50933">
        <ele>1229.6635742188</ele>
        <time>2011-07-09T07:38:29Z</time>
      </trkpt>
      <trkpt lat="45.0097" lon="5.50938">
        <ele>1229.6635742188</ele>
        <time>2011-07-09T07:38:34Z</time>
      </trkpt>
      <trkpt lat="45.00965" lon="5.50939">
        <ele>1229.6635742188</ele>
        <time>2011-07-09T07:38:36Z</time>
      </trkpt>
      <trkpt lat="45.00955" lon="5.50942">
        <ele>1226.7795410156</ele>
        <time>2011-07-09T07:38:41Z</time>
      </trkpt>
      <trkpt lat="45.00951" lon="5.50943">
        <ele>1226.298828125</ele>
        <time>2011-07-09T07:38:43Z</time>
      </trkpt>
      <trkpt lat="45.0094" lon="5.50947">
        <ele>1228.7023925781</ele>
        <time>2011-07-09T07:38:48Z</time>
      </trkpt>
      <trkpt lat="45.00932" lon="5.50951">
        <ele>1228.7023925781</ele>
        <time>2011-07-09T07:38:52Z</time>
      </trkpt>
      <trkpt lat="45.00916" lon="5.50962">
        <ele>1227.2602539062</ele>
        <time>2011-07-09T07:38:59Z</time>
      </trkpt>
      <trkpt lat="45.00906" lon="5.50973">
        <ele>1226.7795410156</ele>
        <time>2011-07-09T07:39:04Z</time>
      </trkpt>
      <trkpt lat="45.00904" lon="5.50977">
        <ele>1226.298828125</ele>
        <time>2011-07-09T07:39:05Z</time>
      </trkpt>
      <trkpt lat="45.00896" lon="5.50988">
        <ele>1227.2602539062</ele>
        <time>2011-07-09T07:39:09Z</time>
      </trkpt>
      <trkpt lat="45.0089" lon="5.50992">
        <ele>1228.2216796875</ele>
        <time>2011-07-09T07:39:12Z</time>
      </trkpt>
      <trkpt lat="45.0088" lon="5.50998">
        <ele>1228.2216796875</ele>
        <time>2011-07-09T07:39:16Z</time>
      </trkpt>
      <trkpt lat="45.00869" lon="5.5101">
        <ele>1232.0668945312</ele>
        <time>2011-07-09T07:39:21Z</time>
      </trkpt>
      <trkpt lat="45.00858" lon="5.51021">
        <ele>1234.9509277344</ele>
        <time>2011-07-09T07:39:26Z</time>
      </trkpt>
      <trkpt lat="45.00853" lon="5.51023">
        <ele>1235.912109375</ele>
        <time>2011-07-09T07:39:28Z</time>
      </trkpt>
      <trkpt lat="45.00851" lon="5.51023">
        <ele>1235.912109375</ele>
        <time>2011-07-09T07:39:29Z</time>
      </trkpt>
      <trkpt lat="45.00851" lon="5.51023">
        <ele>1235.912109375</ele>
        <time>2011-07-09T07:39:29Z</time>
      </trkpt>
      <trkpt lat="45.00843" lon="5.51031">
        <ele>1238.7961425781</ele>
        <time>2011-07-09T07:39:33Z</time>
      </trkpt>
      <trkpt lat="45.0083" lon="5.51048">
        <ele>1244.0834960938</ele>
        <time>2011-07-09T07:39:39Z</time>
      </trkpt>
      <trkpt lat="45.00826" lon="5.51052">
        <ele>1243.6025390625</ele>
        <time>2011-07-09T07:39:41Z</time>
      </trkpt>
      <trkpt lat="45.00818" lon="5.51056">
        <ele>1241.19921875</ele>
        <time>2011-07-09T07:39:45Z</time>
      </trkpt>
      <trkpt lat="45.00807" lon="5.51065">
        <ele>1239.7573242188</ele>
        <time>2011-07-09T07:39:51Z</time>
      </trkpt>
      <trkpt lat="45.00805" lon="5.51066">
        <ele>1239.7573242188</ele>
        <time>2011-07-09T07:39:52Z</time>
      </trkpt>
      <trkpt lat="45.00792" lon="5.51064">
        <ele>1238.3154296875</ele>
        <time>2011-07-09T07:39:58Z</time>
      </trkpt>
      <trkpt lat="45.00785" lon="5.51054">
        <ele>1234.9509277344</ele>
        <time>2011-07-09T07:40:03Z</time>
      </trkpt>
      <trkpt lat="45.00778" lon="5.51045">
        <ele>1231.5861816406</ele>
        <time>2011-07-09T07:40:08Z</time>
      </trkpt>
      <trkpt lat="45.00775" lon="5.51042">
        <ele>1231.5861816406</ele>
        <time>2011-07-09T07:40:10Z</time>
      </trkpt>
      <trkpt lat="45.00763" lon="5.51042">
        <ele>1232.0668945312</ele>
        <time>2011-07-09T07:40:16Z</time>
      </trkpt>
      <trkpt lat="45.00747" lon="5.51052">
        <ele>1233.0280761719</ele>
        <time>2011-07-09T07:40:24Z</time>
      </trkpt>
      <trkpt lat="45.00735" lon="5.51061">
        <ele>1234.4702148438</ele>
        <time>2011-07-09T07:40:30Z</time>
      </trkpt>
      <trkpt lat="45.00725" lon="5.51068">
        <ele>1238.7961425781</ele>
        <time>2011-07-09T07:40:36Z</time>
      </trkpt>
      <trkpt lat="45.00722" lon="5.51074">
        <ele>1239.2766113281</ele>
        <time>2011-07-09T07:40:39Z</time>
      </trkpt>
      <trkpt lat="45.00715" lon="5.51082">
        <ele>1240.2380371094</ele>
        <time>2011-07-09T07:40:43Z</time>
      </trkpt>
      <trkpt lat="45.00713" lon="5.51084">
        <ele>1240.7185058594</ele>
        <time>2011-07-09T07:40:44Z</time>
      </trkpt>
      <trkpt lat="45.00708" lon="5.51091">
        <ele>1241.19921875</ele>
        <time>2011-07-09T07:40:47Z</time>
      </trkpt>
      <trkpt lat="45.007" lon="5.51102">
        <ele>1242.6413574219</ele>
        <time>2011-07-09T07:40:52Z</time>
      </trkpt>
      <trkpt lat="45.00694" lon="5.5111">
        <ele>1245.0446777344</ele>
        <time>2011-07-09T07:40:55Z</time>
      </trkpt>
      <trkpt lat="45.00682" lon="5.51119">
        <ele>1244.5639648438</ele>
        <time>2011-07-09T07:41:01Z</time>
      </trkpt>
      <trkpt lat="45.00677" lon="5.51124">
        <ele>1244.0834960938</ele>
        <time>2011-07-09T07:41:04Z</time>
      </trkpt>
      <trkpt lat="45.00665" lon="5.5113">
        <ele>1245.525390625</ele>
        <time>2011-07-09T07:41:10Z</time>
      </trkpt>
      <trkpt lat="45.00661" lon="5.51138">
        <ele>1243.1218261719</ele>
        <time>2011-07-09T07:41:13Z</time>
      </trkpt>
      <trkpt lat="45.00655" lon="5.51139">
        <ele>1240.7185058594</ele>
        <time>2011-07-09T07:41:17Z</time>
      </trkpt>
      <trkpt lat="45.00652" lon="5.5114">
        <ele>1239.7573242188</ele>
        <time>2011-07-09T07:41:19Z</time>
      </trkpt>
      <trkpt lat="45.00645" lon="5.51142">
        <ele>1238.3154296875</ele>
        <time>2011-07-09T07:41:23Z</time>
      </trkpt>
      <trkpt lat="45.00639" lon="5.51146">
        <ele>1238.7961425781</ele>
        <time>2011-07-09T07:41:28Z</time>
      </trkpt>
      <trkpt lat="45.00634" lon="5.51146">
        <ele>1239.2766113281</ele>
        <time>2011-07-09T07:41:31Z</time>
      </trkpt>
      <trkpt lat="45.00629" lon="5.51147">
        <ele>1239.7573242188</ele>
        <time>2011-07-09T07:41:34Z</time>
      </trkpt>
      <trkpt lat="45.00626" lon="5.51148">
        <ele>1239.7573242188</ele>
        <time>2011-07-09T07:41:36Z</time>
      </trkpt>
      <trkpt lat="45.00617" lon="5.51143">
        <ele>1242.6413574219</ele>
        <time>2011-07-09T07:41:41Z</time>
      </trkpt>
      <trkpt lat="45.00608" lon="5.51137">
        <ele>1246.0061035156</ele>
        <time>2011-07-09T07:41:47Z</time>
      </trkpt>
      <trkpt lat="45.00604" lon="5.51131">
        <ele>1248.4091796875</ele>
        <time>2011-07-09T07:41:51Z</time>
      </trkpt>
      <trkpt lat="45.00594" lon="5.51123">
        <ele>1251.7739257812</ele>
        <time>2011-07-09T07:41:58Z</time>
      </trkpt>
      <trkpt lat="45.00587" lon="5.51116">
        <ele>1255.619140625</ele>
        <time>2011-07-09T07:42:03Z</time>
      </trkpt>
      <trkpt lat="45.00586" lon="5.51115">
        <ele>1256.099609375</ele>
        <time>2011-07-09T07:42:04Z</time>
      </trkpt>
      <trkpt lat="45.00574" lon="5.5111">
        <ele>1257.0610351562</ele>
        <time>2011-07-09T07:42:11Z</time>
      </trkpt>
      <trkpt lat="45.00565" lon="5.51107">
        <ele>1259.4643554688</ele>
        <time>2011-07-09T07:42:16Z</time>
      </trkpt>
      <trkpt lat="45.00556" lon="5.51104">
        <ele>1260.9064941406</ele>
        <time>2011-07-09T07:42:21Z</time>
      </trkpt>
      <trkpt lat="45.00552" lon="5.51104">
        <ele>1261.8679199219</ele>
        <time>2011-07-09T07:42:23Z</time>
      </trkpt>
      <trkpt lat="45.00539" lon="5.511">
        <ele>1261.3872070312</ele>
        <time>2011-07-09T07:42:30Z</time>
      </trkpt>
      <trkpt lat="45.00531" lon="5.51095">
        <ele>1259.4643554688</ele>
        <time>2011-07-09T07:42:34Z</time>
      </trkpt>
      <trkpt lat="45.00521" lon="5.5109">
        <ele>1258.0224609375</ele>
        <time>2011-07-09T07:42:39Z</time>
      </trkpt>
      <trkpt lat="45.00513" lon="5.51088">
        <ele>1258.5029296875</ele>
        <time>2011-07-09T07:42:43Z</time>
      </trkpt>
      <trkpt lat="45.00504" lon="5.51081">
        <ele>1256.5803222656</ele>
        <time>2011-07-09T07:42:48Z</time>
      </trkpt>
      <trkpt lat="45.00492" lon="5.51072">
        <ele>1256.099609375</ele>
        <time>2011-07-09T07:42:54Z</time>
      </trkpt>
      <trkpt lat="45.00489" lon="5.51071">
        <ele>1256.099609375</ele>
        <time>2011-07-09T07:42:56Z</time>
      </trkpt>
      <trkpt lat="45.00482" lon="5.51063">
        <ele>1256.099609375</ele>
        <time>2011-07-09T07:43:01Z</time>
      </trkpt>
      <trkpt lat="45.00476" lon="5.51046">
        <ele>1254.6577148438</ele>
        <time>2011-07-09T07:43:07Z</time>
      </trkpt>
      <trkpt lat="45.00474" lon="5.5104">
        <ele>1254.1772460938</ele>
        <time>2011-07-09T07:43:09Z</time>
      </trkpt>
      <trkpt lat="45.00466" lon="5.51028">
        <ele>1253.6965332031</ele>
        <time>2011-07-09T07:43:14Z</time>
      </trkpt>
      <trkpt lat="45.00457" lon="5.51021">
        <ele>1254.1772460938</ele>
        <time>2011-07-09T07:43:18Z</time>
      </trkpt>
      <trkpt lat="45.00446" lon="5.51018">
        <ele>1255.1384277344</ele>
        <time>2011-07-09T07:43:22Z</time>
      </trkpt>
      <trkpt lat="45.0043" lon="5.51016">
        <ele>1258.0224609375</ele>
        <time>2011-07-09T07:43:29Z</time>
      </trkpt>
      <trkpt lat="45.0042" lon="5.51008">
        <ele>1258.5029296875</ele>
        <time>2011-07-09T07:43:33Z</time>
      </trkpt>
      <trkpt lat="45.00408" lon="5.50999">
        <ele>1257.5417480469</ele>
        <time>2011-07-09T07:43:38Z</time>
      </trkpt>
      <trkpt lat="45.00403" lon="5.50998">
        <ele>1256.5803222656</ele>
        <time>2011-07-09T07:43:40Z</time>
      </trkpt>
      <trkpt lat="45.00391" lon="5.50991">
        <ele>1257.5417480469</ele>
        <time>2011-07-09T07:43:46Z</time>
      </trkpt>
      <trkpt lat="45.0038" lon="5.50986">
        <ele>1261.3872070312</ele>
        <time>2011-07-09T07:43:50Z</time>
      </trkpt>
      <trkpt lat="45.0037" lon="5.50992">
        <ele>1263.7902832031</ele>
        <time>2011-07-09T07:43:55Z</time>
      </trkpt>
      <trkpt lat="45.00368" lon="5.50993">
        <ele>1264.2709960938</ele>
        <time>2011-07-09T07:43:56Z</time>
      </trkpt>
      <trkpt lat="45.00361" lon="5.51004">
        <ele>1263.3098144531</ele>
        <time>2011-07-09T07:44:01Z</time>
      </trkpt>
      <trkpt lat="45.00359" lon="5.51009">
        <ele>1261.3872070312</ele>
        <time>2011-07-09T07:44:03Z</time>
      </trkpt>
      <trkpt lat="45.00358" lon="5.51013">
        <ele>1258.5029296875</ele>
        <time>2011-07-09T07:44:06Z</time>
      </trkpt>
      <trkpt lat="45.00349" lon="5.51022">
        <ele>1259.9448242188</ele>
        <time>2011-07-09T07:44:12Z</time>
      </trkpt>
      <trkpt lat="45.00345" lon="5.51027">
        <ele>1261.3872070312</ele>
        <time>2011-07-09T07:44:16Z</time>
      </trkpt>
      <trkpt lat="45.00344" lon="5.51027">
        <ele>1261.8679199219</ele>
        <time>2011-07-09T07:44:17Z</time>
      </trkpt>
      <trkpt lat="45.0034" lon="5.51026">
        <ele>1262.3483886719</ele>
        <time>2011-07-09T07:44:20Z</time>
      </trkpt>
      <trkpt lat="45.00334" lon="5.51027">
        <ele>1263.7902832031</ele>
        <time>2011-07-09T07:44:25Z</time>
      </trkpt>
      <trkpt lat="45.00327" lon="5.51025">
        <ele>1266.6743164062</ele>
        <time>2011-07-09T07:44:30Z</time>
      </trkpt>
      <trkpt lat="45.00322" lon="5.51025">
        <ele>1268.1162109375</ele>
        <time>2011-07-09T07:44:33Z</time>
      </trkpt>
      <trkpt lat="45.00315" lon="5.51026">
        <ele>1271.0002441406</ele>
        <time>2011-07-09T07:44:38Z</time>
      </trkpt>
      <trkpt lat="45.00306" lon="5.51024">
        <ele>1273.8840332031</ele>
        <time>2011-07-09T07:44:44Z</time>
      </trkpt>
      <trkpt lat="45.00301" lon="5.51023">
        <ele>1275.3259277344</ele>
        <time>2011-07-09T07:44:47Z</time>
      </trkpt>
      <trkpt lat="45.00293" lon="5.5102">
        <ele>1275.3259277344</ele>
        <time>2011-07-09T07:44:52Z</time>
      </trkpt>
      <trkpt lat="45.00282" lon="5.51008">
        <ele>1276.2875976562</ele>
        <time>2011-07-09T07:44:59Z</time>
      </trkpt>
      <trkpt lat="45.00277" lon="5.51003">
        <ele>1276.7683105469</ele>
        <time>2011-07-09T07:45:02Z</time>
      </trkpt>
      <trkpt lat="45.00269" lon="5.50998">
        <ele>1277.7294921875</ele>
        <time>2011-07-09T07:45:07Z</time>
      </trkpt>
      <trkpt lat="45.00262" lon="5.50992">
        <ele>1279.1713867188</ele>
        <time>2011-07-09T07:45:12Z</time>
      </trkpt>
      <trkpt lat="45.00253" lon="5.50984">
        <ele>1279.1713867188</ele>
        <time>2011-07-09T07:45:18Z</time>
      </trkpt>
      <trkpt lat="45.00247" lon="5.50981">
        <ele>1279.6520996094</ele>
        <time>2011-07-09T07:45:21Z</time>
      </trkpt>
      <trkpt lat="45.00239" lon="5.50978">
        <ele>1279.6520996094</ele>
        <time>2011-07-09T07:45:25Z</time>
      </trkpt>
      <trkpt lat="45.00233" lon="5.50975">
        <ele>1279.1713867188</ele>
        <time>2011-07-09T07:45:28Z</time>
      </trkpt>
      <trkpt lat="45.00226" lon="5.50969">
        <ele>1278.2102050781</ele>
        <time>2011-07-09T07:45:32Z</time>
      </trkpt>
      <trkpt lat="45.00216" lon="5.5097">
        <ele>1279.6520996094</ele>
        <time>2011-07-09T07:45:38Z</time>
      </trkpt>
      <trkpt lat="45.00214" lon="5.5097">
        <ele>1279.1713867188</ele>
        <time>2011-07-09T07:45:39Z</time>
      </trkpt>
      <trkpt lat="45.00203" lon="5.50969">
        <ele>1282.5361328125</ele>
        <time>2011-07-09T07:45:44Z</time>
      </trkpt>
      <trkpt lat="45.00193" lon="5.50963">
        <ele>1282.5361328125</ele>
        <time>2011-07-09T07:45:49Z</time>
      </trkpt>
      <trkpt lat="45.00189" lon="5.50953">
        <ele>1281.0942382812</ele>
        <time>2011-07-09T07:45:53Z</time>
      </trkpt>
      <trkpt lat="45.00187" lon="5.50945">
        <ele>1279.1713867188</ele>
        <time>2011-07-09T07:45:56Z</time>
      </trkpt>
      <trkpt lat="45.00183" lon="5.5093">
        <ele>1277.7294921875</ele>
        <time>2011-07-09T07:46:02Z</time>
      </trkpt>
      <trkpt lat="45.00182" lon="5.50919">
        <ele>1276.7683105469</ele>
        <time>2011-07-09T07:46:06Z</time>
      </trkpt>
      <trkpt lat="45.00183" lon="5.509">
        <ele>1276.2875976562</ele>
        <time>2011-07-09T07:46:12Z</time>
      </trkpt>
      <trkpt lat="45.00182" lon="5.50883">
        <ele>1275.806640625</ele>
        <time>2011-07-09T07:46:17Z</time>
      </trkpt>
      <trkpt lat="45.00181" lon="5.50871">
        <ele>1276.2875976562</ele>
        <time>2011-07-09T07:46:21Z</time>
      </trkpt>
      <trkpt lat="45.00178" lon="5.50862">
        <ele>1275.3259277344</ele>
        <time>2011-07-09T07:46:25Z</time>
      </trkpt>
      <trkpt lat="45.00173" lon="5.50851">
        <ele>1275.3259277344</ele>
        <time>2011-07-09T07:46:29Z</time>
      </trkpt>
      <trkpt lat="45.00167" lon="5.50841">
        <ele>1273.8840332031</ele>
        <time>2011-07-09T07:46:33Z</time>
      </trkpt>
      <trkpt lat="45.00159" lon="5.50835">
        <ele>1274.3647460938</ele>
        <time>2011-07-09T07:46:37Z</time>
      </trkpt>
      <trkpt lat="45.00149" lon="5.50829">
        <ele>1275.3259277344</ele>
        <time>2011-07-09T07:46:42Z</time>
      </trkpt>
      <trkpt lat="45.00138" lon="5.50822">
        <ele>1274.8454589844</ele>
        <time>2011-07-09T07:46:48Z</time>
      </trkpt>
      <trkpt lat="45.0013" lon="5.50804">
        <ele>1276.2875976562</ele>
        <time>2011-07-09T07:46:55Z</time>
      </trkpt>
      <trkpt lat="45.00127" lon="5.50798">
        <ele>1277.2490234375</ele>
        <time>2011-07-09T07:46:58Z</time>
      </trkpt>
      <trkpt lat="45.00125" lon="5.50796">
        <ele>1276.7683105469</ele>
        <time>2011-07-09T07:47:00Z</time>
      </trkpt>
      <trkpt lat="45.00125" lon="5.50796">
        <ele>1276.7683105469</ele>
        <time>2011-07-09T07:47:00Z</time>
      </trkpt>
      <trkpt lat="45.00113" lon="5.50789">
        <ele>1279.1713867188</ele>
        <time>2011-07-09T07:47:05Z</time>
      </trkpt>
      <trkpt lat="45.00102" lon="5.50787">
        <ele>1281.0942382812</ele>
        <time>2011-07-09T07:47:09Z</time>
      </trkpt>
      <trkpt lat="45.00092" lon="5.50783">
        <ele>1283.4973144531</ele>
        <time>2011-07-09T07:47:13Z</time>
      </trkpt>
      <trkpt lat="45.00076" lon="5.50774">
        <ele>1283.9780273438</ele>
        <time>2011-07-09T07:47:21Z</time>
      </trkpt>
      <trkpt lat="45.00066" lon="5.50771">
        <ele>1283.0166015625</ele>
        <time>2011-07-09T07:47:26Z</time>
      </trkpt>
      <trkpt lat="45.00053" lon="5.50767">
        <ele>1282.0554199219</ele>
        <time>2011-07-09T07:47:33Z</time>
      </trkpt>
      <trkpt lat="45.00044" lon="5.50765">
        <ele>1282.0554199219</ele>
        <time>2011-07-09T07:47:37Z</time>
      </trkpt>
      <trkpt lat="45.0003" lon="5.5076">
        <ele>1281.0942382812</ele>
        <time>2011-07-09T07:47:43Z</time>
      </trkpt>
      <trkpt lat="45.00018" lon="5.5076">
        <ele>1281.0942382812</ele>
        <time>2011-07-09T07:47:48Z</time>
      </trkpt>
      <trkpt lat="45.00005" lon="5.50754">
        <ele>1278.6909179688</ele>
        <time>2011-07-09T07:47:53Z</time>
      </trkpt>
      <trkpt lat="44.99989" lon="5.50745">
        <ele>1277.2490234375</ele>
        <time>2011-07-09T07:47:59Z</time>
      </trkpt>
      <trkpt lat="44.99977" lon="5.50749">
        <ele>1274.8454589844</ele>
        <time>2011-07-09T07:48:04Z</time>
      </trkpt>
      <trkpt lat="44.99966" lon="5.50755">
        <ele>1272.9228515625</ele>
        <time>2011-07-09T07:48:09Z</time>
      </trkpt>
      <trkpt lat="44.99958" lon="5.50759">
        <ele>1270.51953125</ele>
        <time>2011-07-09T07:48:13Z</time>
      </trkpt>
      <trkpt lat="44.99957" lon="5.50761">
        <ele>1270.0388183594</ele>
        <time>2011-07-09T07:48:14Z</time>
      </trkpt>
      <trkpt lat="44.99958" lon="5.50764">
        <ele>1267.1550292969</ele>
        <time>2011-07-09T07:48:17Z</time>
      </trkpt>
      <trkpt lat="44.99948" lon="5.50763">
        <ele>1266.1936035156</ele>
        <time>2011-07-09T07:48:21Z</time>
      </trkpt>
      <trkpt lat="44.99945" lon="5.50763">
        <ele>1266.1936035156</ele>
        <time>2011-07-09T07:48:22Z</time>
      </trkpt>
      <trkpt lat="44.99931" lon="5.50764">
        <ele>1267.6354980469</ele>
        <time>2011-07-09T07:48:28Z</time>
      </trkpt>
      <trkpt lat="44.99919" lon="5.50769">
        <ele>1270.51953125</ele>
        <time>2011-07-09T07:48:34Z</time>
      </trkpt>
      <trkpt lat="44.99909" lon="5.50774">
        <ele>1271.9614257812</ele>
        <time>2011-07-09T07:48:38Z</time>
      </trkpt>
      <trkpt lat="44.99905" lon="5.50777">
        <ele>1271.4807128906</ele>
        <time>2011-07-09T07:48:41Z</time>
      </trkpt>
      <trkpt lat="44.9989" lon="5.50786">
        <ele>1272.9228515625</ele>
        <time>2011-07-09T07:48:47Z</time>
      </trkpt>
      <trkpt lat="44.99886" lon="5.5079">
        <ele>1273.4035644531</ele>
        <time>2011-07-09T07:48:49Z</time>
      </trkpt>
      <trkpt lat="44.99876" lon="5.5079">
        <ele>1271.9614257812</ele>
        <time>2011-07-09T07:48:54Z</time>
      </trkpt>
      <trkpt lat="44.99863" lon="5.50793">
        <ele>1271.4807128906</ele>
        <time>2011-07-09T07:48:59Z</time>
      </trkpt>
      <trkpt lat="44.99853" lon="5.50793">
        <ele>1271.9614257812</ele>
        <time>2011-07-09T07:49:03Z</time>
      </trkpt>
      <trkpt lat="44.99844" lon="5.50783">
        <ele>1270.51953125</ele>
        <time>2011-07-09T07:49:09Z</time>
      </trkpt>
      <trkpt lat="44.99836" lon="5.50775">
        <ele>1271.9614257812</ele>
        <time>2011-07-09T07:49:14Z</time>
      </trkpt>
      <trkpt lat="44.99826" lon="5.50766">
        <ele>1276.7683105469</ele>
        <time>2011-07-09T07:49:20Z</time>
      </trkpt>
      <trkpt lat="44.9982" lon="5.50761">
        <ele>1277.2490234375</ele>
        <time>2011-07-09T07:49:24Z</time>
      </trkpt>
      <trkpt lat="44.9981" lon="5.50755">
        <ele>1277.2490234375</ele>
        <time>2011-07-09T07:49:29Z</time>
      </trkpt>
      <trkpt lat="44.99804" lon="5.50751">
        <ele>1278.6909179688</ele>
        <time>2011-07-09T07:49:32Z</time>
      </trkpt>
      <trkpt lat="44.99794" lon="5.50742">
        <ele>1277.2490234375</ele>
        <time>2011-07-09T07:49:38Z</time>
      </trkpt>
      <trkpt lat="44.99787" lon="5.50733">
        <ele>1279.6520996094</ele>
        <time>2011-07-09T07:49:43Z</time>
      </trkpt>
      <trkpt lat="44.99782" lon="5.50723">
        <ele>1278.2102050781</ele>
        <time>2011-07-09T07:49:48Z</time>
      </trkpt>
      <trkpt lat="44.99775" lon="5.5071">
        <ele>1279.1713867188</ele>
        <time>2011-07-09T07:49:54Z</time>
      </trkpt>
      <trkpt lat="44.99767" lon="5.50702">
        <ele>1279.6520996094</ele>
        <time>2011-07-09T07:49:59Z</time>
      </trkpt>
      <trkpt lat="44.9976" lon="5.50699">
        <ele>1281.0942382812</ele>
        <time>2011-07-09T07:50:04Z</time>
      </trkpt>
      <trkpt lat="44.99758" lon="5.50699">
        <ele>1282.0554199219</ele>
        <time>2011-07-09T07:50:05Z</time>
      </trkpt>
      <trkpt lat="44.9975" lon="5.50697">
        <ele>1284.4587402344</ele>
        <time>2011-07-09T07:50:11Z</time>
      </trkpt>
      <trkpt lat="44.99742" lon="5.50696">
        <ele>1286.3813476562</ele>
        <time>2011-07-09T07:50:17Z</time>
      </trkpt>
      <trkpt lat="44.9974" lon="5.50696">
        <ele>1286.3813476562</ele>
        <time>2011-07-09T07:50:19Z</time>
      </trkpt>
      <trkpt lat="44.99736" lon="5.50698">
        <ele>1286.8618164062</ele>
        <time>2011-07-09T07:50:23Z</time>
      </trkpt>
      <trkpt lat="44.99726" lon="5.50704">
        <ele>1290.2265625</ele>
        <time>2011-07-09T07:50:29Z</time>
      </trkpt>
      <trkpt lat="44.99718" lon="5.5071">
        <ele>1291.1877441406</ele>
        <time>2011-07-09T07:50:34Z</time>
      </trkpt>
      <trkpt lat="44.99712" lon="5.50708">
        <ele>1290.2265625</ele>
        <time>2011-07-09T07:50:37Z</time>
      </trkpt>
      <trkpt lat="44.99706" lon="5.50706">
        <ele>1289.7458496094</ele>
        <time>2011-07-09T07:50:41Z</time>
      </trkpt>
      <trkpt lat="44.99705" lon="5.50707">
        <ele>1289.7458496094</ele>
        <time>2011-07-09T07:50:42Z</time>
      </trkpt>
      <trkpt lat="44.99696" lon="5.50706">
        <ele>1288.7846679688</ele>
        <time>2011-07-09T07:50:47Z</time>
      </trkpt>
      <trkpt lat="44.99687" lon="5.50707">
        <ele>1288.7846679688</ele>
        <time>2011-07-09T07:50:52Z</time>
      </trkpt>
      <trkpt lat="44.99684" lon="5.50705">
        <ele>1289.7458496094</ele>
        <time>2011-07-09T07:50:55Z</time>
      </trkpt>
      <trkpt lat="44.99672" lon="5.50713">
        <ele>1291.1877441406</ele>
        <time>2011-07-09T07:51:02Z</time>
      </trkpt>
      <trkpt lat="44.99665" lon="5.50714">
        <ele>1293.1105957031</ele>
        <time>2011-07-09T07:51:06Z</time>
      </trkpt>
      <trkpt lat="44.99657" lon="5.50725">
        <ele>1295.5139160156</ele>
        <time>2011-07-09T07:51:11Z</time>
      </trkpt>
      <trkpt lat="44.99651" lon="5.50727">
        <ele>1295.9946289062</ele>
        <time>2011-07-09T07:51:15Z</time>
      </trkpt>
      <trkpt lat="44.9965" lon="5.50728">
        <ele>1295.9946289062</ele>
        <time>2011-07-09T07:51:16Z</time>
      </trkpt>
      <trkpt lat="44.99639" lon="5.50734">
        <ele>1296.4753417969</ele>
        <time>2011-07-09T07:51:22Z</time>
      </trkpt>
      <trkpt lat="44.99632" lon="5.50734">
        <ele>1296.4753417969</ele>
        <time>2011-07-09T07:51:26Z</time>
      </trkpt>
      <trkpt lat="44.9963" lon="5.50736">
        <ele>1295.5139160156</ele>
        <time>2011-07-09T07:51:28Z</time>
      </trkpt>
      <trkpt lat="44.99625" lon="5.50737">
        <ele>1296.4753417969</ele>
        <time>2011-07-09T07:51:32Z</time>
      </trkpt>
      <trkpt lat="44.99616" lon="5.5074">
        <ele>1296.9558105469</ele>
        <time>2011-07-09T07:51:37Z</time>
      </trkpt>
      <trkpt lat="44.99611" lon="5.50742">
        <ele>1297.4365234375</ele>
        <time>2011-07-09T07:51:41Z</time>
      </trkpt>
      <trkpt lat="44.99603" lon="5.50742">
        <ele>1297.9172363281</ele>
        <time>2011-07-09T07:51:47Z</time>
      </trkpt>
      <trkpt lat="44.99594" lon="5.50744">
        <ele>1296.9558105469</ele>
        <time>2011-07-09T07:51:52Z</time>
      </trkpt>
      <trkpt lat="44.9959" lon="5.50746">
        <ele>1297.9172363281</ele>
        <time>2011-07-09T07:51:54Z</time>
      </trkpt>
      <trkpt lat="44.99579" lon="5.50747">
        <ele>1298.3977050781</ele>
        <time>2011-07-09T07:52:00Z</time>
      </trkpt>
      <trkpt lat="44.99572" lon="5.50741">
        <ele>1298.8784179688</ele>
        <time>2011-07-09T07:52:04Z</time>
      </trkpt>
      <trkpt lat="44.99566" lon="5.50733">
        <ele>1300.3205566406</ele>
        <time>2011-07-09T07:52:08Z</time>
      </trkpt>
      <trkpt lat="44.99559" lon="5.50718">
        <ele>1304.1657714844</ele>
        <time>2011-07-09T07:52:14Z</time>
      </trkpt>
      <trkpt lat="44.99554" lon="5.50706">
        <ele>1304.6462402344</ele>
        <time>2011-07-09T07:52:19Z</time>
      </trkpt>
      <trkpt lat="44.99544" lon="5.507">
        <ele>1307.5302734375</ele>
        <time>2011-07-09T07:52:24Z</time>
      </trkpt>
      <trkpt lat="44.99533" lon="5.507">
        <ele>1309.453125</ele>
        <time>2011-07-09T07:52:29Z</time>
      </trkpt>
      <trkpt lat="44.99522" lon="5.50698">
        <ele>1310.4143066406</ele>
        <time>2011-07-09T07:52:33Z</time>
      </trkpt>
      <trkpt lat="44.99512" lon="5.50693">
        <ele>1311.8564453125</ele>
        <time>2011-07-09T07:52:38Z</time>
      </trkpt>
      <trkpt lat="44.99505" lon="5.5069">
        <ele>1315.2209472656</ele>
        <time>2011-07-09T07:52:43Z</time>
      </trkpt>
      <trkpt lat="44.99499" lon="5.50688">
        <ele>1315.2209472656</ele>
        <time>2011-07-09T07:52:48Z</time>
      </trkpt>
      <trkpt lat="44.99491" lon="5.50686">
        <ele>1315.2209472656</ele>
        <time>2011-07-09T07:52:54Z</time>
      </trkpt>
      <trkpt lat="44.99484" lon="5.50682">
        <ele>1314.740234375</ele>
        <time>2011-07-09T07:53:00Z</time>
      </trkpt>
      <trkpt lat="44.99477" lon="5.50678">
        <ele>1312.3369140625</ele>
        <time>2011-07-09T07:53:06Z</time>
      </trkpt>
      <trkpt lat="44.99468" lon="5.5067">
        <ele>1313.2983398438</ele>
        <time>2011-07-09T07:53:12Z</time>
      </trkpt>
      <trkpt lat="44.99462" lon="5.50663">
        <ele>1311.8564453125</ele>
        <time>2011-07-09T07:53:18Z</time>
      </trkpt>
      <trkpt lat="44.99454" lon="5.50656">
        <ele>1311.8564453125</ele>
        <time>2011-07-09T07:53:24Z</time>
      </trkpt>
      <trkpt lat="44.99448" lon="5.50653">
        <ele>1312.3369140625</ele>
        <time>2011-07-09T07:53:29Z</time>
      </trkpt>
      <trkpt lat="44.99436" lon="5.50648">
        <ele>1314.740234375</ele>
        <time>2011-07-09T07:53:36Z</time>
      </trkpt>
      <trkpt lat="44.99426" lon="5.5064">
        <ele>1315.2209472656</ele>
        <time>2011-07-09T07:53:42Z</time>
      </trkpt>
      <trkpt lat="44.99416" lon="5.5064">
        <ele>1317.1435546875</ele>
        <time>2011-07-09T07:53:47Z</time>
      </trkpt>
      <trkpt lat="44.99412" lon="5.50641">
        <ele>1318.1047363281</ele>
        <time>2011-07-09T07:53:49Z</time>
      </trkpt>
      <trkpt lat="44.99403" lon="5.50645">
        <ele>1319.0661621094</ele>
        <time>2011-07-09T07:53:54Z</time>
      </trkpt>
      <trkpt lat="44.99397" lon="5.50647">
        <ele>1319.546875</ele>
        <time>2011-07-09T07:53:57Z</time>
      </trkpt>
      <trkpt lat="44.99382" lon="5.50655">
        <ele>1319.546875</ele>
        <time>2011-07-09T07:54:04Z</time>
      </trkpt>
      <trkpt lat="44.99377" lon="5.50655">
        <ele>1319.546875</ele>
        <time>2011-07-09T07:54:07Z</time>
      </trkpt>
      <trkpt lat="44.99372" lon="5.5066">
        <ele>1322.9113769531</ele>
        <time>2011-07-09T07:54:10Z</time>
      </trkpt>
      <trkpt lat="44.99364" lon="5.50665">
        <ele>1326.7568359375</ele>
        <time>2011-07-09T07:54:14Z</time>
      </trkpt>
      <trkpt lat="44.99361" lon="5.50664">
        <ele>1328.6794433594</ele>
        <time>2011-07-09T07:54:16Z</time>
      </trkpt>
      <trkpt lat="44.99349" lon="5.50656">
        <ele>1332.5246582031</ele>
        <time>2011-07-09T07:54:22Z</time>
      </trkpt>
      <trkpt lat="44.99343" lon="5.5065">
        <ele>1331.5632324219</ele>
        <time>2011-07-09T07:54:26Z</time>
      </trkpt>
      <trkpt lat="44.99335" lon="5.50642">
        <ele>1333.4858398438</ele>
        <time>2011-07-09T07:54:31Z</time>
      </trkpt>
      <trkpt lat="44.9933" lon="5.50637">
        <ele>1333.9665527344</ele>
        <time>2011-07-09T07:54:35Z</time>
      </trkpt>
      <trkpt lat="44.99324" lon="5.50633">
        <ele>1334.9279785156</ele>
        <time>2011-07-09T07:54:40Z</time>
      </trkpt>
      <trkpt lat="44.99319" lon="5.50628">
        <ele>1337.3310546875</ele>
        <time>2011-07-09T07:54:44Z</time>
      </trkpt>
      <trkpt lat="44.99314" lon="5.50619">
        <ele>1338.2924804688</ele>
        <time>2011-07-09T07:54:48Z</time>
      </trkpt>
      <trkpt lat="44.99314" lon="5.50619">
        <ele>1338.2924804688</ele>
        <time>2011-07-09T07:54:48Z</time>
      </trkpt>
      <trkpt lat="44.99309" lon="5.50608">
        <ele>1338.7731933594</ele>
        <time>2011-07-09T07:54:54Z</time>
      </trkpt>
      <trkpt lat="44.99307" lon="5.50603">
        <ele>1339.734375</ele>
        <time>2011-07-09T07:54:56Z</time>
      </trkpt>
      <trkpt lat="44.99305" lon="5.5059">
        <ele>1336.8503417969</ele>
        <time>2011-07-09T07:55:02Z</time>
      </trkpt>
      <trkpt lat="44.99299" lon="5.50572">
        <ele>1333.9665527344</ele>
        <time>2011-07-09T07:55:09Z</time>
      </trkpt>
      <trkpt lat="44.99292" lon="5.50562">
        <ele>1334.9279785156</ele>
        <time>2011-07-09T07:55:14Z</time>
      </trkpt>
      <trkpt lat="44.99284" lon="5.5055">
        <ele>1333.9665527344</ele>
        <time>2011-07-09T07:55:19Z</time>
      </trkpt>
      <trkpt lat="44.99276" lon="5.50541">
        <ele>1335.8891601562</ele>
        <time>2011-07-09T07:55:23Z</time>
      </trkpt>
      <trkpt lat="44.99265" lon="5.50531">
        <ele>1336.3698730469</ele>
        <time>2011-07-09T07:55:29Z</time>
      </trkpt>
      <trkpt lat="44.99257" lon="5.50528">
        <ele>1337.3310546875</ele>
        <time>2011-07-09T07:55:32Z</time>
      </trkpt>
      <trkpt lat="44.99242" lon="5.50526">
        <ele>1340.2153320312</ele>
        <time>2011-07-09T07:55:38Z</time>
      </trkpt>
      <trkpt lat="44.9924" lon="5.50525">
        <ele>1341.6572265625</ele>
        <time>2011-07-09T07:55:39Z</time>
      </trkpt>
      <trkpt lat="44.99233" lon="5.50517">
        <ele>1341.6572265625</ele>
        <time>2011-07-09T07:55:44Z</time>
      </trkpt>
      <trkpt lat="44.99227" lon="5.50509">
        <ele>1343.5798339844</ele>
        <time>2011-07-09T07:55:49Z</time>
      </trkpt>
      <trkpt lat="44.99225" lon="5.50507">
        <ele>1345.0217285156</ele>
        <time>2011-07-09T07:55:50Z</time>
      </trkpt>
      <trkpt lat="44.99219" lon="5.50501">
        <ele>1345.5024414062</ele>
        <time>2011-07-09T07:55:56Z</time>
      </trkpt>
      <trkpt lat="44.99216" lon="5.50497">
        <ele>1344.060546875</ele>
        <time>2011-07-09T07:55:59Z</time>
      </trkpt>
      <trkpt lat="44.99211" lon="5.5049">
        <ele>1340.6958007812</ele>
        <time>2011-07-09T07:56:05Z</time>
      </trkpt>
      <trkpt lat="44.99204" lon="5.50488">
        <ele>1341.1765136719</ele>
        <time>2011-07-09T07:56:11Z</time>
      </trkpt>
      <trkpt lat="44.992" lon="5.50488">
        <ele>1342.1379394531</ele>
        <time>2011-07-09T07:56:15Z</time>
      </trkpt>
      <trkpt lat="44.99194" lon="5.50479">
        <ele>1344.060546875</ele>
        <time>2011-07-09T07:56:20Z</time>
      </trkpt>
      <trkpt lat="44.99187" lon="5.50472">
        <ele>1345.5024414062</ele>
        <time>2011-07-09T07:56:25Z</time>
      </trkpt>
      <trkpt lat="44.99183" lon="5.50465">
        <ele>1343.0991210938</ele>
        <time>2011-07-09T07:56:33Z</time>
      </trkpt>
      <trkpt lat="44.99176" lon="5.5046">
        <ele>1347.9057617188</ele>
        <time>2011-07-09T07:56:39Z</time>
      </trkpt>
      <trkpt lat="44.99167" lon="5.50456">
        <ele>1349.8283691406</ele>
        <time>2011-07-09T07:56:45Z</time>
      </trkpt>
      <trkpt lat="44.99165" lon="5.50456">
        <ele>1350.7895507812</ele>
        <time>2011-07-09T07:56:47Z</time>
      </trkpt>
      <trkpt lat="44.99161" lon="5.50456">
        <ele>1350.7895507812</ele>
        <time>2011-07-09T07:56:51Z</time>
      </trkpt>
      <trkpt lat="44.99157" lon="5.50454">
        <ele>1351.7509765625</ele>
        <time>2011-07-09T07:56:55Z</time>
      </trkpt>
      <trkpt lat="44.99151" lon="5.50453">
        <ele>1350.7895507812</ele>
        <time>2011-07-09T07:57:00Z</time>
      </trkpt>
      <trkpt lat="44.99142" lon="5.50448">
        <ele>1352.7121582031</ele>
        <time>2011-07-09T07:57:06Z</time>
      </trkpt>
      <trkpt lat="44.99138" lon="5.50443">
        <ele>1352.2314453125</ele>
        <time>2011-07-09T07:57:10Z</time>
      </trkpt>
      <trkpt lat="44.99131" lon="5.50436">
        <ele>1351.7509765625</ele>
        <time>2011-07-09T07:57:15Z</time>
      </trkpt>
      <trkpt lat="44.99129" lon="5.50432">
        <ele>1351.7509765625</ele>
        <time>2011-07-09T07:57:17Z</time>
      </trkpt>
      <trkpt lat="44.9912" lon="5.50429">
        <ele>1354.154296875</ele>
        <time>2011-07-09T07:57:22Z</time>
      </trkpt>
      <trkpt lat="44.99115" lon="5.50427">
        <ele>1355.1154785156</ele>
        <time>2011-07-09T07:57:25Z</time>
      </trkpt>
      <trkpt lat="44.99105" lon="5.50424">
        <ele>1358.9609375</ele>
        <time>2011-07-09T07:57:31Z</time>
      </trkpt>
      <trkpt lat="44.99102" lon="5.50421">
        <ele>1359.4416503906</ele>
        <time>2011-07-09T07:57:33Z</time>
      </trkpt>
      <trkpt lat="44.99094" lon="5.50414">
        <ele>1358.4802246094</ele>
        <time>2011-07-09T07:57:38Z</time>
      </trkpt>
      <trkpt lat="44.99091" lon="5.50412">
        <ele>1356.5576171875</ele>
        <time>2011-07-09T07:57:40Z</time>
      </trkpt>
      <trkpt lat="44.99081" lon="5.50404">
        <ele>1357.5190429688</ele>
        <time>2011-07-09T07:57:47Z</time>
      </trkpt>
      <trkpt lat="44.99075" lon="5.50397">
        <ele>1357.0383300781</ele>
        <time>2011-07-09T07:57:52Z</time>
      </trkpt>
      <trkpt lat="44.99072" lon="5.50396">
        <ele>1356.0769042969</ele>
        <time>2011-07-09T07:57:54Z</time>
      </trkpt>
      <trkpt lat="44.99061" lon="5.50393">
        <ele>1357.0383300781</ele>
        <time>2011-07-09T07:58:00Z</time>
      </trkpt>
      <trkpt lat="44.9905" lon="5.50394">
        <ele>1357.0383300781</ele>
        <time>2011-07-09T07:58:06Z</time>
      </trkpt>
      <trkpt lat="44.99042" lon="5.50393">
        <ele>1357.0383300781</ele>
        <time>2011-07-09T07:58:11Z</time>
      </trkpt>
      <trkpt lat="44.99029" lon="5.50386">
        <ele>1359.4416503906</ele>
        <time>2011-07-09T07:58:18Z</time>
      </trkpt>
      <trkpt lat="44.99025" lon="5.50384">
        <ele>1359.4416503906</ele>
        <time>2011-07-09T07:58:20Z</time>
      </trkpt>
      <trkpt lat="44.99015" lon="5.50379">
        <ele>1358.4802246094</ele>
        <time>2011-07-09T07:58:25Z</time>
      </trkpt>
      <trkpt lat="44.99005" lon="5.50386">
        <ele>1357.5190429688</ele>
        <time>2011-07-09T07:58:30Z</time>
      </trkpt>
      <trkpt lat="44.98995" lon="5.50392">
        <ele>1360.4028320312</ele>
        <time>2011-07-09T07:58:35Z</time>
      </trkpt>
      <trkpt lat="44.98983" lon="5.50392">
        <ele>1365.2094726562</ele>
        <time>2011-07-09T07:58:40Z</time>
      </trkpt>
      <trkpt lat="44.98975" lon="5.50394">
        <ele>1366.1706542969</ele>
        <time>2011-07-09T07:58:44Z</time>
      </trkpt>
      <trkpt lat="44.98966" lon="5.504">
        <ele>1367.1320800781</ele>
        <time>2011-07-09T07:58:48Z</time>
      </trkpt>
      <trkpt lat="44.98959" lon="5.50406">
        <ele>1365.2094726562</ele>
        <time>2011-07-09T07:58:54Z</time>
      </trkpt>
      <trkpt lat="44.98948" lon="5.50409">
        <ele>1363.2868652344</ele>
        <time>2011-07-09T07:59:01Z</time>
      </trkpt>
      <trkpt lat="44.9894" lon="5.50405">
        <ele>1365.2094726562</ele>
        <time>2011-07-09T07:59:05Z</time>
      </trkpt>
      <trkpt lat="44.98935" lon="5.50395">
        <ele>1362.8061523438</ele>
        <time>2011-07-09T07:59:10Z</time>
      </trkpt>
      <trkpt lat="44.98929" lon="5.5039">
        <ele>1361.3642578125</ele>
        <time>2011-07-09T07:59:14Z</time>
      </trkpt>
      <trkpt lat="44.98919" lon="5.50386">
        <ele>1358.9609375</ele>
        <time>2011-07-09T07:59:19Z</time>
      </trkpt>
      <trkpt lat="44.98916" lon="5.50388">
        <ele>1357.9997558594</ele>
        <time>2011-07-09T07:59:20Z</time>
      </trkpt>
      <trkpt lat="44.98907" lon="5.50389">
        <ele>1355.5961914062</ele>
        <time>2011-07-09T07:59:24Z</time>
      </trkpt>
      <trkpt lat="44.98898" lon="5.50382">
        <ele>1358.4802246094</ele>
        <time>2011-07-09T07:59:28Z</time>
      </trkpt>
      <trkpt lat="44.98887" lon="5.50373">
        <ele>1359.4416503906</ele>
        <time>2011-07-09T07:59:33Z</time>
      </trkpt>
      <trkpt lat="44.98875" lon="5.50368">
        <ele>1358.9609375</ele>
        <time>2011-07-09T07:59:39Z</time>
      </trkpt>
      <trkpt lat="44.98864" lon="5.50365">
        <ele>1358.9609375</ele>
        <time>2011-07-09T07:59:44Z</time>
      </trkpt>
      <trkpt lat="44.98855" lon="5.50365">
        <ele>1358.4802246094</ele>
        <time>2011-07-09T07:59:49Z</time>
      </trkpt>
      <trkpt lat="44.98843" lon="5.50372">
        <ele>1361.3642578125</ele>
        <time>2011-07-09T07:59:55Z</time>
      </trkpt>
      <trkpt lat="44.98829" lon="5.5038">
        <ele>1360.8835449219</ele>
        <time>2011-07-09T08:00:01Z</time>
      </trkpt>
      <trkpt lat="44.98819" lon="5.50387">
        <ele>1361.3642578125</ele>
        <time>2011-07-09T08:00:06Z</time>
      </trkpt>
      <trkpt lat="44.98808" lon="5.5039">
        <ele>1362.8061523438</ele>
        <time>2011-07-09T08:00:11Z</time>
      </trkpt>
      <trkpt lat="44.98796" lon="5.50391">
        <ele>1368.5739746094</ele>
        <time>2011-07-09T08:00:16Z</time>
      </trkpt>
      <trkpt lat="44.9879" lon="5.50392">
        <ele>1370.9772949219</ele>
        <time>2011-07-09T08:00:19Z</time>
      </trkpt>
      <trkpt lat="44.98784" lon="5.50394">
        <ele>1369.5354003906</ele>
        <time>2011-07-09T08:00:25Z</time>
      </trkpt>
      <trkpt lat="44.98783" lon="5.50394">
        <ele>1370.0158691406</ele>
        <time>2011-07-09T08:00:26Z</time>
      </trkpt>
      <trkpt lat="44.98776" lon="5.50395">
        <ele>1372.4194335938</ele>
        <time>2011-07-09T08:00:32Z</time>
      </trkpt>
      <trkpt lat="44.98769" lon="5.50394">
        <ele>1371.9384765625</ele>
        <time>2011-07-09T08:00:37Z</time>
      </trkpt>
      <trkpt lat="44.9876" lon="5.5039">
        <ele>1372.9001464844</ele>
        <time>2011-07-09T08:00:43Z</time>
      </trkpt>
      <trkpt lat="44.98759" lon="5.5039">
        <ele>1373.861328125</ele>
        <time>2011-07-09T08:00:44Z</time>
      </trkpt>
      <trkpt lat="44.98749" lon="5.5039">
        <ele>1372.9001464844</ele>
        <time>2011-07-09T08:00:49Z</time>
      </trkpt>
      <trkpt lat="44.98743" lon="5.50388">
        <ele>1372.4194335938</ele>
        <time>2011-07-09T08:00:51Z</time>
      </trkpt>
      <trkpt lat="44.98733" lon="5.50384">
        <ele>1372.4194335938</ele>
        <time>2011-07-09T08:00:56Z</time>
      </trkpt>
      <trkpt lat="44.98732" lon="5.50383">
        <ele>1372.4194335938</ele>
        <time>2011-07-09T08:00:57Z</time>
      </trkpt>
      <trkpt lat="44.98727" lon="5.50383">
        <ele>1372.4194335938</ele>
        <time>2011-07-09T08:01:00Z</time>
      </trkpt>
      <trkpt lat="44.98718" lon="5.50387">
        <ele>1372.4194335938</ele>
        <time>2011-07-09T08:01:05Z</time>
      </trkpt>
      <trkpt lat="44.98717" lon="5.50389">
        <ele>1372.9001464844</ele>
        <time>2011-07-09T08:01:06Z</time>
      </trkpt>
      <trkpt lat="44.98711" lon="5.50395">
        <ele>1375.3032226562</ele>
        <time>2011-07-09T08:01:09Z</time>
      </trkpt>
      <trkpt lat="44.98706" lon="5.50397">
        <ele>1370.4965820312</ele>
        <time>2011-07-09T08:01:13Z</time>
      </trkpt>
      <trkpt lat="44.98701" lon="5.50401">
        <ele>1366.6513671875</ele>
        <time>2011-07-09T08:01:18Z</time>
      </trkpt>
      <trkpt lat="44.98698" lon="5.50407">
        <ele>1364.7287597656</ele>
        <time>2011-07-09T08:01:23Z</time>
      </trkpt>
      <trkpt lat="44.98693" lon="5.50416">
        <ele>1365.6901855469</ele>
        <time>2011-07-09T08:01:30Z</time>
      </trkpt>
      <trkpt lat="44.98686" lon="5.50422">
        <ele>1368.0932617188</ele>
        <time>2011-07-09T08:01:35Z</time>
      </trkpt>
      <trkpt lat="44.98684" lon="5.50425">
        <ele>1367.6125488281</ele>
        <time>2011-07-09T08:01:37Z</time>
      </trkpt>
      <trkpt lat="44.98674" lon="5.50431">
        <ele>1368.5739746094</ele>
        <time>2011-07-09T08:01:43Z</time>
      </trkpt>
      <trkpt lat="44.98667" lon="5.50438">
        <ele>1376.7453613281</ele>
        <time>2011-07-09T08:01:47Z</time>
      </trkpt>
      <trkpt lat="44.98666" lon="5.5044">
        <ele>1376.7453613281</ele>
        <time>2011-07-09T08:01:48Z</time>
      </trkpt>
      <trkpt lat="44.98655" lon="5.50452">
        <ele>1379.1484375</ele>
        <time>2011-07-09T08:01:55Z</time>
      </trkpt>
      <trkpt lat="44.98654" lon="5.50453">
        <ele>1379.1484375</ele>
        <time>2011-07-09T08:01:56Z</time>
      </trkpt>
      <trkpt lat="44.98651" lon="5.50458">
        <ele>1377.2260742188</ele>
        <time>2011-07-09T08:01:59Z</time>
      </trkpt>
      <trkpt lat="44.98639" lon="5.50464">
        <ele>1382.0324707031</ele>
        <time>2011-07-09T08:02:05Z</time>
      </trkpt>
      <trkpt lat="44.98638" lon="5.50466">
        <ele>1381.5517578125</ele>
        <time>2011-07-09T08:02:06Z</time>
      </trkpt>
      <trkpt lat="44.98629" lon="5.50479">
        <ele>1382.0324707031</ele>
        <time>2011-07-09T08:02:12Z</time>
      </trkpt>
      <trkpt lat="44.98623" lon="5.50492">
        <ele>1375.3032226562</ele>
        <time>2011-07-09T08:02:18Z</time>
      </trkpt>
      <trkpt lat="44.98617" lon="5.50499">
        <ele>1372.4194335938</ele>
        <time>2011-07-09T08:02:23Z</time>
      </trkpt>
      <trkpt lat="44.98615" lon="5.50506">
        <ele>1369.5354003906</ele>
        <time>2011-07-09T08:02:27Z</time>
      </trkpt>
      <trkpt lat="44.98608" lon="5.50518">
        <ele>1367.1320800781</ele>
        <time>2011-07-09T08:02:33Z</time>
      </trkpt>
      <trkpt lat="44.98603" lon="5.50526">
        <ele>1366.6513671875</ele>
        <time>2011-07-09T08:02:38Z</time>
      </trkpt>
      <trkpt lat="44.98602" lon="5.50528">
        <ele>1366.6513671875</ele>
        <time>2011-07-09T08:02:39Z</time>
      </trkpt>
      <trkpt lat="44.98592" lon="5.50545">
        <ele>1370.4965820312</ele>
        <time>2011-07-09T08:02:46Z</time>
      </trkpt>
      <trkpt lat="44.9859" lon="5.50546">
        <ele>1371.9384765625</ele>
        <time>2011-07-09T08:02:47Z</time>
      </trkpt>
      <trkpt lat="44.98577" lon="5.50559">
        <ele>1385.3969726562</ele>
        <time>2011-07-09T08:02:53Z</time>
      </trkpt>
      <trkpt lat="44.98571" lon="5.50568">
        <ele>1383.4743652344</ele>
        <time>2011-07-09T08:02:57Z</time>
      </trkpt>
      <trkpt lat="44.98568" lon="5.50573">
        <ele>1385.8776855469</ele>
        <time>2011-07-09T08:02:59Z</time>
      </trkpt>
      <trkpt lat="44.98558" lon="5.50588">
        <ele>1381.0712890625</ele>
        <time>2011-07-09T08:03:06Z</time>
      </trkpt>
      <trkpt lat="44.98552" lon="5.50591">
        <ele>1381.0712890625</ele>
        <time>2011-07-09T08:03:09Z</time>
      </trkpt>
      <trkpt lat="44.98552" lon="5.50591">
        <ele>1381.0712890625</ele>
        <time>2011-07-09T08:03:09Z</time>
      </trkpt>
      <trkpt lat="44.9855" lon="5.50592">
        <ele>1381.0712890625</ele>
        <time>2011-07-09T08:03:10Z</time>
      </trkpt>
      <trkpt lat="44.98544" lon="5.50595">
        <ele>1380.5905761719</ele>
        <time>2011-07-09T08:03:13Z</time>
      </trkpt>
      <trkpt lat="44.98529" lon="5.50599">
        <ele>1382.9936523438</ele>
        <time>2011-07-09T08:03:19Z</time>
      </trkpt>
      <trkpt lat="44.98516" lon="5.50597">
        <ele>1386.3583984375</ele>
        <time>2011-07-09T08:03:25Z</time>
      </trkpt>
      <trkpt lat="44.98512" lon="5.50598">
        <ele>1384.9165039062</ele>
        <time>2011-07-09T08:03:27Z</time>
      </trkpt>
      <trkpt lat="44.98499" lon="5.50597">
        <ele>1386.8388671875</ele>
        <time>2011-07-09T08:03:33Z</time>
      </trkpt>
      <trkpt lat="44.98497" lon="5.50596">
        <ele>1384.9165039062</ele>
        <time>2011-07-09T08:03:35Z</time>
      </trkpt>
      <trkpt lat="44.98492" lon="5.50592">
        <ele>1382.5131835938</ele>
        <time>2011-07-09T08:03:39Z</time>
      </trkpt>
      <trkpt lat="44.98484" lon="5.50588">
        <ele>1380.1098632812</ele>
        <time>2011-07-09T08:03:43Z</time>
      </trkpt>
      <trkpt lat="44.98471" lon="5.50588">
        <ele>1377.2260742188</ele>
        <time>2011-07-09T08:03:49Z</time>
      </trkpt>
      <trkpt lat="44.9847" lon="5.50588">
        <ele>1376.7453613281</ele>
        <time>2011-07-09T08:03:50Z</time>
      </trkpt>
      <trkpt lat="44.98466" lon="5.5059">
        <ele>1376.2646484375</ele>
        <time>2011-07-09T08:03:55Z</time>
      </trkpt>
      <trkpt lat="44.98465" lon="5.50592">
        <ele>1377.7065429688</ele>
        <time>2011-07-09T08:04:09Z</time>
      </trkpt>
      <trkpt lat="44.98465" lon="5.50594">
        <ele>1377.7065429688</ele>
        <time>2011-07-09T08:04:24Z</time>
      </trkpt>
      <trkpt lat="44.98466" lon="5.50596">
        <ele>1376.2646484375</ele>
        <time>2011-07-09T08:04:35Z</time>
      </trkpt>
      <trkpt lat="44.98466" lon="5.50595">
        <ele>1377.2260742188</ele>
        <time>2011-07-09T08:04:53Z</time>
      </trkpt>
      <trkpt lat="44.98465" lon="5.50596">
        <ele>1375.3032226562</ele>
        <time>2011-07-09T08:05:20Z</time>
      </trkpt>
      <trkpt lat="44.98464" lon="5.50597">
        <ele>1376.7453613281</ele>
        <time>2011-07-09T08:05:34Z</time>
      </trkpt>
      <trkpt lat="44.98463" lon="5.50596">
        <ele>1376.2646484375</ele>
        <time>2011-07-09T08:05:48Z</time>
      </trkpt>
      <trkpt lat="44.98462" lon="5.50596">
        <ele>1374.8227539062</ele>
        <time>2011-07-09T08:06:14Z</time>
      </trkpt>
      <trkpt lat="44.98464" lon="5.50599">
        <ele>1369.0546875</ele>
        <time>2011-07-09T08:06:58Z</time>
      </trkpt>
      <trkpt lat="44.98464" lon="5.50596">
        <ele>1379.1484375</ele>
        <time>2011-07-09T08:07:09Z</time>
      </trkpt>
      <trkpt lat="44.98463" lon="5.50591">
        <ele>1385.3969726562</ele>
        <time>2011-07-09T08:07:28Z</time>
      </trkpt>
      <trkpt lat="44.98465" lon="5.50592">
        <ele>1381.5517578125</ele>
        <time>2011-07-09T08:07:38Z</time>
      </trkpt>
      <trkpt lat="44.98465" lon="5.50592">
        <ele>1380.5905761719</ele>
        <time>2011-07-09T08:07:43Z</time>
      </trkpt>
      <trkpt lat="44.9847" lon="5.50594">
        <ele>1374.8227539062</ele>
        <time>2011-07-09T08:08:11Z</time>
      </trkpt>
      <trkpt lat="44.98468" lon="5.50598">
        <ele>1377.2260742188</ele>
        <time>2011-07-09T08:08:19Z</time>
      </trkpt>
      <trkpt lat="44.98467" lon="5.50601">
        <ele>1378.1872558594</ele>
        <time>2011-07-09T08:08:21Z</time>
      </trkpt>
      <trkpt lat="44.98464" lon="5.50613">
        <ele>1382.0324707031</ele>
        <time>2011-07-09T08:08:28Z</time>
      </trkpt>
      <trkpt lat="44.98465" lon="5.50617">
        <ele>1382.5131835938</ele>
        <time>2011-07-09T08:08:30Z</time>
      </trkpt>
      <trkpt lat="44.9846" lon="5.50626">
        <ele>1383.955078125</ele>
        <time>2011-07-09T08:08:35Z</time>
      </trkpt>
      <trkpt lat="44.98455" lon="5.50637">
        <ele>1384.4357910156</ele>
        <time>2011-07-09T08:08:39Z</time>
      </trkpt>
      <trkpt lat="44.98449" lon="5.50646">
        <ele>1383.4743652344</ele>
        <time>2011-07-09T08:08:43Z</time>
      </trkpt>
      <trkpt lat="44.98445" lon="5.50658">
        <ele>1382.5131835938</ele>
        <time>2011-07-09T08:08:47Z</time>
      </trkpt>
      <trkpt lat="44.98444" lon="5.50664">
        <ele>1382.5131835938</ele>
        <time>2011-07-09T08:08:49Z</time>
      </trkpt>
      <trkpt lat="44.98443" lon="5.50671">
        <ele>1383.4743652344</ele>
        <time>2011-07-09T08:08:52Z</time>
      </trkpt>
      <trkpt lat="44.98447" lon="5.50686">
        <ele>1381.0712890625</ele>
        <time>2011-07-09T08:08:58Z</time>
      </trkpt>
      <trkpt lat="44.98448" lon="5.50691">
        <ele>1381.5517578125</ele>
        <time>2011-07-09T08:09:00Z</time>
      </trkpt>
      <trkpt lat="44.98449" lon="5.50702">
        <ele>1383.955078125</ele>
        <time>2011-07-09T08:09:07Z</time>
      </trkpt>
      <trkpt lat="44.98449" lon="5.50704">
        <ele>1384.4357910156</ele>
        <time>2011-07-09T08:09:09Z</time>
      </trkpt>
      <trkpt lat="44.9845" lon="5.5071">
        <ele>1385.8776855469</ele>
        <time>2011-07-09T08:09:16Z</time>
      </trkpt>
      <trkpt lat="44.9845" lon="5.50714">
        <ele>1385.8776855469</ele>
        <time>2011-07-09T08:09:20Z</time>
      </trkpt>
      <trkpt lat="44.9845" lon="5.5072">
        <ele>1385.8776855469</ele>
        <time>2011-07-09T08:09:27Z</time>
      </trkpt>
      <trkpt lat="44.98446" lon="5.50721">
        <ele>1386.8388671875</ele>
        <time>2011-07-09T08:09:32Z</time>
      </trkpt>
      <trkpt lat="44.98439" lon="5.50719">
        <ele>1387.3195800781</ele>
        <time>2011-07-09T08:09:36Z</time>
      </trkpt>
      <trkpt lat="44.98432" lon="5.5072">
        <ele>1387.3195800781</ele>
        <time>2011-07-09T08:09:42Z</time>
      </trkpt>
      <trkpt lat="44.98428" lon="5.50723">
        <ele>1387.8002929688</ele>
        <time>2011-07-09T08:09:46Z</time>
      </trkpt>
      <trkpt lat="44.98428" lon="5.50726">
        <ele>1388.28125</ele>
        <time>2011-07-09T08:09:48Z</time>
      </trkpt>
      <trkpt lat="44.98426" lon="5.50728">
        <ele>1389.2424316406</ele>
        <time>2011-07-09T08:09:50Z</time>
      </trkpt>
      <trkpt lat="44.98423" lon="5.50733">
        <ele>1390.2038574219</ele>
        <time>2011-07-09T08:09:56Z</time>
      </trkpt>
      <trkpt lat="44.98419" lon="5.50739">
        <ele>1393.568359375</ele>
        <time>2011-07-09T08:10:02Z</time>
      </trkpt>
      <trkpt lat="44.98417" lon="5.5074">
        <ele>1394.0490722656</ele>
        <time>2011-07-09T08:10:07Z</time>
      </trkpt>
      <trkpt lat="44.9841" lon="5.50742">
        <ele>1395.0102539062</ele>
        <time>2011-07-09T08:10:12Z</time>
      </trkpt>
      <trkpt lat="44.98405" lon="5.50747">
        <ele>1394.0490722656</ele>
        <time>2011-07-09T08:10:16Z</time>
      </trkpt>
      <trkpt lat="44.98402" lon="5.50749">
        <ele>1393.0876464844</ele>
        <time>2011-07-09T08:10:19Z</time>
      </trkpt>
      <trkpt lat="44.98395" lon="5.50755">
        <ele>1391.6457519531</ele>
        <time>2011-07-09T08:10:26Z</time>
      </trkpt>
      <trkpt lat="44.98386" lon="5.5076">
        <ele>1392.6071777344</ele>
        <time>2011-07-09T08:10:33Z</time>
      </trkpt>
      <trkpt lat="44.98384" lon="5.50763">
        <ele>1392.1264648438</ele>
        <time>2011-07-09T08:10:36Z</time>
      </trkpt>
      <trkpt lat="44.98377" lon="5.5077">
        <ele>1395.9716796875</ele>
        <time>2011-07-09T08:10:43Z</time>
      </trkpt>
      <trkpt lat="44.98374" lon="5.50774">
        <ele>1398.3747558594</ele>
        <time>2011-07-09T08:10:48Z</time>
      </trkpt>
      <trkpt lat="44.98369" lon="5.50779">
        <ele>1401.7395019531</ele>
        <time>2011-07-09T08:10:54Z</time>
      </trkpt>
      <trkpt lat="44.98362" lon="5.50781">
        <ele>1406.0654296875</ele>
        <time>2011-07-09T08:10:59Z</time>
      </trkpt>
      <trkpt lat="44.98355" lon="5.50781">
        <ele>1408.46875</ele>
        <time>2011-07-09T08:11:04Z</time>
      </trkpt>
      <trkpt lat="44.98352" lon="5.50781">
        <ele>1407.98828125</ele>
        <time>2011-07-09T08:11:06Z</time>
      </trkpt>
      <trkpt lat="44.98348" lon="5.50783">
        <ele>1407.5075683594</ele>
        <time>2011-07-09T08:11:09Z</time>
      </trkpt>
      <trkpt lat="44.9834" lon="5.50786">
        <ele>1407.5075683594</ele>
        <time>2011-07-09T08:11:15Z</time>
      </trkpt>
      <trkpt lat="44.98336" lon="5.50789">
        <ele>1407.0268554688</ele>
        <time>2011-07-09T08:11:19Z</time>
      </trkpt>
      <trkpt lat="44.98332" lon="5.50793">
        <ele>1406.5461425781</ele>
        <time>2011-07-09T08:11:24Z</time>
      </trkpt>
      <trkpt lat="44.98325" lon="5.50795">
        <ele>1406.5461425781</ele>
        <time>2011-07-09T08:11:29Z</time>
      </trkpt>
      <trkpt lat="44.98318" lon="5.50801">
        <ele>1407.5075683594</ele>
        <time>2011-07-09T08:11:34Z</time>
      </trkpt>
      <trkpt lat="44.98313" lon="5.5081">
        <ele>1409.4301757812</ele>
        <time>2011-07-09T08:11:41Z</time>
      </trkpt>
      <trkpt lat="44.98312" lon="5.50815">
        <ele>1411.8334960938</ele>
        <time>2011-07-09T08:11:45Z</time>
      </trkpt>
      <trkpt lat="44.98309" lon="5.50823">
        <ele>1411.8334960938</ele>
        <time>2011-07-09T08:11:53Z</time>
      </trkpt>
      <trkpt lat="44.98305" lon="5.5083">
        <ele>1411.8334960938</ele>
        <time>2011-07-09T08:11:59Z</time>
      </trkpt>
      <trkpt lat="44.98303" lon="5.50834">
        <ele>1411.8334960938</ele>
        <time>2011-07-09T08:12:02Z</time>
      </trkpt>
      <trkpt lat="44.98299" lon="5.50842">
        <ele>1413.275390625</ele>
        <time>2011-07-09T08:12:09Z</time>
      </trkpt>
      <trkpt lat="44.983" lon="5.50848">
        <ele>1417.1206054688</ele>
        <time>2011-07-09T08:12:14Z</time>
      </trkpt>
      <trkpt lat="44.98298" lon="5.50854">
        <ele>1418.0817871094</ele>
        <time>2011-07-09T08:12:18Z</time>
      </trkpt>
      <trkpt lat="44.98295" lon="5.50864">
        <ele>1420.0046386719</ele>
        <time>2011-07-09T08:12:22Z</time>
      </trkpt>
      <trkpt lat="44.98294" lon="5.50866">
        <ele>1420.0046386719</ele>
        <time>2011-07-09T08:12:24Z</time>
      </trkpt>
      <trkpt lat="44.98283" lon="5.50865">
        <ele>1421.9272460938</ele>
        <time>2011-07-09T08:12:30Z</time>
      </trkpt>
      <trkpt lat="44.98281" lon="5.50867">
        <ele>1422.4079589844</ele>
        <time>2011-07-09T08:12:32Z</time>
      </trkpt>
      <trkpt lat="44.9828" lon="5.50877">
        <ele>1425.7724609375</ele>
        <time>2011-07-09T08:12:39Z</time>
      </trkpt>
      <trkpt lat="44.98278" lon="5.50884">
        <ele>1429.1369628906</ele>
        <time>2011-07-09T08:12:45Z</time>
      </trkpt>
      <trkpt lat="44.98276" lon="5.5089">
        <ele>1431.5402832031</ele>
        <time>2011-07-09T08:12:49Z</time>
      </trkpt>
      <trkpt lat="44.98275" lon="5.50893">
        <ele>1432.0209960938</ele>
        <time>2011-07-09T08:12:51Z</time>
      </trkpt>
      <trkpt lat="44.98274" lon="5.50902">
        <ele>1434.4243164062</ele>
        <time>2011-07-09T08:12:56Z</time>
      </trkpt>
      <trkpt lat="44.98274" lon="5.50916">
        <ele>1437.3083496094</ele>
        <time>2011-07-09T08:13:04Z</time>
      </trkpt>
      <trkpt lat="44.98272" lon="5.50927">
        <ele>1440.1923828125</ele>
        <time>2011-07-09T08:13:11Z</time>
      </trkpt>
      <trkpt lat="44.9827" lon="5.50931">
        <ele>1439.2309570312</ele>
        <time>2011-07-09T08:13:17Z</time>
      </trkpt>
      <trkpt lat="44.98269" lon="5.50935">
        <ele>1440.1923828125</ele>
        <time>2011-07-09T08:13:22Z</time>
      </trkpt>
      <trkpt lat="44.98265" lon="5.5094">
        <ele>1439.2309570312</ele>
        <time>2011-07-09T08:13:30Z</time>
      </trkpt>
      <trkpt lat="44.98261" lon="5.50943">
        <ele>1440.6728515625</ele>
        <time>2011-07-09T08:13:35Z</time>
      </trkpt>
      <trkpt lat="44.98257" lon="5.5095">
        <ele>1444.9987792969</ele>
        <time>2011-07-09T08:13:43Z</time>
      </trkpt>
      <trkpt lat="44.98258" lon="5.50958">
        <ele>1444.5180664062</ele>
        <time>2011-07-09T08:13:52Z</time>
      </trkpt>
      <trkpt lat="44.98256" lon="5.50958">
        <ele>1446.9213867188</ele>
        <time>2011-07-09T08:13:57Z</time>
      </trkpt>
      <trkpt lat="44.98254" lon="5.50966">
        <ele>1444.0375976562</ele>
        <time>2011-07-09T08:14:07Z</time>
      </trkpt>
      <trkpt lat="44.98252" lon="5.50966">
        <ele>1445.9602050781</ele>
        <time>2011-07-09T08:14:10Z</time>
      </trkpt>
      <trkpt lat="44.9825" lon="5.50969">
        <ele>1447.8828125</ele>
        <time>2011-07-09T08:14:18Z</time>
      </trkpt>
      <trkpt lat="44.9825" lon="5.50975">
        <ele>1451.2473144531</ele>
        <time>2011-07-09T08:14:23Z</time>
      </trkpt>
      <trkpt lat="44.98249" lon="5.50978">
        <ele>1456.5346679688</ele>
        <time>2011-07-09T08:14:27Z</time>
      </trkpt>
      <trkpt lat="44.98245" lon="5.50979">
        <ele>1459.4187011719</ele>
        <time>2011-07-09T08:14:33Z</time>
      </trkpt>
      <trkpt lat="44.98242" lon="5.50979">
        <ele>1461.8220214844</ele>
        <time>2011-07-09T08:14:38Z</time>
      </trkpt>
      <trkpt lat="44.9824" lon="5.50983">
        <ele>1462.783203125</ele>
        <time>2011-07-09T08:14:45Z</time>
      </trkpt>
      <trkpt lat="44.98236" lon="5.50983">
        <ele>1464.2250976562</ele>
        <time>2011-07-09T08:14:52Z</time>
      </trkpt>
      <trkpt lat="44.98232" lon="5.50986">
        <ele>1464.7058105469</ele>
        <time>2011-07-09T08:14:59Z</time>
      </trkpt>
      <trkpt lat="44.98232" lon="5.50994">
        <ele>1465.6672363281</ele>
        <time>2011-07-09T08:15:06Z</time>
      </trkpt>
      <trkpt lat="44.98231" lon="5.50999">
        <ele>1466.1477050781</ele>
        <time>2011-07-09T08:15:11Z</time>
      </trkpt>
      <trkpt lat="44.98228" lon="5.51">
        <ele>1468.5512695312</ele>
        <time>2011-07-09T08:15:15Z</time>
      </trkpt>
      <trkpt lat="44.98227" lon="5.51006">
        <ele>1469.0319824219</ele>
        <time>2011-07-09T08:15:21Z</time>
      </trkpt>
      <trkpt lat="44.98228" lon="5.51011">
        <ele>1469.9931640625</ele>
        <time>2011-07-09T08:15:27Z</time>
      </trkpt>
      <trkpt lat="44.98227" lon="5.51016">
        <ele>1472.8771972656</ele>
        <time>2011-07-09T08:15:32Z</time>
      </trkpt>
      <trkpt lat="44.98225" lon="5.5102">
        <ele>1477.203125</ele>
        <time>2011-07-09T08:15:39Z</time>
      </trkpt>
      <trkpt lat="44.98222" lon="5.51022">
        <ele>1477.68359375</ele>
        <time>2011-07-09T08:15:45Z</time>
      </trkpt>
      <trkpt lat="44.98219" lon="5.51024">
        <ele>1478.6450195312</ele>
        <time>2011-07-09T08:15:50Z</time>
      </trkpt>
      <trkpt lat="44.98217" lon="5.51029">
        <ele>1478.6450195312</ele>
        <time>2011-07-09T08:15:57Z</time>
      </trkpt>
      <trkpt lat="44.98214" lon="5.51033">
        <ele>1478.1643066406</ele>
        <time>2011-07-09T08:16:04Z</time>
      </trkpt>
      <trkpt lat="44.9821" lon="5.51036">
        <ele>1477.68359375</ele>
        <time>2011-07-09T08:16:10Z</time>
      </trkpt>
      <trkpt lat="44.98208" lon="5.51038">
        <ele>1475.2802734375</ele>
        <time>2011-07-09T08:16:15Z</time>
      </trkpt>
      <trkpt lat="44.98205" lon="5.51041">
        <ele>1478.6450195312</ele>
        <time>2011-07-09T08:16:22Z</time>
      </trkpt>
      <trkpt lat="44.98201" lon="5.51044">
        <ele>1481.5288085938</ele>
        <time>2011-07-09T08:16:26Z</time>
      </trkpt>
      <trkpt lat="44.98195" lon="5.51046">
        <ele>1483.4514160156</ele>
        <time>2011-07-09T08:16:34Z</time>
      </trkpt>
      <trkpt lat="44.9819" lon="5.51045">
        <ele>1485.3742675781</ele>
        <time>2011-07-09T08:16:40Z</time>
      </trkpt>
      <trkpt lat="44.98184" lon="5.51048">
        <ele>1487.7775878906</ele>
        <time>2011-07-09T08:16:48Z</time>
      </trkpt>
      <trkpt lat="44.98178" lon="5.51051">
        <ele>1490.1809082031</ele>
        <time>2011-07-09T08:16:56Z</time>
      </trkpt>
      <trkpt lat="44.98174" lon="5.51055">
        <ele>1492.103515625</ele>
        <time>2011-07-09T08:17:02Z</time>
      </trkpt>
      <trkpt lat="44.98169" lon="5.51061">
        <ele>1494.5065917969</ele>
        <time>2011-07-09T08:17:09Z</time>
      </trkpt>
      <trkpt lat="44.98167" lon="5.51066">
        <ele>1496.9099121094</ele>
        <time>2011-07-09T08:17:15Z</time>
      </trkpt>
      <trkpt lat="44.98166" lon="5.51069">
        <ele>1498.3518066406</ele>
        <time>2011-07-09T08:17:20Z</time>
      </trkpt>
      <trkpt lat="44.98164" lon="5.51075">
        <ele>1499.7939453125</ele>
        <time>2011-07-09T08:17:28Z</time>
      </trkpt>
      <trkpt lat="44.98162" lon="5.51079">
        <ele>1500.7553710938</ele>
        <time>2011-07-09T08:17:34Z</time>
      </trkpt>
      <trkpt lat="44.98159" lon="5.51083">
        <ele>1501.716796875</ele>
        <time>2011-07-09T08:17:39Z</time>
      </trkpt>
      <trkpt lat="44.98156" lon="5.51087">
        <ele>1502.6779785156</ele>
        <time>2011-07-09T08:17:44Z</time>
      </trkpt>
      <trkpt lat="44.98158" lon="5.51089">
        <ele>1504.1201171875</ele>
        <time>2011-07-09T08:17:49Z</time>
      </trkpt>
      <trkpt lat="44.98162" lon="5.51094">
        <ele>1506.5231933594</ele>
        <time>2011-07-09T08:17:55Z</time>
      </trkpt>
      <trkpt lat="44.98166" lon="5.51098">
        <ele>1508.9265136719</ele>
        <time>2011-07-09T08:18:01Z</time>
      </trkpt>
      <trkpt lat="44.98171" lon="5.51103">
        <ele>1510.3684082031</ele>
        <time>2011-07-09T08:18:10Z</time>
      </trkpt>
      <trkpt lat="44.98174" lon="5.51104">
        <ele>1510.3684082031</ele>
        <time>2011-07-09T08:18:17Z</time>
      </trkpt>
      <trkpt lat="44.98174" lon="5.51104">
        <ele>1510.3684082031</ele>
        <time>2011-07-09T08:18:30Z</time>
      </trkpt>
      <trkpt lat="44.98175" lon="5.51104">
        <ele>1511.3298339844</ele>
        <time>2011-07-09T08:18:37Z</time>
      </trkpt>
      <trkpt lat="44.98175" lon="5.51103">
        <ele>1510.8491210938</ele>
        <time>2011-07-09T08:18:51Z</time>
      </trkpt>
      <trkpt lat="44.98172" lon="5.51103">
        <ele>1509.4072265625</ele>
        <time>2011-07-09T08:19:09Z</time>
      </trkpt>
      <trkpt lat="44.98172" lon="5.51103">
        <ele>1510.3684082031</ele>
        <time>2011-07-09T08:19:16Z</time>
      </trkpt>
      <trkpt lat="44.98171" lon="5.51101">
        <ele>1509.8876953125</ele>
        <time>2011-07-09T08:19:20Z</time>
      </trkpt>
      <trkpt lat="44.98172" lon="5.51102">
        <ele>1511.3298339844</ele>
        <time>2011-07-09T08:19:28Z</time>
      </trkpt>
      <trkpt lat="44.98173" lon="5.51102">
        <ele>1512.7717285156</ele>
        <time>2011-07-09T08:19:38Z</time>
      </trkpt>
      <trkpt lat="44.98173" lon="5.51104">
        <ele>1513.2524414062</ele>
        <time>2011-07-09T08:19:55Z</time>
      </trkpt>
      <trkpt lat="44.98174" lon="5.51103">
        <ele>1514.2136230469</ele>
        <time>2011-07-09T08:20:08Z</time>
      </trkpt>
      <trkpt lat="44.98178" lon="5.51106">
        <ele>1513.2524414062</ele>
        <time>2011-07-09T08:20:14Z</time>
      </trkpt>
      <trkpt lat="44.98177" lon="5.51111">
        <ele>1512.291015625</ele>
        <time>2011-07-09T08:20:18Z</time>
      </trkpt>
      <trkpt lat="44.98176" lon="5.51116">
        <ele>1511.810546875</ele>
        <time>2011-07-09T08:20:23Z</time>
      </trkpt>
      <trkpt lat="44.98177" lon="5.51121">
        <ele>1513.2524414062</ele>
        <time>2011-07-09T08:20:28Z</time>
      </trkpt>
      <trkpt lat="44.98174" lon="5.51125">
        <ele>1515.6557617188</ele>
        <time>2011-07-09T08:20:34Z</time>
      </trkpt>
      <trkpt lat="44.98176" lon="5.5113">
        <ele>1516.6171875</ele>
        <time>2011-07-09T08:20:40Z</time>
      </trkpt>
      <trkpt lat="44.98179" lon="5.51133">
        <ele>1519.9816894531</ele>
        <time>2011-07-09T08:20:47Z</time>
      </trkpt>
      <trkpt lat="44.98183" lon="5.51136">
        <ele>1522.3850097656</ele>
        <time>2011-07-09T08:20:54Z</time>
      </trkpt>
      <trkpt lat="44.98186" lon="5.5114">
        <ele>1522.8657226562</ele>
        <time>2011-07-09T08:20:58Z</time>
      </trkpt>
      <trkpt lat="44.98189" lon="5.51147">
        <ele>1522.3850097656</ele>
        <time>2011-07-09T08:21:04Z</time>
      </trkpt>
      <trkpt lat="44.98188" lon="5.51152">
        <ele>1522.8657226562</ele>
        <time>2011-07-09T08:21:10Z</time>
      </trkpt>
      <trkpt lat="44.98186" lon="5.51155">
        <ele>1524.7883300781</ele>
        <time>2011-07-09T08:21:16Z</time>
      </trkpt>
      <trkpt lat="44.98182" lon="5.51157">
        <ele>1524.3076171875</ele>
        <time>2011-07-09T08:21:23Z</time>
      </trkpt>
      <trkpt lat="44.9818" lon="5.5116">
        <ele>1524.3076171875</ele>
        <time>2011-07-09T08:21:28Z</time>
      </trkpt>
      <trkpt lat="44.98177" lon="5.51163">
        <ele>1524.7883300781</ele>
        <time>2011-07-09T08:21:34Z</time>
      </trkpt>
      <trkpt lat="44.98173" lon="5.51165">
        <ele>1524.3076171875</ele>
        <time>2011-07-09T08:21:41Z</time>
      </trkpt>
      <trkpt lat="44.98171" lon="5.51171">
        <ele>1524.3076171875</ele>
        <time>2011-07-09T08:21:48Z</time>
      </trkpt>
      <trkpt lat="44.98169" lon="5.51176">
        <ele>1525.2687988281</ele>
        <time>2011-07-09T08:21:54Z</time>
      </trkpt>
      <trkpt lat="44.98166" lon="5.51181">
        <ele>1526.2302246094</ele>
        <time>2011-07-09T08:21:59Z</time>
      </trkpt>
      <trkpt lat="44.98159" lon="5.51186">
        <ele>1531.5173339844</ele>
        <time>2011-07-09T08:22:06Z</time>
      </trkpt>
      <trkpt lat="44.98156" lon="5.51188">
        <ele>1534.4016113281</ele>
        <time>2011-07-09T08:22:09Z</time>
      </trkpt>
      <trkpt lat="44.98151" lon="5.51192">
        <ele>1536.32421875</ele>
        <time>2011-07-09T08:22:14Z</time>
      </trkpt>
      <trkpt lat="44.98148" lon="5.51194">
        <ele>1537.2854003906</ele>
        <time>2011-07-09T08:22:17Z</time>
      </trkpt>
      <trkpt lat="44.98142" lon="5.51202">
        <ele>1538.2468261719</ele>
        <time>2011-07-09T08:22:23Z</time>
      </trkpt>
      <trkpt lat="44.98138" lon="5.51203">
        <ele>1539.2080078125</ele>
        <time>2011-07-09T08:22:27Z</time>
      </trkpt>
      <trkpt lat="44.98136" lon="5.51203">
        <ele>1539.2080078125</ele>
        <time>2011-07-09T08:22:29Z</time>
      </trkpt>
      <trkpt lat="44.98132" lon="5.51208">
        <ele>1539.6887207031</ele>
        <time>2011-07-09T08:22:35Z</time>
      </trkpt>
      <trkpt lat="44.98131" lon="5.51211">
        <ele>1538.7275390625</ele>
        <time>2011-07-09T08:22:37Z</time>
      </trkpt>
      <trkpt lat="44.98125" lon="5.51216">
        <ele>1531.5173339844</ele>
        <time>2011-07-09T08:22:43Z</time>
      </trkpt>
      <trkpt lat="44.98123" lon="5.5122">
        <ele>1529.1140136719</ele>
        <time>2011-07-09T08:22:46Z</time>
      </trkpt>
      <trkpt lat="44.98117" lon="5.51218">
        <ele>1531.0368652344</ele>
        <time>2011-07-09T08:22:51Z</time>
      </trkpt>
      <trkpt lat="44.98113" lon="5.5122">
        <ele>1531.998046875</ele>
        <time>2011-07-09T08:22:55Z</time>
      </trkpt>
      <trkpt lat="44.98112" lon="5.51221">
        <ele>1531.998046875</ele>
        <time>2011-07-09T08:22:56Z</time>
      </trkpt>
      <trkpt lat="44.9811" lon="5.51223">
        <ele>1532.4790039062</ele>
        <time>2011-07-09T08:22:59Z</time>
      </trkpt>
      <trkpt lat="44.98109" lon="5.51231">
        <ele>1537.7661132812</ele>
        <time>2011-07-09T08:23:06Z</time>
      </trkpt>
      <trkpt lat="44.98108" lon="5.51238">
        <ele>1535.8435058594</ele>
        <time>2011-07-09T08:23:11Z</time>
      </trkpt>
      <trkpt lat="44.98105" lon="5.51244">
        <ele>1533.4401855469</ele>
        <time>2011-07-09T08:23:16Z</time>
      </trkpt>
      <trkpt lat="44.98099" lon="5.51246">
        <ele>1538.7275390625</ele>
        <time>2011-07-09T08:23:24Z</time>
      </trkpt>
      <trkpt lat="44.98098" lon="5.51247">
        <ele>1539.2080078125</ele>
        <time>2011-07-09T08:23:25Z</time>
      </trkpt>
      <trkpt lat="44.98096" lon="5.51252">
        <ele>1540.1694335938</ele>
        <time>2011-07-09T08:23:29Z</time>
      </trkpt>
      <trkpt lat="44.98091" lon="5.51255">
        <ele>1539.2080078125</ele>
        <time>2011-07-09T08:23:36Z</time>
      </trkpt>
      <trkpt lat="44.98089" lon="5.5126">
        <ele>1536.8046875</ele>
        <time>2011-07-09T08:23:41Z</time>
      </trkpt>
      <trkpt lat="44.98086" lon="5.51268">
        <ele>1543.5339355469</ele>
        <time>2011-07-09T08:23:47Z</time>
      </trkpt>
      <trkpt lat="44.98086" lon="5.51269">
        <ele>1542.5727539062</ele>
        <time>2011-07-09T08:23:48Z</time>
      </trkpt>
      <trkpt lat="44.98085" lon="5.51273">
        <ele>1542.5727539062</ele>
        <time>2011-07-09T08:23:52Z</time>
      </trkpt>
      <trkpt lat="44.9808" lon="5.51276">
        <ele>1544.4951171875</ele>
        <time>2011-07-09T08:23:57Z</time>
      </trkpt>
      <trkpt lat="44.98079" lon="5.5128">
        <ele>1547.8598632812</ele>
        <time>2011-07-09T08:24:03Z</time>
      </trkpt>
      <trkpt lat="44.9808" lon="5.51288">
        <ele>1549.3020019531</ele>
        <time>2011-07-09T08:24:10Z</time>
      </trkpt>
      <trkpt lat="44.98076" lon="5.51291">
        <ele>1551.224609375</ele>
        <time>2011-07-09T08:24:16Z</time>
      </trkpt>
      <trkpt lat="44.98073" lon="5.51298">
        <ele>1554.1086425781</ele>
        <time>2011-07-09T08:24:22Z</time>
      </trkpt>
      <trkpt lat="44.98069" lon="5.51301">
        <ele>1555.5505371094</ele>
        <time>2011-07-09T08:24:28Z</time>
      </trkpt>
      <trkpt lat="44.98064" lon="5.51305">
        <ele>1559.8762207031</ele>
        <time>2011-07-09T08:24:36Z</time>
      </trkpt>
      <trkpt lat="44.98063" lon="5.5131">
        <ele>1561.318359375</ele>
        <time>2011-07-09T08:24:41Z</time>
      </trkpt>
      <trkpt lat="44.98061" lon="5.51315">
        <ele>1561.7990722656</ele>
        <time>2011-07-09T08:24:47Z</time>
      </trkpt>
      <trkpt lat="44.98058" lon="5.51321">
        <ele>1564.2023925781</ele>
        <time>2011-07-09T08:24:54Z</time>
      </trkpt>
      <trkpt lat="44.98055" lon="5.51324">
        <ele>1567.0864257812</ele>
        <time>2011-07-09T08:24:59Z</time>
      </trkpt>
      <trkpt lat="44.98051" lon="5.51325">
        <ele>1569.0090332031</ele>
        <time>2011-07-09T08:25:05Z</time>
      </trkpt>
      <trkpt lat="44.98048" lon="5.5133">
        <ele>1568.0476074219</ele>
        <time>2011-07-09T08:25:11Z</time>
      </trkpt>
      <trkpt lat="44.98044" lon="5.5133">
        <ele>1570.4509277344</ele>
        <time>2011-07-09T08:25:17Z</time>
      </trkpt>
      <trkpt lat="44.98042" lon="5.51334">
        <ele>1569.9702148438</ele>
        <time>2011-07-09T08:25:22Z</time>
      </trkpt>
      <trkpt lat="44.9804" lon="5.51337">
        <ele>1570.931640625</ele>
        <time>2011-07-09T08:25:26Z</time>
      </trkpt>
      <trkpt lat="44.9804" lon="5.51337">
        <ele>1570.931640625</ele>
        <time>2011-07-09T08:25:26Z</time>
      </trkpt>
      <trkpt lat="44.98038" lon="5.51338">
        <ele>1571.412109375</ele>
        <time>2011-07-09T08:25:28Z</time>
      </trkpt>
      <trkpt lat="44.98035" lon="5.5134">
        <ele>1572.8542480469</ele>
        <time>2011-07-09T08:25:35Z</time>
      </trkpt>
      <trkpt lat="44.98029" lon="5.51347">
        <ele>1576.21875</ele>
        <time>2011-07-09T08:25:43Z</time>
      </trkpt>
      <trkpt lat="44.98024" lon="5.51352">
        <ele>1575.7380371094</ele>
        <time>2011-07-09T08:25:51Z</time>
      </trkpt>
      <trkpt lat="44.98019" lon="5.51358">
        <ele>1581.0256347656</ele>
        <time>2011-07-09T08:25:59Z</time>
      </trkpt>
      <trkpt lat="44.98018" lon="5.51362">
        <ele>1584.8708496094</ele>
        <time>2011-07-09T08:26:05Z</time>
      </trkpt>
      <trkpt lat="44.98014" lon="5.51365">
        <ele>1585.3513183594</ele>
        <time>2011-07-09T08:26:11Z</time>
      </trkpt>
      <trkpt lat="44.98011" lon="5.51369">
        <ele>1585.83203125</ele>
        <time>2011-07-09T08:26:17Z</time>
      </trkpt>
      <trkpt lat="44.98014" lon="5.51375">
        <ele>1588.7160644531</ele>
        <time>2011-07-09T08:26:24Z</time>
      </trkpt>
      <trkpt lat="44.98016" lon="5.51381">
        <ele>1590.6384277344</ele>
        <time>2011-07-09T08:26:31Z</time>
      </trkpt>
      <trkpt lat="44.98018" lon="5.51384">
        <ele>1591.119140625</ele>
        <time>2011-07-09T08:26:37Z</time>
      </trkpt>
      <trkpt lat="44.98016" lon="5.51387">
        <ele>1591.119140625</ele>
        <time>2011-07-09T08:26:42Z</time>
      </trkpt>
      <trkpt lat="44.98015" lon="5.5139">
        <ele>1593.5224609375</ele>
        <time>2011-07-09T08:26:48Z</time>
      </trkpt>
      <trkpt lat="44.98019" lon="5.51393">
        <ele>1596.8872070312</ele>
        <time>2011-07-09T08:26:54Z</time>
      </trkpt>
      <trkpt lat="44.98018" lon="5.51397">
        <ele>1599.2905273438</ele>
        <time>2011-07-09T08:27:00Z</time>
      </trkpt>
      <trkpt lat="44.98016" lon="5.514">
        <ele>1600.732421875</ele>
        <time>2011-07-09T08:27:05Z</time>
      </trkpt>
      <trkpt lat="44.98012" lon="5.51403">
        <ele>1602.6550292969</ele>
        <time>2011-07-09T08:27:11Z</time>
      </trkpt>
      <trkpt lat="44.9801" lon="5.51406">
        <ele>1602.6550292969</ele>
        <time>2011-07-09T08:27:16Z</time>
      </trkpt>
      <trkpt lat="44.9801" lon="5.51412">
        <ele>1601.2131347656</ele>
        <time>2011-07-09T08:27:24Z</time>
      </trkpt>
      <trkpt lat="44.98007" lon="5.51415">
        <ele>1600.732421875</ele>
        <time>2011-07-09T08:27:29Z</time>
      </trkpt>
      <trkpt lat="44.98007" lon="5.51421">
        <ele>1602.1743164062</ele>
        <time>2011-07-09T08:27:37Z</time>
      </trkpt>
      <trkpt lat="44.98006" lon="5.51424">
        <ele>1606.5002441406</ele>
        <time>2011-07-09T08:27:43Z</time>
      </trkpt>
      <trkpt lat="44.98002" lon="5.51427">
        <ele>1612.2683105469</ele>
        <time>2011-07-09T08:27:49Z</time>
      </trkpt>
      <trkpt lat="44.97999" lon="5.51428">
        <ele>1613.7102050781</ele>
        <time>2011-07-09T08:27:54Z</time>
      </trkpt>
      <trkpt lat="44.97994" lon="5.5143">
        <ele>1614.1909179688</ele>
        <time>2011-07-09T08:27:59Z</time>
      </trkpt>
      <trkpt lat="44.9799" lon="5.51432">
        <ele>1613.7102050781</ele>
        <time>2011-07-09T08:28:02Z</time>
      </trkpt>
      <trkpt lat="44.97987" lon="5.51438">
        <ele>1614.6716308594</ele>
        <time>2011-07-09T08:28:09Z</time>
      </trkpt>
      <trkpt lat="44.97987" lon="5.51441">
        <ele>1614.6716308594</ele>
        <time>2011-07-09T08:28:14Z</time>
      </trkpt>
      <trkpt lat="44.97984" lon="5.51445">
        <ele>1615.15234375</ele>
        <time>2011-07-09T08:28:19Z</time>
      </trkpt>
      <trkpt lat="44.9798" lon="5.51444">
        <ele>1616.1135253906</ele>
        <time>2011-07-09T08:28:25Z</time>
      </trkpt>
      <trkpt lat="44.9798" lon="5.51447">
        <ele>1617.0749511719</ele>
        <time>2011-07-09T08:28:31Z</time>
      </trkpt>
      <trkpt lat="44.9798" lon="5.5145">
        <ele>1618.5168457031</ele>
        <time>2011-07-09T08:28:36Z</time>
      </trkpt>
      <trkpt lat="44.97982" lon="5.51454">
        <ele>1619.9587402344</ele>
        <time>2011-07-09T08:28:42Z</time>
      </trkpt>
      <trkpt lat="44.97984" lon="5.51458">
        <ele>1621.8813476562</ele>
        <time>2011-07-09T08:28:48Z</time>
      </trkpt>
      <trkpt lat="44.97983" lon="5.51462">
        <ele>1624.2846679688</ele>
        <time>2011-07-09T08:28:55Z</time>
      </trkpt>
      <trkpt lat="44.9798" lon="5.51463">
        <ele>1626.6879882812</ele>
        <time>2011-07-09T08:29:01Z</time>
      </trkpt>
      <trkpt lat="44.97978" lon="5.51465">
        <ele>1627.6491699219</ele>
        <time>2011-07-09T08:29:06Z</time>
      </trkpt>
      <trkpt lat="44.97976" lon="5.51468">
        <ele>1628.6108398438</ele>
        <time>2011-07-09T08:29:12Z</time>
      </trkpt>
      <trkpt lat="44.97973" lon="5.51473">
        <ele>1630.5334472656</ele>
        <time>2011-07-09T08:29:18Z</time>
      </trkpt>
      <trkpt lat="44.97971" lon="5.51473">
        <ele>1632.9365234375</ele>
        <time>2011-07-09T08:29:25Z</time>
      </trkpt>
      <trkpt lat="44.97969" lon="5.51474">
        <ele>1634.3786621094</ele>
        <time>2011-07-09T08:29:31Z</time>
      </trkpt>
      <trkpt lat="44.97966" lon="5.51478">
        <ele>1635.8205566406</ele>
        <time>2011-07-09T08:29:36Z</time>
      </trkpt>
      <trkpt lat="44.97963" lon="5.51478">
        <ele>1636.3012695312</ele>
        <time>2011-07-09T08:29:40Z</time>
      </trkpt>
      <trkpt lat="44.9796" lon="5.51482">
        <ele>1638.2238769531</ele>
        <time>2011-07-09T08:29:45Z</time>
      </trkpt>
      <trkpt lat="44.97956" lon="5.51484">
        <ele>1639.6657714844</ele>
        <time>2011-07-09T08:29:51Z</time>
      </trkpt>
      <trkpt lat="44.97955" lon="5.51488">
        <ele>1640.626953125</ele>
        <time>2011-07-09T08:29:56Z</time>
      </trkpt>
      <trkpt lat="44.97956" lon="5.51492">
        <ele>1642.5498046875</ele>
        <time>2011-07-09T08:30:01Z</time>
      </trkpt>
      <trkpt lat="44.97956" lon="5.51497">
        <ele>1644.4724121094</ele>
        <time>2011-07-09T08:30:07Z</time>
      </trkpt>
      <trkpt lat="44.97954" lon="5.51501">
        <ele>1647.3564453125</ele>
        <time>2011-07-09T08:30:13Z</time>
      </trkpt>
      <trkpt lat="44.97952" lon="5.51506">
        <ele>1648.3176269531</ele>
        <time>2011-07-09T08:30:20Z</time>
      </trkpt>
      <trkpt lat="44.9795" lon="5.51508">
        <ele>1650.7209472656</ele>
        <time>2011-07-09T08:30:25Z</time>
      </trkpt>
      <trkpt lat="44.97946" lon="5.51511">
        <ele>1651.2016601562</ele>
        <time>2011-07-09T08:30:31Z</time>
      </trkpt>
      <trkpt lat="44.97945" lon="5.51514">
        <ele>1651.2016601562</ele>
        <time>2011-07-09T08:30:36Z</time>
      </trkpt>
      <trkpt lat="44.97942" lon="5.51518">
        <ele>1652.1628417969</ele>
        <time>2011-07-09T08:30:41Z</time>
      </trkpt>
      <trkpt lat="44.97939" lon="5.51523">
        <ele>1653.6049804688</ele>
        <time>2011-07-09T08:30:47Z</time>
      </trkpt>
      <trkpt lat="44.97936" lon="5.51527">
        <ele>1653.6049804688</ele>
        <time>2011-07-09T08:30:53Z</time>
      </trkpt>
      <trkpt lat="44.97934" lon="5.51531">
        <ele>1654.5661621094</ele>
        <time>2011-07-09T08:30:59Z</time>
      </trkpt>
      <trkpt lat="44.97932" lon="5.51536">
        <ele>1656.9694824219</ele>
        <time>2011-07-09T08:31:04Z</time>
      </trkpt>
      <trkpt lat="44.97931" lon="5.5154">
        <ele>1658.8920898438</ele>
        <time>2011-07-09T08:31:10Z</time>
      </trkpt>
      <trkpt lat="44.97927" lon="5.51549">
        <ele>1659.3728027344</ele>
        <time>2011-07-09T08:31:15Z</time>
      </trkpt>
      <trkpt lat="44.97926" lon="5.51558">
        <ele>1659.8532714844</ele>
        <time>2011-07-09T08:31:19Z</time>
      </trkpt>
      <trkpt lat="44.9792" lon="5.51566">
        <ele>1662.2568359375</ele>
        <time>2011-07-09T08:31:26Z</time>
      </trkpt>
      <trkpt lat="44.97919" lon="5.51567">
        <ele>1662.7375488281</ele>
        <time>2011-07-09T08:31:27Z</time>
      </trkpt>
      <trkpt lat="44.97918" lon="5.51569">
        <ele>1663.2182617188</ele>
        <time>2011-07-09T08:31:29Z</time>
      </trkpt>
      <trkpt lat="44.97917" lon="5.51575">
        <ele>1664.1794433594</ele>
        <time>2011-07-09T08:31:34Z</time>
      </trkpt>
      <trkpt lat="44.9791" lon="5.51579">
        <ele>1666.1020507812</ele>
        <time>2011-07-09T08:31:39Z</time>
      </trkpt>
      <trkpt lat="44.97906" lon="5.51581">
        <ele>1665.6215820312</ele>
        <time>2011-07-09T08:31:42Z</time>
      </trkpt>
      <trkpt lat="44.97903" lon="5.51584">
        <ele>1667.0634765625</ele>
        <time>2011-07-09T08:31:45Z</time>
      </trkpt>
      <trkpt lat="44.979" lon="5.51587">
        <ele>1666.5827636719</ele>
        <time>2011-07-09T08:31:49Z</time>
      </trkpt>
      <trkpt lat="44.97896" lon="5.51595">
        <ele>1669.466796875</ele>
        <time>2011-07-09T08:31:56Z</time>
      </trkpt>
      <trkpt lat="44.97894" lon="5.51599">
        <ele>1668.5053710938</ele>
        <time>2011-07-09T08:32:00Z</time>
      </trkpt>
      <trkpt lat="44.9789" lon="5.51607">
        <ele>1666.1020507812</ele>
        <time>2011-07-09T08:32:06Z</time>
      </trkpt>
      <trkpt lat="44.97889" lon="5.51609">
        <ele>1667.5439453125</ele>
        <time>2011-07-09T08:32:08Z</time>
      </trkpt>
      <trkpt lat="44.97888" lon="5.51618">
        <ele>1668.5053710938</ele>
        <time>2011-07-09T08:32:14Z</time>
      </trkpt>
      <trkpt lat="44.97889" lon="5.51624">
        <ele>1668.9860839844</ele>
        <time>2011-07-09T08:32:20Z</time>
      </trkpt>
      <trkpt lat="44.97889" lon="5.51626">
        <ele>1668.5053710938</ele>
        <time>2011-07-09T08:32:21Z</time>
      </trkpt>
      <trkpt lat="44.97891" lon="5.51635">
        <ele>1668.0246582031</ele>
        <time>2011-07-09T08:32:27Z</time>
      </trkpt>
      <trkpt lat="44.9789" lon="5.5164">
        <ele>1668.5053710938</ele>
        <time>2011-07-09T08:32:30Z</time>
      </trkpt>
      <trkpt lat="44.97889" lon="5.51647">
        <ele>1669.466796875</ele>
        <time>2011-07-09T08:32:35Z</time>
      </trkpt>
      <trkpt lat="44.97889" lon="5.51654">
        <ele>1670.4279785156</ele>
        <time>2011-07-09T08:32:39Z</time>
      </trkpt>
      <trkpt lat="44.97888" lon="5.5166">
        <ele>1671.8698730469</ele>
        <time>2011-07-09T08:32:43Z</time>
      </trkpt>
      <trkpt lat="44.97887" lon="5.51673">
        <ele>1673.7924804688</ele>
        <time>2011-07-09T08:32:49Z</time>
      </trkpt>
      <trkpt lat="44.97889" lon="5.51682">
        <ele>1676.1960449219</ele>
        <time>2011-07-09T08:32:55Z</time>
      </trkpt>
      <trkpt lat="44.97889" lon="5.51683">
        <ele>1678.1186523438</ele>
        <time>2011-07-09T08:33:01Z</time>
      </trkpt>
      <trkpt lat="44.9789" lon="5.5169">
        <ele>1677.1574707031</ele>
        <time>2011-07-09T08:33:07Z</time>
      </trkpt>
      <trkpt lat="44.97889" lon="5.51698">
        <ele>1675.7150878906</ele>
        <time>2011-07-09T08:33:10Z</time>
      </trkpt>
      <trkpt lat="44.97882" lon="5.51705">
        <ele>1674.2731933594</ele>
        <time>2011-07-09T08:33:14Z</time>
      </trkpt>
      <trkpt lat="44.97879" lon="5.51707">
        <ele>1673.3120117188</ele>
        <time>2011-07-09T08:33:16Z</time>
      </trkpt>
      <trkpt lat="44.97875" lon="5.51714">
        <ele>1671.8698730469</ele>
        <time>2011-07-09T08:33:21Z</time>
      </trkpt>
      <trkpt lat="44.97872" lon="5.5172">
        <ele>1671.3891601562</ele>
        <time>2011-07-09T08:33:25Z</time>
      </trkpt>
      <trkpt lat="44.97864" lon="5.51728">
        <ele>1671.3891601562</ele>
        <time>2011-07-09T08:33:30Z</time>
      </trkpt>
      <trkpt lat="44.97859" lon="5.51737">
        <ele>1669.947265625</ele>
        <time>2011-07-09T08:33:35Z</time>
      </trkpt>
      <trkpt lat="44.97858" lon="5.51739">
        <ele>1669.947265625</ele>
        <time>2011-07-09T08:33:36Z</time>
      </trkpt>
      <trkpt lat="44.97854" lon="5.51744">
        <ele>1669.947265625</ele>
        <time>2011-07-09T08:33:40Z</time>
      </trkpt>
      <trkpt lat="44.97853" lon="5.51746">
        <ele>1669.466796875</ele>
        <time>2011-07-09T08:33:42Z</time>
      </trkpt>
      <trkpt lat="44.9785" lon="5.51751">
        <ele>1668.9860839844</ele>
        <time>2011-07-09T08:33:46Z</time>
      </trkpt>
      <trkpt lat="44.97845" lon="5.51752">
        <ele>1667.5439453125</ele>
        <time>2011-07-09T08:33:49Z</time>
      </trkpt>
      <trkpt lat="44.97844" lon="5.51754">
        <ele>1667.5439453125</ele>
        <time>2011-07-09T08:33:54Z</time>
      </trkpt>
      <trkpt lat="44.97846" lon="5.51752">
        <ele>1668.5053710938</ele>
        <time>2011-07-09T08:33:59Z</time>
      </trkpt>
      <trkpt lat="44.9785" lon="5.51751">
        <ele>1669.466796875</ele>
        <time>2011-07-09T08:34:05Z</time>
      </trkpt>
      <trkpt lat="44.9785" lon="5.51748">
        <ele>1670.4279785156</ele>
        <time>2011-07-09T08:34:11Z</time>
      </trkpt>
      <trkpt lat="44.97852" lon="5.51745">
        <ele>1671.8698730469</ele>
        <time>2011-07-09T08:34:13Z</time>
      </trkpt>
      <trkpt lat="44.97856" lon="5.51739">
        <ele>1673.3120117188</ele>
        <time>2011-07-09T08:34:21Z</time>
      </trkpt>
      <trkpt lat="44.97861" lon="5.51731">
        <ele>1674.2731933594</ele>
        <time>2011-07-09T08:34:28Z</time>
      </trkpt>
      <trkpt lat="44.97867" lon="5.51724">
        <ele>1674.2731933594</ele>
        <time>2011-07-09T08:34:35Z</time>
      </trkpt>
      <trkpt lat="44.9787" lon="5.51722">
        <ele>1673.7924804688</ele>
        <time>2011-07-09T08:34:38Z</time>
      </trkpt>
      <trkpt lat="44.97874" lon="5.51725">
        <ele>1673.3120117188</ele>
        <time>2011-07-09T08:34:43Z</time>
      </trkpt>
      <trkpt lat="44.97877" lon="5.51735">
        <ele>1669.947265625</ele>
        <time>2011-07-09T08:34:48Z</time>
      </trkpt>
      <trkpt lat="44.97882" lon="5.5174">
        <ele>1669.466796875</ele>
        <time>2011-07-09T08:34:51Z</time>
      </trkpt>
      <trkpt lat="44.97884" lon="5.51743">
        <ele>1669.466796875</ele>
        <time>2011-07-09T08:34:55Z</time>
      </trkpt>
      <trkpt lat="44.97886" lon="5.51746">
        <ele>1669.947265625</ele>
        <time>2011-07-09T08:35:02Z</time>
      </trkpt>
      <trkpt lat="44.97886" lon="5.51746">
        <ele>1671.3891601562</ele>
        <time>2011-07-09T08:35:07Z</time>
      </trkpt>
      <trkpt lat="44.97887" lon="5.51746">
        <ele>1671.8698730469</ele>
        <time>2011-07-09T08:35:14Z</time>
      </trkpt>
      <trkpt lat="44.97886" lon="5.51745">
        <ele>1671.3891601562</ele>
        <time>2011-07-09T08:35:41Z</time>
      </trkpt>
      <trkpt lat="44.97886" lon="5.51745">
        <ele>1671.8698730469</ele>
        <time>2011-07-09T08:36:00Z</time>
      </trkpt>
      <trkpt lat="44.97886" lon="5.51745">
        <ele>1671.8698730469</ele>
        <time>2011-07-09T08:36:11Z</time>
      </trkpt>
      <trkpt lat="44.97886" lon="5.51745">
        <ele>1671.3891601562</ele>
        <time>2011-07-09T08:36:17Z</time>
      </trkpt>
      <trkpt lat="44.97886" lon="5.51743">
        <ele>1672.3505859375</ele>
        <time>2011-07-09T08:36:32Z</time>
      </trkpt>
      <trkpt lat="44.97885" lon="5.51743">
        <ele>1673.7924804688</ele>
        <time>2011-07-09T08:36:48Z</time>
      </trkpt>
      <trkpt lat="44.97886" lon="5.51743">
        <ele>1674.75390625</ele>
        <time>2011-07-09T08:36:58Z</time>
      </trkpt>
      <trkpt lat="44.97886" lon="5.51744">
        <ele>1675.7150878906</ele>
        <time>2011-07-09T08:37:04Z</time>
      </trkpt>
      <trkpt lat="44.97885" lon="5.51743">
        <ele>1676.1960449219</ele>
        <time>2011-07-09T08:37:19Z</time>
      </trkpt>
      <trkpt lat="44.97884" lon="5.51742">
        <ele>1677.1574707031</ele>
        <time>2011-07-09T08:37:26Z</time>
      </trkpt>
      <trkpt lat="44.97885" lon="5.51744">
        <ele>1676.6767578125</ele>
        <time>2011-07-09T08:37:37Z</time>
      </trkpt>
      <trkpt lat="44.97885" lon="5.51745">
        <ele>1672.8312988281</ele>
        <time>2011-07-09T08:38:08Z</time>
      </trkpt>
      <trkpt lat="44.97886" lon="5.51745">
        <ele>1673.7924804688</ele>
        <time>2011-07-09T08:38:33Z</time>
      </trkpt>
      <trkpt lat="44.97886" lon="5.51745">
        <ele>1674.75390625</ele>
        <time>2011-07-09T08:38:40Z</time>
      </trkpt>
      <trkpt lat="44.97885" lon="5.51744">
        <ele>1675.234375</ele>
        <time>2011-07-09T08:38:46Z</time>
      </trkpt>
      <trkpt lat="44.97885" lon="5.51745">
        <ele>1675.7150878906</ele>
        <time>2011-07-09T08:38:56Z</time>
      </trkpt>
      <trkpt lat="44.97885" lon="5.51745">
        <ele>1675.234375</ele>
        <time>2011-07-09T08:39:11Z</time>
      </trkpt>
      <trkpt lat="44.97884" lon="5.51745">
        <ele>1676.6767578125</ele>
        <time>2011-07-09T08:39:17Z</time>
      </trkpt>
      <trkpt lat="44.97884" lon="5.51745">
        <ele>1676.1960449219</ele>
        <time>2011-07-09T08:39:22Z</time>
      </trkpt>
      <trkpt lat="44.97885" lon="5.51745">
        <ele>1676.6767578125</ele>
        <time>2011-07-09T08:39:27Z</time>
      </trkpt>
      <trkpt lat="44.97885" lon="5.51745">
        <ele>1676.1960449219</ele>
        <time>2011-07-09T08:39:37Z</time>
      </trkpt>
      <trkpt lat="44.97886" lon="5.51746">
        <ele>1676.1960449219</ele>
        <time>2011-07-09T08:39:46Z</time>
      </trkpt>
      <trkpt lat="44.97886" lon="5.51748">
        <ele>1676.6767578125</ele>
        <time>2011-07-09T08:40:13Z</time>
      </trkpt>
      <trkpt lat="44.97886" lon="5.51749">
        <ele>1676.6767578125</ele>
        <time>2011-07-09T08:40:53Z</time>
      </trkpt>
      <trkpt lat="44.97886" lon="5.51751">
        <ele>1674.75390625</ele>
        <time>2011-07-09T08:41:02Z</time>
      </trkpt>
      <trkpt lat="44.97885" lon="5.51751">
        <ele>1674.75390625</ele>
        <time>2011-07-09T08:41:12Z</time>
      </trkpt>
      <trkpt lat="44.97886" lon="5.51749">
        <ele>1675.7150878906</ele>
        <time>2011-07-09T08:41:38Z</time>
      </trkpt>
      <trkpt lat="44.97887" lon="5.51747">
        <ele>1675.7150878906</ele>
        <time>2011-07-09T08:41:44Z</time>
      </trkpt>
      <trkpt lat="44.97887" lon="5.51745">
        <ele>1677.6379394531</ele>
        <time>2011-07-09T08:42:02Z</time>
      </trkpt>
      <trkpt lat="44.97887" lon="5.51746">
        <ele>1677.6379394531</ele>
        <time>2011-07-09T08:42:13Z</time>
      </trkpt>
      <trkpt lat="44.97887" lon="5.51748">
        <ele>1677.1574707031</ele>
        <time>2011-07-09T08:42:26Z</time>
      </trkpt>
      <trkpt lat="44.97887" lon="5.51747">
        <ele>1676.1960449219</ele>
        <time>2011-07-09T08:42:31Z</time>
      </trkpt>
      <trkpt lat="44.97891" lon="5.51751">
        <ele>1676.1960449219</ele>
        <time>2011-07-09T08:42:36Z</time>
      </trkpt>
      <trkpt lat="44.97897" lon="5.51757">
        <ele>1675.234375</ele>
        <time>2011-07-09T08:42:40Z</time>
      </trkpt>
      <trkpt lat="44.97901" lon="5.51759">
        <ele>1674.2731933594</ele>
        <time>2011-07-09T08:42:44Z</time>
      </trkpt>
      <trkpt lat="44.97906" lon="5.51769">
        <ele>1673.3120117188</ele>
        <time>2011-07-09T08:42:51Z</time>
      </trkpt>
      <trkpt lat="44.97909" lon="5.51774">
        <ele>1673.3120117188</ele>
        <time>2011-07-09T08:42:55Z</time>
      </trkpt>
      <trkpt lat="44.97911" lon="5.51776">
        <ele>1673.7924804688</ele>
        <time>2011-07-09T08:43:02Z</time>
      </trkpt>
      <trkpt lat="44.97915" lon="5.51779">
        <ele>1674.2731933594</ele>
        <time>2011-07-09T08:43:07Z</time>
      </trkpt>
      <trkpt lat="44.97916" lon="5.51781">
        <ele>1673.7924804688</ele>
        <time>2011-07-09T08:43:08Z</time>
      </trkpt>
      <trkpt lat="44.97924" lon="5.51787">
        <ele>1674.2731933594</ele>
        <time>2011-07-09T08:43:14Z</time>
      </trkpt>
      <trkpt lat="44.97931" lon="5.51791">
        <ele>1674.2731933594</ele>
        <time>2011-07-09T08:43:18Z</time>
      </trkpt>
      <trkpt lat="44.97934" lon="5.51792">
        <ele>1673.7924804688</ele>
        <time>2011-07-09T08:43:20Z</time>
      </trkpt>
      <trkpt lat="44.97945" lon="5.51799">
        <ele>1673.7924804688</ele>
        <time>2011-07-09T08:43:26Z</time>
      </trkpt>
      <trkpt lat="44.97955" lon="5.51807">
        <ele>1671.8698730469</ele>
        <time>2011-07-09T08:43:31Z</time>
      </trkpt>
      <trkpt lat="44.97967" lon="5.51809">
        <ele>1669.947265625</ele>
        <time>2011-07-09T08:43:36Z</time>
      </trkpt>
      <trkpt lat="44.97976" lon="5.51806">
        <ele>1668.9860839844</ele>
        <time>2011-07-09T08:43:40Z</time>
      </trkpt>
      <trkpt lat="44.97985" lon="5.51802">
        <ele>1666.1020507812</ele>
        <time>2011-07-09T08:43:44Z</time>
      </trkpt>
      <trkpt lat="44.97998" lon="5.51802">
        <ele>1663.6987304688</ele>
        <time>2011-07-09T08:43:50Z</time>
      </trkpt>
      <trkpt lat="44.98011" lon="5.51801">
        <ele>1662.2568359375</ele>
        <time>2011-07-09T08:43:55Z</time>
      </trkpt>
      <trkpt lat="44.98013" lon="5.51802">
        <ele>1661.7763671875</ele>
        <time>2011-07-09T08:43:56Z</time>
      </trkpt>
      <trkpt lat="44.98025" lon="5.51805">
        <ele>1660.3342285156</ele>
        <time>2011-07-09T08:44:01Z</time>
      </trkpt>
      <trkpt lat="44.98035" lon="5.51806">
        <ele>1657.9309082031</ele>
        <time>2011-07-09T08:44:06Z</time>
      </trkpt>
      <trkpt lat="44.98036" lon="5.51805">
        <ele>1656.9694824219</ele>
        <time>2011-07-09T08:44:07Z</time>
      </trkpt>
      <trkpt lat="44.98047" lon="5.51804">
        <ele>1653.6049804688</ele>
        <time>2011-07-09T08:44:13Z</time>
      </trkpt>
      <trkpt lat="44.98057" lon="5.51803">
        <ele>1650.7209472656</ele>
        <time>2011-07-09T08:44:18Z</time>
      </trkpt>
      <trkpt lat="44.98063" lon="5.51801">
        <ele>1648.7983398438</ele>
        <time>2011-07-09T08:44:20Z</time>
      </trkpt>
      <trkpt lat="44.98077" lon="5.5179">
        <ele>1645.9145507812</ele>
        <time>2011-07-09T08:44:27Z</time>
      </trkpt>
      <trkpt lat="44.9808" lon="5.51786">
        <ele>1644.953125</ele>
        <time>2011-07-09T08:44:29Z</time>
      </trkpt>
      <trkpt lat="44.98092" lon="5.51773">
        <ele>1643.0302734375</ele>
        <time>2011-07-09T08:44:35Z</time>
      </trkpt>
      <trkpt lat="44.98094" lon="5.51769">
        <ele>1643.0302734375</ele>
        <time>2011-07-09T08:44:37Z</time>
      </trkpt>
      <trkpt lat="44.98098" lon="5.51755">
        <ele>1643.0302734375</ele>
        <time>2011-07-09T08:44:43Z</time>
      </trkpt>
      <trkpt lat="44.98102" lon="5.51746">
        <ele>1642.5498046875</ele>
        <time>2011-07-09T08:44:47Z</time>
      </trkpt>
      <trkpt lat="44.98112" lon="5.51731">
        <ele>1640.626953125</ele>
        <time>2011-07-09T08:44:55Z</time>
      </trkpt>
      <trkpt lat="44.98114" lon="5.51728">
        <ele>1639.6657714844</ele>
        <time>2011-07-09T08:44:57Z</time>
      </trkpt>
      <trkpt lat="44.98121" lon="5.51713">
        <ele>1637.7431640625</ele>
        <time>2011-07-09T08:45:03Z</time>
      </trkpt>
      <trkpt lat="44.98122" lon="5.5171">
        <ele>1636.7817382812</ele>
        <time>2011-07-09T08:45:04Z</time>
      </trkpt>
      <trkpt lat="44.9813" lon="5.51699">
        <ele>1633.8979492188</ele>
        <time>2011-07-09T08:45:09Z</time>
      </trkpt>
      <trkpt lat="44.98135" lon="5.51694">
        <ele>1632.9365234375</ele>
        <time>2011-07-09T08:45:11Z</time>
      </trkpt>
      <trkpt lat="44.98145" lon="5.51676">
        <ele>1630.052734375</ele>
        <time>2011-07-09T08:45:17Z</time>
      </trkpt>
      <trkpt lat="44.98148" lon="5.5167">
        <ele>1631.4946289062</ele>
        <time>2011-07-09T08:45:19Z</time>
      </trkpt>
      <trkpt lat="44.9815" lon="5.51656">
        <ele>1630.052734375</ele>
        <time>2011-07-09T08:45:24Z</time>
      </trkpt>
      <trkpt lat="44.98154" lon="5.51653">
        <ele>1629.0913085938</ele>
        <time>2011-07-09T08:45:27Z</time>
      </trkpt>
      <trkpt lat="44.98155" lon="5.51656">
        <ele>1628.1301269531</ele>
        <time>2011-07-09T08:45:28Z</time>
      </trkpt>
      <trkpt lat="44.98167" lon="5.51659">
        <ele>1628.6108398438</ele>
        <time>2011-07-09T08:45:33Z</time>
      </trkpt>
      <trkpt lat="44.98171" lon="5.51657">
        <ele>1629.0913085938</ele>
        <time>2011-07-09T08:45:35Z</time>
      </trkpt>
      <trkpt lat="44.98175" lon="5.5165">
        <ele>1633.4172363281</ele>
        <time>2011-07-09T08:45:38Z</time>
      </trkpt>
      <trkpt lat="44.98179" lon="5.51636">
        <ele>1636.3012695312</ele>
        <time>2011-07-09T08:45:43Z</time>
      </trkpt>
      <trkpt lat="44.98185" lon="5.51628">
        <ele>1638.7045898438</ele>
        <time>2011-07-09T08:45:47Z</time>
      </trkpt>
      <trkpt lat="44.98188" lon="5.51626">
        <ele>1639.1850585938</ele>
        <time>2011-07-09T08:45:49Z</time>
      </trkpt>
      <trkpt lat="44.98192" lon="5.51612">
        <ele>1640.146484375</ele>
        <time>2011-07-09T08:45:54Z</time>
      </trkpt>
      <trkpt lat="44.98193" lon="5.51605">
        <ele>1639.6657714844</ele>
        <time>2011-07-09T08:45:57Z</time>
      </trkpt>
      <trkpt lat="44.98197" lon="5.516">
        <ele>1639.1850585938</ele>
        <time>2011-07-09T08:45:59Z</time>
      </trkpt>
      <trkpt lat="44.98205" lon="5.51591">
        <ele>1638.7045898438</ele>
        <time>2011-07-09T08:46:04Z</time>
      </trkpt>
      <trkpt lat="44.98205" lon="5.51586">
        <ele>1638.7045898438</ele>
        <time>2011-07-09T08:46:06Z</time>
      </trkpt>
      <trkpt lat="44.98205" lon="5.51586">
        <ele>1638.7045898438</ele>
        <time>2011-07-09T08:46:06Z</time>
      </trkpt>
      <trkpt lat="44.98208" lon="5.51583">
        <ele>1638.7045898438</ele>
        <time>2011-07-09T08:46:08Z</time>
      </trkpt>
      <trkpt lat="44.98213" lon="5.51581">
        <ele>1636.7817382812</ele>
        <time>2011-07-09T08:46:12Z</time>
      </trkpt>
      <trkpt lat="44.98219" lon="5.51574">
        <ele>1634.3786621094</ele>
        <time>2011-07-09T08:46:16Z</time>
      </trkpt>
      <trkpt lat="44.9822" lon="5.51569">
        <ele>1633.4172363281</ele>
        <time>2011-07-09T08:46:18Z</time>
      </trkpt>
      <trkpt lat="44.98223" lon="5.51559">
        <ele>1632.4560546875</ele>
        <time>2011-07-09T08:46:23Z</time>
      </trkpt>
      <trkpt lat="44.98226" lon="5.51556">
        <ele>1631.9753417969</ele>
        <time>2011-07-09T08:46:25Z</time>
      </trkpt>
      <trkpt lat="44.98229" lon="5.51547">
        <ele>1631.4946289062</ele>
        <time>2011-07-09T08:46:30Z</time>
      </trkpt>
      <trkpt lat="44.98231" lon="5.51544">
        <ele>1631.4946289062</ele>
        <time>2011-07-09T08:46:34Z</time>
      </trkpt>
      <trkpt lat="44.98238" lon="5.51542">
        <ele>1630.5334472656</ele>
        <time>2011-07-09T08:46:40Z</time>
      </trkpt>
      <trkpt lat="44.98246" lon="5.51543">
        <ele>1627.6491699219</ele>
        <time>2011-07-09T08:46:45Z</time>
      </trkpt>
      <trkpt lat="44.98254" lon="5.51541">
        <ele>1623.8039550781</ele>
        <time>2011-07-09T08:46:50Z</time>
      </trkpt>
      <trkpt lat="44.98263" lon="5.51539">
        <ele>1620.9201660156</ele>
        <time>2011-07-09T08:46:55Z</time>
      </trkpt>
      <trkpt lat="44.98275" lon="5.51533">
        <ele>1616.1135253906</ele>
        <time>2011-07-09T08:47:00Z</time>
      </trkpt>
      <trkpt lat="44.98283" lon="5.51523">
        <ele>1612.7490234375</ele>
        <time>2011-07-09T08:47:04Z</time>
      </trkpt>
      <trkpt lat="44.98291" lon="5.51516">
        <ele>1610.3454589844</ele>
        <time>2011-07-09T08:47:08Z</time>
      </trkpt>
      <trkpt lat="44.98299" lon="5.51501">
        <ele>1607.9423828125</ele>
        <time>2011-07-09T08:47:14Z</time>
      </trkpt>
      <trkpt lat="44.98306" lon="5.51495">
        <ele>1608.9035644531</ele>
        <time>2011-07-09T08:47:17Z</time>
      </trkpt>
      <trkpt lat="44.98315" lon="5.51483">
        <ele>1608.9035644531</ele>
        <time>2011-07-09T08:47:22Z</time>
      </trkpt>
      <trkpt lat="44.98323" lon="5.51474">
        <ele>1608.9035644531</ele>
        <time>2011-07-09T08:47:26Z</time>
      </trkpt>
      <trkpt lat="44.98324" lon="5.51472">
        <ele>1608.9035644531</ele>
        <time>2011-07-09T08:47:27Z</time>
      </trkpt>
      <trkpt lat="44.98331" lon="5.51466">
        <ele>1610.3454589844</ele>
        <time>2011-07-09T08:47:32Z</time>
      </trkpt>
      <trkpt lat="44.98336" lon="5.51455">
        <ele>1610.3454589844</ele>
        <time>2011-07-09T08:47:36Z</time>
      </trkpt>
      <trkpt lat="44.98339" lon="5.51444">
        <ele>1609.8647460938</ele>
        <time>2011-07-09T08:47:40Z</time>
      </trkpt>
      <trkpt lat="44.9834" lon="5.51443">
        <ele>1609.8647460938</ele>
        <time>2011-07-09T08:47:44Z</time>
      </trkpt>
      <trkpt lat="44.9834" lon="5.51442">
        <ele>1611.3068847656</ele>
        <time>2011-07-09T08:47:52Z</time>
      </trkpt>
      <trkpt lat="44.9834" lon="5.51441">
        <ele>1612.2683105469</ele>
        <time>2011-07-09T08:48:08Z</time>
      </trkpt>
      <trkpt lat="44.98339" lon="5.51441">
        <ele>1610.826171875</ele>
        <time>2011-07-09T08:48:18Z</time>
      </trkpt>
      <trkpt lat="44.98339" lon="5.51441">
        <ele>1611.3068847656</ele>
        <time>2011-07-09T08:48:29Z</time>
      </trkpt>
      <trkpt lat="44.98339" lon="5.51443">
        <ele>1625.2458496094</ele>
        <time>2011-07-09T08:49:02Z</time>
      </trkpt>
      <trkpt lat="44.98342" lon="5.51442">
        <ele>1621.4006347656</ele>
        <time>2011-07-09T08:49:23Z</time>
      </trkpt>
      <trkpt lat="44.9834" lon="5.51441">
        <ele>1619.4782714844</ele>
        <time>2011-07-09T08:49:31Z</time>
      </trkpt>
      <trkpt lat="44.9834" lon="5.51441">
        <ele>1618.9975585938</ele>
        <time>2011-07-09T08:49:39Z</time>
      </trkpt>
      <trkpt lat="44.98341" lon="5.51442">
        <ele>1619.9587402344</ele>
        <time>2011-07-09T08:49:49Z</time>
      </trkpt>
      <trkpt lat="44.98341" lon="5.51442">
        <ele>1618.9975585938</ele>
        <time>2011-07-09T08:50:04Z</time>
      </trkpt>
      <trkpt lat="44.98342" lon="5.5144">
        <ele>1612.7490234375</ele>
        <time>2011-07-09T08:50:36Z</time>
      </trkpt>
      <trkpt lat="44.98341" lon="5.5144">
        <ele>1610.826171875</ele>
        <time>2011-07-09T08:50:44Z</time>
      </trkpt>
      <trkpt lat="44.98341" lon="5.51441">
        <ele>1610.3454589844</ele>
        <time>2011-07-09T08:50:58Z</time>
      </trkpt>
      <trkpt lat="44.9834" lon="5.5144">
        <ele>1605.5390625</ele>
        <time>2011-07-09T08:51:45Z</time>
      </trkpt>
      <trkpt lat="44.98341" lon="5.51439">
        <ele>1603.6164550781</ele>
        <time>2011-07-09T08:51:55Z</time>
      </trkpt>
      <trkpt lat="44.98344" lon="5.5144">
        <ele>1604.0971679688</ele>
        <time>2011-07-09T08:52:00Z</time>
      </trkpt>
      <trkpt lat="44.98346" lon="5.5144">
        <ele>1604.0971679688</ele>
        <time>2011-07-09T08:52:01Z</time>
      </trkpt>
      <trkpt lat="44.98353" lon="5.51439">
        <ele>1602.6550292969</ele>
        <time>2011-07-09T08:52:06Z</time>
      </trkpt>
      <trkpt lat="44.9836" lon="5.51436">
        <ele>1600.732421875</ele>
        <time>2011-07-09T08:52:10Z</time>
      </trkpt>
      <trkpt lat="44.98369" lon="5.51431">
        <ele>1598.8098144531</ele>
        <time>2011-07-09T08:52:15Z</time>
      </trkpt>
      <trkpt lat="44.98375" lon="5.51425">
        <ele>1598.3291015625</ele>
        <time>2011-07-09T08:52:19Z</time>
      </trkpt>
      <trkpt lat="44.9838" lon="5.51421">
        <ele>1597.3679199219</ele>
        <time>2011-07-09T08:52:23Z</time>
      </trkpt>
      <trkpt lat="44.98381" lon="5.5142">
        <ele>1595.92578125</ele>
        <time>2011-07-09T08:52:25Z</time>
      </trkpt>
      <trkpt lat="44.98387" lon="5.51422">
        <ele>1594.0031738281</ele>
        <time>2011-07-09T08:52:29Z</time>
      </trkpt>
      <trkpt lat="44.98391" lon="5.51423">
        <ele>1593.5224609375</ele>
        <time>2011-07-09T08:52:32Z</time>
      </trkpt>
      <trkpt lat="44.98401" lon="5.51428">
        <ele>1591.5998535156</ele>
        <time>2011-07-09T08:52:38Z</time>
      </trkpt>
      <trkpt lat="44.98402" lon="5.5143">
        <ele>1591.119140625</ele>
        <time>2011-07-09T08:52:39Z</time>
      </trkpt>
      <trkpt lat="44.98405" lon="5.51434">
        <ele>1590.1579589844</ele>
        <time>2011-07-09T08:52:41Z</time>
      </trkpt>
      <trkpt lat="44.98417" lon="5.51434">
        <ele>1588.2353515625</ele>
        <time>2011-07-09T08:52:46Z</time>
      </trkpt>
      <trkpt lat="44.98426" lon="5.51437">
        <ele>1587.7546386719</ele>
        <time>2011-07-09T08:52:50Z</time>
      </trkpt>
      <trkpt lat="44.98438" lon="5.51444">
        <ele>1585.3513183594</ele>
        <time>2011-07-09T08:52:55Z</time>
      </trkpt>
      <trkpt lat="44.98448" lon="5.51444">
        <ele>1582.9479980469</ele>
        <time>2011-07-09T08:53:00Z</time>
      </trkpt>
      <trkpt lat="44.98456" lon="5.51446">
        <ele>1581.0256347656</ele>
        <time>2011-07-09T08:53:04Z</time>
      </trkpt>
      <trkpt lat="44.98458" lon="5.51446">
        <ele>1580.0642089844</ele>
        <time>2011-07-09T08:53:05Z</time>
      </trkpt>
      <trkpt lat="44.98473" lon="5.51443">
        <ele>1577.1801757812</ele>
        <time>2011-07-09T08:53:10Z</time>
      </trkpt>
      <trkpt lat="44.98484" lon="5.51443">
        <ele>1573.8154296875</ele>
        <time>2011-07-09T08:53:14Z</time>
      </trkpt>
      <trkpt lat="44.98489" lon="5.51445">
        <ele>1572.3735351562</ele>
        <time>2011-07-09T08:53:16Z</time>
      </trkpt>
      <trkpt lat="44.98498" lon="5.51446">
        <ele>1569.0090332031</ele>
        <time>2011-07-09T08:53:21Z</time>
      </trkpt>
      <trkpt lat="44.98505" lon="5.51446">
        <ele>1566.125</ele>
        <time>2011-07-09T08:53:24Z</time>
      </trkpt>
      <trkpt lat="44.98522" lon="5.51447">
        <ele>1564.2023925781</ele>
        <time>2011-07-09T08:53:31Z</time>
      </trkpt>
      <trkpt lat="44.98528" lon="5.51445">
        <ele>1563.2409667969</ele>
        <time>2011-07-09T08:53:34Z</time>
      </trkpt>
      <trkpt lat="44.98547" lon="5.51451">
        <ele>1561.318359375</ele>
        <time>2011-07-09T08:53:41Z</time>
      </trkpt>
      <trkpt lat="44.98558" lon="5.51456">
        <ele>1560.8376464844</ele>
        <time>2011-07-09T08:53:45Z</time>
      </trkpt>
      <trkpt lat="44.98569" lon="5.51456">
        <ele>1560.3569335938</ele>
        <time>2011-07-09T08:53:49Z</time>
      </trkpt>
      <trkpt lat="44.98581" lon="5.51462">
        <ele>1559.3957519531</ele>
        <time>2011-07-09T08:53:53Z</time>
      </trkpt>
      <trkpt lat="44.98586" lon="5.51465">
        <ele>1558.9150390625</ele>
        <time>2011-07-09T08:53:55Z</time>
      </trkpt>
      <trkpt lat="44.98592" lon="5.51467">
        <ele>1556.9924316406</ele>
        <time>2011-07-09T08:53:57Z</time>
      </trkpt>
      <trkpt lat="44.9861" lon="5.51467">
        <ele>1551.7053222656</ele>
        <time>2011-07-09T08:54:03Z</time>
      </trkpt>
      <trkpt lat="44.98617" lon="5.51463">
        <ele>1550.2634277344</ele>
        <time>2011-07-09T08:54:06Z</time>
      </trkpt>
      <trkpt lat="44.98631" lon="5.51468">
        <ele>1545.9372558594</ele>
        <time>2011-07-09T08:54:11Z</time>
      </trkpt>
      <trkpt lat="44.98648" lon="5.51472">
        <ele>1542.5727539062</ele>
        <time>2011-07-09T08:54:17Z</time>
      </trkpt>
      <trkpt lat="44.98658" lon="5.51472">
        <ele>1539.6887207031</ele>
        <time>2011-07-09T08:54:21Z</time>
      </trkpt>
      <trkpt lat="44.98667" lon="5.51469">
        <ele>1537.7661132812</ele>
        <time>2011-07-09T08:54:25Z</time>
      </trkpt>
      <trkpt lat="44.98678" lon="5.51466">
        <ele>1533.9208984375</ele>
        <time>2011-07-09T08:54:29Z</time>
      </trkpt>
      <trkpt lat="44.98694" lon="5.51465">
        <ele>1529.5947265625</ele>
        <time>2011-07-09T08:54:34Z</time>
      </trkpt>
      <trkpt lat="44.98703" lon="5.51467">
        <ele>1527.6721191406</ele>
        <time>2011-07-09T08:54:37Z</time>
      </trkpt>
      <trkpt lat="44.98717" lon="5.51466">
        <ele>1523.3464355469</ele>
        <time>2011-07-09T08:54:42Z</time>
      </trkpt>
      <trkpt lat="44.98727" lon="5.51473">
        <ele>1519.9816894531</ele>
        <time>2011-07-09T08:54:46Z</time>
      </trkpt>
      <trkpt lat="44.98735" lon="5.51469">
        <ele>1517.0979003906</ele>
        <time>2011-07-09T08:54:49Z</time>
      </trkpt>
      <trkpt lat="44.98737" lon="5.5147">
        <ele>1516.1364746094</ele>
        <time>2011-07-09T08:54:50Z</time>
      </trkpt>
      <trkpt lat="44.98744" lon="5.51472">
        <ele>1511.3298339844</ele>
        <time>2011-07-09T08:54:56Z</time>
      </trkpt>
      <trkpt lat="44.98753" lon="5.51477">
        <ele>1508.9265136719</ele>
        <time>2011-07-09T08:54:59Z</time>
      </trkpt>
      <trkpt lat="44.98762" lon="5.51488">
        <ele>1506.0424804688</ele>
        <time>2011-07-09T08:55:03Z</time>
      </trkpt>
      <trkpt lat="44.98782" lon="5.51497">
        <ele>1503.1586914062</ele>
        <time>2011-07-09T08:55:11Z</time>
      </trkpt>
      <trkpt lat="44.98793" lon="5.5151">
        <ele>1501.2360839844</ele>
        <time>2011-07-09T08:55:16Z</time>
      </trkpt>
      <trkpt lat="44.98804" lon="5.51519">
        <ele>1499.7939453125</ele>
        <time>2011-07-09T08:55:20Z</time>
      </trkpt>
      <trkpt lat="44.9882" lon="5.51529">
        <ele>1498.8325195312</ele>
        <time>2011-07-09T08:55:25Z</time>
      </trkpt>
      <trkpt lat="44.98835" lon="5.5154">
        <ele>1497.8713378906</ele>
        <time>2011-07-09T08:55:30Z</time>
      </trkpt>
      <trkpt lat="44.98848" lon="5.51548">
        <ele>1494.9873046875</ele>
        <time>2011-07-09T08:55:34Z</time>
      </trkpt>
      <trkpt lat="44.98863" lon="5.51555">
        <ele>1494.5065917969</ele>
        <time>2011-07-09T08:55:39Z</time>
      </trkpt>
      <trkpt lat="44.9887" lon="5.51556">
        <ele>1494.0261230469</ele>
        <time>2011-07-09T08:55:41Z</time>
      </trkpt>
      <trkpt lat="44.98885" lon="5.51566">
        <ele>1491.6228027344</ele>
        <time>2011-07-09T08:55:46Z</time>
      </trkpt>
      <trkpt lat="44.98895" lon="5.5158">
        <ele>1489.2194824219</ele>
        <time>2011-07-09T08:55:50Z</time>
      </trkpt>
      <trkpt lat="44.98904" lon="5.51588">
        <ele>1488.7390136719</ele>
        <time>2011-07-09T08:55:55Z</time>
      </trkpt>
      <trkpt lat="44.98905" lon="5.51589">
        <ele>1489.2194824219</ele>
        <time>2011-07-09T08:55:56Z</time>
      </trkpt>
      <trkpt lat="44.98907" lon="5.51594">
        <ele>1490.6613769531</ele>
        <time>2011-07-09T08:56:01Z</time>
      </trkpt>
      <trkpt lat="44.98907" lon="5.51595">
        <ele>1491.1420898438</ele>
        <time>2011-07-09T08:56:02Z</time>
      </trkpt>
      <trkpt lat="44.98908" lon="5.51595">
        <ele>1492.103515625</ele>
        <time>2011-07-09T08:56:10Z</time>
      </trkpt>
      <trkpt lat="44.98908" lon="5.51594">
        <ele>1491.6228027344</ele>
        <time>2011-07-09T08:56:19Z</time>
      </trkpt>
      <trkpt lat="44.98907" lon="5.51595">
        <ele>1492.103515625</ele>
        <time>2011-07-09T08:56:32Z</time>
      </trkpt>
      <trkpt lat="44.98905" lon="5.51597">
        <ele>1494.0261230469</ele>
        <time>2011-07-09T08:56:45Z</time>
      </trkpt>
      <trkpt lat="44.98906" lon="5.51596">
        <ele>1494.9873046875</ele>
        <time>2011-07-09T08:57:07Z</time>
      </trkpt>
      <trkpt lat="44.98905" lon="5.51592">
        <ele>1502.197265625</ele>
        <time>2011-07-09T08:57:33Z</time>
      </trkpt>
      <trkpt lat="44.98905" lon="5.51592">
        <ele>1498.8325195312</ele>
        <time>2011-07-09T08:57:50Z</time>
      </trkpt>
      <trkpt lat="44.98906" lon="5.51591">
        <ele>1497.8713378906</ele>
        <time>2011-07-09T08:58:06Z</time>
      </trkpt>
      <trkpt lat="44.98907" lon="5.51592">
        <ele>1499.7939453125</ele>
        <time>2011-07-09T08:58:14Z</time>
      </trkpt>
      <trkpt lat="44.98907" lon="5.51593">
        <ele>1502.6779785156</ele>
        <time>2011-07-09T08:58:23Z</time>
      </trkpt>
      <trkpt lat="44.98907" lon="5.51593">
        <ele>1503.1586914062</ele>
        <time>2011-07-09T08:58:29Z</time>
      </trkpt>
      <trkpt lat="44.98907" lon="5.51594">
        <ele>1501.2360839844</ele>
        <time>2011-07-09T08:58:43Z</time>
      </trkpt>
      <trkpt lat="44.98906" lon="5.51593">
        <ele>1499.3132324219</ele>
        <time>2011-07-09T08:58:53Z</time>
      </trkpt>
      <trkpt lat="44.98907" lon="5.51593">
        <ele>1496.9099121094</ele>
        <time>2011-07-09T08:59:18Z</time>
      </trkpt>
      <trkpt lat="44.98908" lon="5.51592">
        <ele>1499.3132324219</ele>
        <time>2011-07-09T08:59:30Z</time>
      </trkpt>
      <trkpt lat="44.98907" lon="5.51589">
        <ele>1497.8713378906</ele>
        <time>2011-07-09T08:59:41Z</time>
      </trkpt>
      <trkpt lat="44.98907" lon="5.5159">
        <ele>1497.390625</ele>
        <time>2011-07-09T09:00:05Z</time>
      </trkpt>
      <trkpt lat="44.98908" lon="5.51592">
        <ele>1496.9099121094</ele>
        <time>2011-07-09T09:00:22Z</time>
      </trkpt>
      <trkpt lat="44.98909" lon="5.51592">
        <ele>1493.5454101562</ele>
        <time>2011-07-09T09:00:39Z</time>
      </trkpt>
      <trkpt lat="44.98909" lon="5.51592">
        <ele>1492.5842285156</ele>
        <time>2011-07-09T09:00:56Z</time>
      </trkpt>
      <trkpt lat="44.9891" lon="5.51591">
        <ele>1492.5842285156</ele>
        <time>2011-07-09T09:01:13Z</time>
      </trkpt>
      <trkpt lat="44.98911" lon="5.51593">
        <ele>1494.5065917969</ele>
        <time>2011-07-09T09:01:36Z</time>
      </trkpt>
      <trkpt lat="44.98912" lon="5.51592">
        <ele>1494.9873046875</ele>
        <time>2011-07-09T09:01:45Z</time>
      </trkpt>
      <trkpt lat="44.98914" lon="5.51591">
        <ele>1495.9487304688</ele>
        <time>2011-07-09T09:02:06Z</time>
      </trkpt>
      <trkpt lat="44.98913" lon="5.51592">
        <ele>1496.4294433594</ele>
        <time>2011-07-09T09:02:28Z</time>
      </trkpt>
      <trkpt lat="44.98912" lon="5.51593">
        <ele>1497.390625</ele>
        <time>2011-07-09T09:02:38Z</time>
      </trkpt>
      <trkpt lat="44.98912" lon="5.51593">
        <ele>1497.8713378906</ele>
        <time>2011-07-09T09:02:45Z</time>
      </trkpt>
      <trkpt lat="44.98911" lon="5.51593">
        <ele>1498.8325195312</ele>
        <time>2011-07-09T09:02:54Z</time>
      </trkpt>
      <trkpt lat="44.98911" lon="5.51592">
        <ele>1500.7553710938</ele>
        <time>2011-07-09T09:03:01Z</time>
      </trkpt>
      <trkpt lat="44.98907" lon="5.51589">
        <ele>1504.1201171875</ele>
        <time>2011-07-09T09:03:37Z</time>
      </trkpt>
      <trkpt lat="44.98909" lon="5.51591">
        <ele>1503.1586914062</ele>
        <time>2011-07-09T09:04:02Z</time>
      </trkpt>
      <trkpt lat="44.98909" lon="5.51593">
        <ele>1503.6394042969</ele>
        <time>2011-07-09T09:04:22Z</time>
      </trkpt>
      <trkpt lat="44.98909" lon="5.51594">
        <ele>1501.2360839844</ele>
        <time>2011-07-09T09:04:37Z</time>
      </trkpt>
      <trkpt lat="44.98909" lon="5.51595">
        <ele>1498.8325195312</ele>
        <time>2011-07-09T09:04:45Z</time>
      </trkpt>
      <trkpt lat="44.98909" lon="5.51595">
        <ele>1497.390625</ele>
        <time>2011-07-09T09:04:57Z</time>
      </trkpt>
      <trkpt lat="44.9891" lon="5.51596">
        <ele>1497.390625</ele>
        <time>2011-07-09T09:05:07Z</time>
      </trkpt>
      <trkpt lat="44.98911" lon="5.51598">
        <ele>1496.9099121094</ele>
        <time>2011-07-09T09:05:18Z</time>
      </trkpt>
      <trkpt lat="44.98918" lon="5.51603">
        <ele>1495.9487304688</ele>
        <time>2011-07-09T09:05:22Z</time>
      </trkpt>
      <trkpt lat="44.98923" lon="5.51605">
        <ele>1494.5065917969</ele>
        <time>2011-07-09T09:05:25Z</time>
      </trkpt>
      <trkpt lat="44.98932" lon="5.51607">
        <ele>1492.103515625</ele>
        <time>2011-07-09T09:05:30Z</time>
      </trkpt>
      <trkpt lat="44.98938" lon="5.51606">
        <ele>1490.6613769531</ele>
        <time>2011-07-09T09:05:33Z</time>
      </trkpt>
      <trkpt lat="44.98944" lon="5.51605">
        <ele>1490.1809082031</ele>
        <time>2011-07-09T09:05:35Z</time>
      </trkpt>
      <trkpt lat="44.98955" lon="5.51611">
        <ele>1489.2194824219</ele>
        <time>2011-07-09T09:05:40Z</time>
      </trkpt>
      <trkpt lat="44.98962" lon="5.51619">
        <ele>1487.296875</ele>
        <time>2011-07-09T09:05:44Z</time>
      </trkpt>
      <trkpt lat="44.98974" lon="5.5163">
        <ele>1487.296875</ele>
        <time>2011-07-09T09:05:49Z</time>
      </trkpt>
      <trkpt lat="44.98985" lon="5.51636">
        <ele>1485.3742675781</ele>
        <time>2011-07-09T09:05:53Z</time>
      </trkpt>
      <trkpt lat="44.98985" lon="5.51636">
        <ele>1485.3742675781</ele>
        <time>2011-07-09T09:05:53Z</time>
      </trkpt>
      <trkpt lat="44.98988" lon="5.51636">
        <ele>1485.3742675781</ele>
        <time>2011-07-09T09:05:54Z</time>
      </trkpt>
      <trkpt lat="44.98999" lon="5.51638">
        <ele>1485.8549804688</ele>
        <time>2011-07-09T09:05:58Z</time>
      </trkpt>
      <trkpt lat="44.99012" lon="5.5164">
        <ele>1486.8161621094</ele>
        <time>2011-07-09T09:06:03Z</time>
      </trkpt>
      <trkpt lat="44.99019" lon="5.51643">
        <ele>1486.3356933594</ele>
        <time>2011-07-09T09:06:06Z</time>
      </trkpt>
      <trkpt lat="44.99025" lon="5.51649">
        <ele>1485.8549804688</ele>
        <time>2011-07-09T09:06:09Z</time>
      </trkpt>
      <trkpt lat="44.99037" lon="5.51654">
        <ele>1484.8937988281</ele>
        <time>2011-07-09T09:06:14Z</time>
      </trkpt>
      <trkpt lat="44.99052" lon="5.51658">
        <ele>1485.3742675781</ele>
        <time>2011-07-09T09:06:20Z</time>
      </trkpt>
      <trkpt lat="44.99055" lon="5.51658">
        <ele>1485.8549804688</ele>
        <time>2011-07-09T09:06:21Z</time>
      </trkpt>
      <trkpt lat="44.9907" lon="5.51646">
        <ele>1485.8549804688</ele>
        <time>2011-07-09T09:06:28Z</time>
      </trkpt>
      <trkpt lat="44.99085" lon="5.51637">
        <ele>1483.4514160156</ele>
        <time>2011-07-09T09:06:34Z</time>
      </trkpt>
      <trkpt lat="44.99095" lon="5.51632">
        <ele>1482.490234375</ele>
        <time>2011-07-09T09:06:38Z</time>
      </trkpt>
      <trkpt lat="44.991" lon="5.51619">
        <ele>1479.1254882812</ele>
        <time>2011-07-09T09:06:44Z</time>
      </trkpt>
      <trkpt lat="44.99102" lon="5.51617">
        <ele>1477.68359375</ele>
        <time>2011-07-09T09:06:48Z</time>
      </trkpt>
      <trkpt lat="44.99118" lon="5.51609">
        <ele>1475.2802734375</ele>
        <time>2011-07-09T09:06:54Z</time>
      </trkpt>
      <trkpt lat="44.99128" lon="5.51602">
        <ele>1474.7998046875</ele>
        <time>2011-07-09T09:06:58Z</time>
      </trkpt>
      <trkpt lat="44.99141" lon="5.51599">
        <ele>1471.9157714844</ele>
        <time>2011-07-09T09:07:02Z</time>
      </trkpt>
      <trkpt lat="44.99159" lon="5.51603">
        <ele>1469.0319824219</ele>
        <time>2011-07-09T09:07:07Z</time>
      </trkpt>
      <trkpt lat="44.99173" lon="5.51609">
        <ele>1464.7058105469</ele>
        <time>2011-07-09T09:07:12Z</time>
      </trkpt>
      <trkpt lat="44.9919" lon="5.51617">
        <ele>1459.8991699219</ele>
        <time>2011-07-09T09:07:18Z</time>
      </trkpt>
      <trkpt lat="44.99206" lon="5.51617">
        <ele>1456.0539550781</ele>
        <time>2011-07-09T09:07:23Z</time>
      </trkpt>
      <trkpt lat="44.9921" lon="5.51618">
        <ele>1455.0927734375</ele>
        <time>2011-07-09T09:07:24Z</time>
      </trkpt>
      <trkpt lat="44.99226" lon="5.51624">
        <ele>1452.2087402344</ele>
        <time>2011-07-09T09:07:29Z</time>
      </trkpt>
      <trkpt lat="44.99243" lon="5.51632">
        <ele>1451.2473144531</ele>
        <time>2011-07-09T09:07:34Z</time>
      </trkpt>
      <trkpt lat="44.99259" lon="5.51638">
        <ele>1449.8054199219</ele>
        <time>2011-07-09T09:07:39Z</time>
      </trkpt>
      <trkpt lat="44.99271" lon="5.51633">
        <ele>1448.36328125</ele>
        <time>2011-07-09T09:07:43Z</time>
      </trkpt>
      <trkpt lat="44.99284" lon="5.51628">
        <ele>1447.4020996094</ele>
        <time>2011-07-09T09:07:48Z</time>
      </trkpt>
      <trkpt lat="44.99298" lon="5.51624">
        <ele>1446.9213867188</ele>
        <time>2011-07-09T09:07:52Z</time>
      </trkpt>
      <trkpt lat="44.99313" lon="5.51621">
        <ele>1449.3247070312</ele>
        <time>2011-07-09T09:07:57Z</time>
      </trkpt>
      <trkpt lat="44.99322" lon="5.51619">
        <ele>1448.36328125</ele>
        <time>2011-07-09T09:08:00Z</time>
      </trkpt>
      <trkpt lat="44.99338" lon="5.51625">
        <ele>1444.5180664062</ele>
        <time>2011-07-09T09:08:05Z</time>
      </trkpt>
      <trkpt lat="44.99358" lon="5.51631">
        <ele>1441.1535644531</ele>
        <time>2011-07-09T09:08:10Z</time>
      </trkpt>
      <trkpt lat="44.99378" lon="5.51631">
        <ele>1439.7116699219</ele>
        <time>2011-07-09T09:08:15Z</time>
      </trkpt>
      <trkpt lat="44.99392" lon="5.51627">
        <ele>1437.7890625</ele>
        <time>2011-07-09T09:08:20Z</time>
      </trkpt>
      <trkpt lat="44.99407" lon="5.51623">
        <ele>1436.8276367188</ele>
        <time>2011-07-09T09:08:25Z</time>
      </trkpt>
      <trkpt lat="44.9942" lon="5.51621">
        <ele>1435.8662109375</ele>
        <time>2011-07-09T09:08:30Z</time>
      </trkpt>
      <trkpt lat="44.99437" lon="5.5162">
        <ele>1432.5017089844</ele>
        <time>2011-07-09T09:08:34Z</time>
      </trkpt>
      <trkpt lat="44.99452" lon="5.51631">
        <ele>1429.1369628906</ele>
        <time>2011-07-09T09:08:39Z</time>
      </trkpt>
      <trkpt lat="44.99461" lon="5.51645">
        <ele>1425.7724609375</ele>
        <time>2011-07-09T09:08:44Z</time>
      </trkpt>
      <trkpt lat="44.99474" lon="5.51652">
        <ele>1424.3305664062</ele>
        <time>2011-07-09T09:08:48Z</time>
      </trkpt>
      <trkpt lat="44.99487" lon="5.51653">
        <ele>1422.4079589844</ele>
        <time>2011-07-09T09:08:52Z</time>
      </trkpt>
      <trkpt lat="44.9949" lon="5.51653">
        <ele>1422.4079589844</ele>
        <time>2011-07-09T09:08:53Z</time>
      </trkpt>
      <trkpt lat="44.99507" lon="5.51659">
        <ele>1419.0432128906</ele>
        <time>2011-07-09T09:08:58Z</time>
      </trkpt>
      <trkpt lat="44.99524" lon="5.51665">
        <ele>1417.1206054688</ele>
        <time>2011-07-09T09:09:03Z</time>
      </trkpt>
      <trkpt lat="44.99535" lon="5.51666">
        <ele>1419.5239257812</ele>
        <time>2011-07-09T09:09:08Z</time>
      </trkpt>
      <trkpt lat="44.99546" lon="5.51671">
        <ele>1419.0432128906</ele>
        <time>2011-07-09T09:09:13Z</time>
      </trkpt>
      <trkpt lat="44.99558" lon="5.51675">
        <ele>1417.6010742188</ele>
        <time>2011-07-09T09:09:17Z</time>
      </trkpt>
      <trkpt lat="44.99572" lon="5.51673">
        <ele>1418.5625</ele>
        <time>2011-07-09T09:09:22Z</time>
      </trkpt>
      <trkpt lat="44.99579" lon="5.51669">
        <ele>1419.5239257812</ele>
        <time>2011-07-09T09:09:24Z</time>
      </trkpt>
      <trkpt lat="44.99595" lon="5.51665">
        <ele>1422.4079589844</ele>
        <time>2011-07-09T09:09:30Z</time>
      </trkpt>
      <trkpt lat="44.99609" lon="5.51663">
        <ele>1427.2145996094</ele>
        <time>2011-07-09T09:09:35Z</time>
      </trkpt>
      <trkpt lat="44.9962" lon="5.51659">
        <ele>1430.0983886719</ele>
        <time>2011-07-09T09:09:40Z</time>
      </trkpt>
      <trkpt lat="44.9963" lon="5.51655">
        <ele>1430.0983886719</ele>
        <time>2011-07-09T09:09:44Z</time>
      </trkpt>
      <trkpt lat="44.99644" lon="5.51648">
        <ele>1432.0209960938</ele>
        <time>2011-07-09T09:09:49Z</time>
      </trkpt>
      <trkpt lat="44.99654" lon="5.51642">
        <ele>1434.4243164062</ele>
        <time>2011-07-09T09:09:53Z</time>
      </trkpt>
      <trkpt lat="44.99665" lon="5.5164">
        <ele>1438.2697753906</ele>
        <time>2011-07-09T09:09:57Z</time>
      </trkpt>
      <trkpt lat="44.9968" lon="5.51655">
        <ele>1431.0598144531</ele>
        <time>2011-07-09T09:10:02Z</time>
      </trkpt>
      <trkpt lat="44.99689" lon="5.51658">
        <ele>1429.6176757812</ele>
        <time>2011-07-09T09:10:06Z</time>
      </trkpt>
      <trkpt lat="44.99703" lon="5.51663">
        <ele>1424.8112792969</ele>
        <time>2011-07-09T09:10:11Z</time>
      </trkpt>
      <trkpt lat="44.99717" lon="5.51668">
        <ele>1420.9660644531</ele>
        <time>2011-07-09T09:10:15Z</time>
      </trkpt>
      <trkpt lat="44.99734" lon="5.51671">
        <ele>1417.6010742188</ele>
        <time>2011-07-09T09:10:19Z</time>
      </trkpt>
      <trkpt lat="44.99748" lon="5.51675">
        <ele>1413.755859375</ele>
        <time>2011-07-09T09:10:23Z</time>
      </trkpt>
      <trkpt lat="44.99751" lon="5.51675">
        <ele>1412.7946777344</ele>
        <time>2011-07-09T09:10:24Z</time>
      </trkpt>
      <trkpt lat="44.9977" lon="5.5168">
        <ele>1406.0654296875</ele>
        <time>2011-07-09T09:10:30Z</time>
      </trkpt>
      <trkpt lat="44.99773" lon="5.51682">
        <ele>1405.1042480469</ele>
        <time>2011-07-09T09:10:31Z</time>
      </trkpt>
      <trkpt lat="44.99787" lon="5.51686">
        <ele>1400.2976074219</ele>
        <time>2011-07-09T09:10:35Z</time>
      </trkpt>
      <trkpt lat="44.998" lon="5.51698">
        <ele>1394.5295410156</ele>
        <time>2011-07-09T09:10:40Z</time>
      </trkpt>
      <trkpt lat="44.99819" lon="5.51709">
        <ele>1389.2424316406</ele>
        <time>2011-07-09T09:10:46Z</time>
      </trkpt>
      <trkpt lat="44.99832" lon="5.51711">
        <ele>1386.3583984375</ele>
        <time>2011-07-09T09:10:50Z</time>
      </trkpt>
      <trkpt lat="44.99838" lon="5.51712">
        <ele>1384.4357910156</ele>
        <time>2011-07-09T09:10:52Z</time>
      </trkpt>
      <trkpt lat="44.99841" lon="5.51712">
        <ele>1383.955078125</ele>
        <time>2011-07-09T09:10:53Z</time>
      </trkpt>
      <trkpt lat="44.99841" lon="5.51712">
        <ele>1383.955078125</ele>
        <time>2011-07-09T09:10:53Z</time>
      </trkpt>
      <trkpt lat="44.99845" lon="5.5171">
        <ele>1383.4743652344</ele>
        <time>2011-07-09T09:10:55Z</time>
      </trkpt>
      <trkpt lat="44.99857" lon="5.51713">
        <ele>1380.1098632812</ele>
        <time>2011-07-09T09:10:59Z</time>
      </trkpt>
      <trkpt lat="44.99873" lon="5.51718">
        <ele>1378.66796875</ele>
        <time>2011-07-09T09:11:04Z</time>
      </trkpt>
      <trkpt lat="44.99888" lon="5.51721">
        <ele>1374.3420410156</ele>
        <time>2011-07-09T09:11:09Z</time>
      </trkpt>
      <trkpt lat="44.99901" lon="5.51723">
        <ele>1372.4194335938</ele>
        <time>2011-07-09T09:11:13Z</time>
      </trkpt>
      <trkpt lat="44.99913" lon="5.51721">
        <ele>1371.9384765625</ele>
        <time>2011-07-09T09:11:17Z</time>
      </trkpt>
      <trkpt lat="44.9993" lon="5.51712">
        <ele>1374.3420410156</ele>
        <time>2011-07-09T09:11:23Z</time>
      </trkpt>
      <trkpt lat="44.99949" lon="5.51709">
        <ele>1374.3420410156</ele>
        <time>2011-07-09T09:11:28Z</time>
      </trkpt>
      <trkpt lat="44.99957" lon="5.51711">
        <ele>1372.4194335938</ele>
        <time>2011-07-09T09:11:31Z</time>
      </trkpt>
      <trkpt lat="44.9997" lon="5.51718">
        <ele>1369.0546875</ele>
        <time>2011-07-09T09:11:36Z</time>
      </trkpt>
      <trkpt lat="44.99983" lon="5.51723">
        <ele>1367.6125488281</ele>
        <time>2011-07-09T09:11:40Z</time>
      </trkpt>
      <trkpt lat="44.99996" lon="5.51723">
        <ele>1366.6513671875</ele>
        <time>2011-07-09T09:11:44Z</time>
      </trkpt>
      <trkpt lat="45.0001" lon="5.51717">
        <ele>1369.5354003906</ele>
        <time>2011-07-09T09:11:49Z</time>
      </trkpt>
      <trkpt lat="45.00022" lon="5.51714">
        <ele>1370.9772949219</ele>
        <time>2011-07-09T09:11:54Z</time>
      </trkpt>
      <trkpt lat="45.00034" lon="5.51718">
        <ele>1368.5739746094</ele>
        <time>2011-07-09T09:11:59Z</time>
      </trkpt>
      <trkpt lat="45.00048" lon="5.51711">
        <ele>1369.0546875</ele>
        <time>2011-07-09T09:12:04Z</time>
      </trkpt>
      <trkpt lat="45.0006" lon="5.51701">
        <ele>1370.0158691406</ele>
        <time>2011-07-09T09:12:08Z</time>
      </trkpt>
      <trkpt lat="45.00078" lon="5.51698">
        <ele>1365.2094726562</ele>
        <time>2011-07-09T09:12:13Z</time>
      </trkpt>
      <trkpt lat="45.00081" lon="5.51698">
        <ele>1363.7673339844</ele>
        <time>2011-07-09T09:12:14Z</time>
      </trkpt>
      <trkpt lat="45.001" lon="5.51692">
        <ele>1358.9609375</ele>
        <time>2011-07-09T09:12:20Z</time>
      </trkpt>
      <trkpt lat="45.00122" lon="5.51679">
        <ele>1355.1154785156</ele>
        <time>2011-07-09T09:12:25Z</time>
      </trkpt>
      <trkpt lat="45.00135" lon="5.51675">
        <ele>1352.7121582031</ele>
        <time>2011-07-09T09:12:28Z</time>
      </trkpt>
      <trkpt lat="45.00155" lon="5.5167">
        <ele>1350.7895507812</ele>
        <time>2011-07-09T09:12:34Z</time>
      </trkpt>
      <trkpt lat="45.00169" lon="5.51662">
        <ele>1349.8283691406</ele>
        <time>2011-07-09T09:12:38Z</time>
      </trkpt>
      <trkpt lat="45.00188" lon="5.5165">
        <ele>1348.8669433594</ele>
        <time>2011-07-09T09:12:43Z</time>
      </trkpt>
      <trkpt lat="45.00206" lon="5.51646">
        <ele>1347.9057617188</ele>
        <time>2011-07-09T09:12:48Z</time>
      </trkpt>
      <trkpt lat="45.00224" lon="5.51645">
        <ele>1346.4638671875</ele>
        <time>2011-07-09T09:12:53Z</time>
      </trkpt>
      <trkpt lat="45.00231" lon="5.51644">
        <ele>1345.5024414062</ele>
        <time>2011-07-09T09:12:55Z</time>
      </trkpt>
      <trkpt lat="45.00243" lon="5.51651">
        <ele>1345.0217285156</ele>
        <time>2011-07-09T09:12:59Z</time>
      </trkpt>
      <trkpt lat="45.00254" lon="5.51656">
        <ele>1345.5024414062</ele>
        <time>2011-07-09T09:13:03Z</time>
      </trkpt>
      <trkpt lat="45.00267" lon="5.51655">
        <ele>1346.4638671875</ele>
        <time>2011-07-09T09:13:07Z</time>
      </trkpt>
      <trkpt lat="45.00284" lon="5.51651">
        <ele>1345.9831542969</ele>
        <time>2011-07-09T09:13:12Z</time>
      </trkpt>
      <trkpt lat="45.00299" lon="5.51647">
        <ele>1346.4638671875</ele>
        <time>2011-07-09T09:13:16Z</time>
      </trkpt>
      <trkpt lat="45.00312" lon="5.51647">
        <ele>1345.9831542969</ele>
        <time>2011-07-09T09:13:20Z</time>
      </trkpt>
      <trkpt lat="45.00322" lon="5.51652">
        <ele>1342.6186523438</ele>
        <time>2011-07-09T09:13:24Z</time>
      </trkpt>
      <trkpt lat="45.00323" lon="5.51654">
        <ele>1339.734375</ele>
        <time>2011-07-09T09:13:25Z</time>
      </trkpt>
      <trkpt lat="45.0033" lon="5.51655">
        <ele>1339.2536621094</ele>
        <time>2011-07-09T09:13:30Z</time>
      </trkpt>
      <trkpt lat="45.00334" lon="5.51658">
        <ele>1336.3698730469</ele>
        <time>2011-07-09T09:13:35Z</time>
      </trkpt>
      <trkpt lat="45.00341" lon="5.51664">
        <ele>1331.0827636719</ele>
        <time>2011-07-09T09:13:42Z</time>
      </trkpt>
      <trkpt lat="45.00354" lon="5.51665">
        <ele>1336.3698730469</ele>
        <time>2011-07-09T09:13:57Z</time>
      </trkpt>
      <trkpt lat="45.00355" lon="5.51665">
        <ele>1338.2924804688</ele>
        <time>2011-07-09T09:14:14Z</time>
      </trkpt>
      <trkpt lat="45.00344" lon="5.51667">
        <ele>1332.5246582031</ele>
        <time>2011-07-09T09:14:36Z</time>
      </trkpt>
      <trkpt lat="45.0034" lon="5.5167">
        <ele>1310.4143066406</ele>
        <time>2011-07-09T09:15:07Z</time>
      </trkpt>
      <trkpt lat="45.00342" lon="5.51665">
        <ele>1320.9887695312</ele>
        <time>2011-07-09T09:15:28Z</time>
      </trkpt>
      <trkpt lat="45.00347" lon="5.51664">
        <ele>1325.7954101562</ele>
        <time>2011-07-09T09:15:58Z</time>
      </trkpt>
      <trkpt lat="45.00343" lon="5.51666">
        <ele>1318.1047363281</ele>
        <time>2011-07-09T09:16:33Z</time>
      </trkpt>
      <trkpt lat="45.00345" lon="5.5166">
        <ele>1343.0991210938</ele>
        <time>2011-07-09T09:17:10Z</time>
      </trkpt>
      <trkpt lat="45.00343" lon="5.51661">
        <ele>1344.060546875</ele>
        <time>2011-07-09T09:17:27Z</time>
      </trkpt>
      <trkpt lat="45.00344" lon="5.51663">
        <ele>1336.3698730469</ele>
        <time>2011-07-09T09:18:12Z</time>
      </trkpt>
      <trkpt lat="45.00346" lon="5.51664">
        <ele>1334.9279785156</ele>
        <time>2011-07-09T09:18:14Z</time>
      </trkpt>
      <trkpt lat="45.00351" lon="5.51663">
        <ele>1335.4084472656</ele>
        <time>2011-07-09T09:18:21Z</time>
      </trkpt>
      <trkpt lat="45.0036" lon="5.5166">
        <ele>1332.5246582031</ele>
        <time>2011-07-09T09:18:26Z</time>
      </trkpt>
      <trkpt lat="45.00368" lon="5.51657">
        <ele>1332.0439453125</ele>
        <time>2011-07-09T09:18:31Z</time>
      </trkpt>
      <trkpt lat="45.00378" lon="5.51656">
        <ele>1331.0827636719</ele>
        <time>2011-07-09T09:18:36Z</time>
      </trkpt>
      <trkpt lat="45.00391" lon="5.51657">
        <ele>1331.0827636719</ele>
        <time>2011-07-09T09:18:41Z</time>
      </trkpt>
      <trkpt lat="45.004" lon="5.51658">
        <ele>1330.6020507812</ele>
        <time>2011-07-09T09:18:45Z</time>
      </trkpt>
      <trkpt lat="45.00413" lon="5.51663">
        <ele>1332.5246582031</ele>
        <time>2011-07-09T09:18:50Z</time>
      </trkpt>
      <trkpt lat="45.00426" lon="5.51669">
        <ele>1331.5632324219</ele>
        <time>2011-07-09T09:18:55Z</time>
      </trkpt>
      <trkpt lat="45.0044" lon="5.51671">
        <ele>1328.6794433594</ele>
        <time>2011-07-09T09:19:01Z</time>
      </trkpt>
      <trkpt lat="45.0045" lon="5.51674">
        <ele>1322.9113769531</ele>
        <time>2011-07-09T09:19:05Z</time>
      </trkpt>
      <trkpt lat="45.00459" lon="5.51673">
        <ele>1322.4306640625</ele>
        <time>2011-07-09T09:19:09Z</time>
      </trkpt>
      <trkpt lat="45.00471" lon="5.51671">
        <ele>1321.9499511719</ele>
        <time>2011-07-09T09:19:14Z</time>
      </trkpt>
      <trkpt lat="45.00484" lon="5.51678">
        <ele>1312.3369140625</ele>
        <time>2011-07-09T09:19:19Z</time>
      </trkpt>
      <trkpt lat="45.00499" lon="5.51681">
        <ele>1311.8564453125</ele>
        <time>2011-07-09T09:19:24Z</time>
      </trkpt>
      <trkpt lat="45.00511" lon="5.51685">
        <ele>1310.4143066406</ele>
        <time>2011-07-09T09:19:29Z</time>
      </trkpt>
      <trkpt lat="45.00519" lon="5.51689">
        <ele>1310.4143066406</ele>
        <time>2011-07-09T09:19:31Z</time>
      </trkpt>
      <trkpt lat="45.00541" lon="5.51702">
        <ele>1303.2043457031</ele>
        <time>2011-07-09T09:19:37Z</time>
      </trkpt>
      <trkpt lat="45.00554" lon="5.51708">
        <ele>1302.7236328125</ele>
        <time>2011-07-09T09:19:41Z</time>
      </trkpt>
      <trkpt lat="45.00568" lon="5.51713">
        <ele>1299.3591308594</ele>
        <time>2011-07-09T09:19:46Z</time>
      </trkpt>
      <trkpt lat="45.00579" lon="5.5172">
        <ele>1298.8784179688</ele>
        <time>2011-07-09T09:19:50Z</time>
      </trkpt>
      <trkpt lat="45.00591" lon="5.51724">
        <ele>1298.8784179688</ele>
        <time>2011-07-09T09:19:54Z</time>
      </trkpt>
      <trkpt lat="45.00608" lon="5.51737">
        <ele>1290.2265625</ele>
        <time>2011-07-09T09:20:00Z</time>
      </trkpt>
      <trkpt lat="45.00622" lon="5.51746">
        <ele>1286.3813476562</ele>
        <time>2011-07-09T09:20:05Z</time>
      </trkpt>
      <trkpt lat="45.00625" lon="5.51765">
        <ele>1284.4587402344</ele>
        <time>2011-07-09T09:20:10Z</time>
      </trkpt>
      <trkpt lat="45.00621" lon="5.51782">
        <ele>1280.1328125</ele>
        <time>2011-07-09T09:20:16Z</time>
      </trkpt>
      <trkpt lat="45.00621" lon="5.51809">
        <ele>1271.4807128906</ele>
        <time>2011-07-09T09:20:22Z</time>
      </trkpt>
      <trkpt lat="45.00621" lon="5.51813">
        <ele>1270.0388183594</ele>
        <time>2011-07-09T09:20:23Z</time>
      </trkpt>
      <trkpt lat="45.00621" lon="5.51841">
        <ele>1264.2709960938</ele>
        <time>2011-07-09T09:20:28Z</time>
      </trkpt>
      <trkpt lat="45.00629" lon="5.51861">
        <ele>1259.9448242188</ele>
        <time>2011-07-09T09:20:33Z</time>
      </trkpt>
      <trkpt lat="45.00631" lon="5.51864">
        <ele>1258.9836425781</ele>
        <time>2011-07-09T09:20:34Z</time>
      </trkpt>
      <trkpt lat="45.00631" lon="5.51864">
        <ele>1258.9836425781</ele>
        <time>2011-07-09T09:20:34Z</time>
      </trkpt>
      <trkpt lat="45.00645" lon="5.51871">
        <ele>1263.3098144531</ele>
        <time>2011-07-09T09:20:37Z</time>
      </trkpt>
      <trkpt lat="45.00653" lon="5.51877">
        <ele>1265.7131347656</ele>
        <time>2011-07-09T09:20:39Z</time>
      </trkpt>
      <trkpt lat="45.0067" lon="5.51886">
        <ele>1267.6354980469</ele>
        <time>2011-07-09T09:20:43Z</time>
      </trkpt>
      <trkpt lat="45.00697" lon="5.51899">
        <ele>1267.6354980469</ele>
        <time>2011-07-09T09:20:50Z</time>
      </trkpt>
      <trkpt lat="45.00713" lon="5.51903">
        <ele>1266.6743164062</ele>
        <time>2011-07-09T09:20:55Z</time>
      </trkpt>
      <trkpt lat="45.00725" lon="5.51896">
        <ele>1271.4807128906</ele>
        <time>2011-07-09T09:21:00Z</time>
      </trkpt>
      <trkpt lat="45.00737" lon="5.51889">
        <ele>1270.0388183594</ele>
        <time>2011-07-09T09:21:04Z</time>
      </trkpt>
      <trkpt lat="45.00753" lon="5.51879">
        <ele>1269.5583496094</ele>
        <time>2011-07-09T09:21:09Z</time>
      </trkpt>
      <trkpt lat="45.00764" lon="5.5188">
        <ele>1268.1162109375</ele>
        <time>2011-07-09T09:21:13Z</time>
      </trkpt>
      <trkpt lat="45.00778" lon="5.51887">
        <ele>1266.1936035156</ele>
        <time>2011-07-09T09:21:17Z</time>
      </trkpt>
      <trkpt lat="45.0079" lon="5.51891">
        <ele>1265.7131347656</ele>
        <time>2011-07-09T09:21:21Z</time>
      </trkpt>
      <trkpt lat="45.00801" lon="5.51901">
        <ele>1263.7902832031</ele>
        <time>2011-07-09T09:21:25Z</time>
      </trkpt>
      <trkpt lat="45.00809" lon="5.51911">
        <ele>1260.42578125</ele>
        <time>2011-07-09T09:21:29Z</time>
      </trkpt>
      <trkpt lat="45.00818" lon="5.51917">
        <ele>1260.42578125</ele>
        <time>2011-07-09T09:21:33Z</time>
      </trkpt>
      <trkpt lat="45.0083" lon="5.51934">
        <ele>1257.5417480469</ele>
        <time>2011-07-09T09:21:39Z</time>
      </trkpt>
      <trkpt lat="45.0084" lon="5.51944">
        <ele>1257.0610351562</ele>
        <time>2011-07-09T09:21:43Z</time>
      </trkpt>
      <trkpt lat="45.00857" lon="5.51947">
        <ele>1261.3872070312</ele>
        <time>2011-07-09T09:21:48Z</time>
      </trkpt>
      <trkpt lat="45.00875" lon="5.51947">
        <ele>1264.2709960938</ele>
        <time>2011-07-09T09:21:53Z</time>
      </trkpt>
      <trkpt lat="45.00888" lon="5.51957">
        <ele>1265.7131347656</ele>
        <time>2011-07-09T09:21:58Z</time>
      </trkpt>
      <trkpt lat="45.00895" lon="5.51967">
        <ele>1261.3872070312</ele>
        <time>2011-07-09T09:22:01Z</time>
      </trkpt>
      <trkpt lat="45.00904" lon="5.51984">
        <ele>1258.0224609375</ele>
        <time>2011-07-09T09:22:06Z</time>
      </trkpt>
      <trkpt lat="45.0091" lon="5.51994">
        <ele>1255.1384277344</ele>
        <time>2011-07-09T09:22:09Z</time>
      </trkpt>
      <trkpt lat="45.00924" lon="5.52014">
        <ele>1251.2932128906</ele>
        <time>2011-07-09T09:22:16Z</time>
      </trkpt>
      <trkpt lat="45.00942" lon="5.52022">
        <ele>1252.2543945312</ele>
        <time>2011-07-09T09:22:21Z</time>
      </trkpt>
      <trkpt lat="45.00954" lon="5.5202">
        <ele>1253.2158203125</ele>
        <time>2011-07-09T09:22:25Z</time>
      </trkpt>
      <trkpt lat="45.00972" lon="5.5201">
        <ele>1252.7351074219</ele>
        <time>2011-07-09T09:22:30Z</time>
      </trkpt>
      <trkpt lat="45.00984" lon="5.52004">
        <ele>1251.2932128906</ele>
        <time>2011-07-09T09:22:34Z</time>
      </trkpt>
      <trkpt lat="45.00996" lon="5.51997">
        <ele>1250.33203125</ele>
        <time>2011-07-09T09:22:38Z</time>
      </trkpt>
      <trkpt lat="45.01008" lon="5.51985">
        <ele>1249.8513183594</ele>
        <time>2011-07-09T09:22:42Z</time>
      </trkpt>
      <trkpt lat="45.01019" lon="5.51963">
        <ele>1251.7739257812</ele>
        <time>2011-07-09T09:22:47Z</time>
      </trkpt>
      <trkpt lat="45.01028" lon="5.51951">
        <ele>1250.8125</ele>
        <time>2011-07-09T09:22:51Z</time>
      </trkpt>
      <trkpt lat="45.01038" lon="5.51933">
        <ele>1254.1772460938</ele>
        <time>2011-07-09T09:22:55Z</time>
      </trkpt>
      <trkpt lat="45.01051" lon="5.5192">
        <ele>1256.5803222656</ele>
        <time>2011-07-09T09:22:59Z</time>
      </trkpt>
      <trkpt lat="45.01063" lon="5.51915">
        <ele>1256.5803222656</ele>
        <time>2011-07-09T09:23:03Z</time>
      </trkpt>
      <trkpt lat="45.01078" lon="5.51913">
        <ele>1254.1772460938</ele>
        <time>2011-07-09T09:23:08Z</time>
      </trkpt>
      <trkpt lat="45.01088" lon="5.51914">
        <ele>1253.2158203125</ele>
        <time>2011-07-09T09:23:12Z</time>
      </trkpt>
      <trkpt lat="45.01101" lon="5.51915">
        <ele>1251.7739257812</ele>
        <time>2011-07-09T09:23:17Z</time>
      </trkpt>
      <trkpt lat="45.01112" lon="5.51911">
        <ele>1251.7739257812</ele>
        <time>2011-07-09T09:23:22Z</time>
      </trkpt>
      <trkpt lat="45.01115" lon="5.51908">
        <ele>1252.7351074219</ele>
        <time>2011-07-09T09:23:23Z</time>
      </trkpt>
      <trkpt lat="45.01138" lon="5.51897">
        <ele>1254.6577148438</ele>
        <time>2011-07-09T09:23:29Z</time>
      </trkpt>
      <trkpt lat="45.01154" lon="5.51889">
        <ele>1255.1384277344</ele>
        <time>2011-07-09T09:23:34Z</time>
      </trkpt>
      <trkpt lat="45.0117" lon="5.51884">
        <ele>1251.7739257812</ele>
        <time>2011-07-09T09:23:39Z</time>
      </trkpt>
      <trkpt lat="45.01184" lon="5.51887">
        <ele>1242.1606445312</ele>
        <time>2011-07-09T09:23:43Z</time>
      </trkpt>
      <trkpt lat="45.01199" lon="5.51886">
        <ele>1237.3540039062</ele>
        <time>2011-07-09T09:23:48Z</time>
      </trkpt>
      <trkpt lat="45.0121" lon="5.51887">
        <ele>1234.9509277344</ele>
        <time>2011-07-09T09:23:52Z</time>
      </trkpt>
      <trkpt lat="45.01226" lon="5.51885">
        <ele>1235.4313964844</ele>
        <time>2011-07-09T09:23:57Z</time>
      </trkpt>
      <trkpt lat="45.0124" lon="5.51878">
        <ele>1236.3928222656</ele>
        <time>2011-07-09T09:24:02Z</time>
      </trkpt>
      <trkpt lat="45.0125" lon="5.51865">
        <ele>1239.2766113281</ele>
        <time>2011-07-09T09:24:06Z</time>
      </trkpt>
      <trkpt lat="45.01255" lon="5.51852">
        <ele>1240.2380371094</ele>
        <time>2011-07-09T09:24:10Z</time>
      </trkpt>
      <trkpt lat="45.01259" lon="5.51833">
        <ele>1243.1218261719</ele>
        <time>2011-07-09T09:24:14Z</time>
      </trkpt>
      <trkpt lat="45.01266" lon="5.51809">
        <ele>1243.6025390625</ele>
        <time>2011-07-09T09:24:19Z</time>
      </trkpt>
      <trkpt lat="45.01278" lon="5.51798">
        <ele>1239.2766113281</ele>
        <time>2011-07-09T09:24:24Z</time>
      </trkpt>
      <trkpt lat="45.01282" lon="5.51794">
        <ele>1237.8347167969</ele>
        <time>2011-07-09T09:24:26Z</time>
      </trkpt>
      <trkpt lat="45.01295" lon="5.51784">
        <ele>1235.912109375</ele>
        <time>2011-07-09T09:24:31Z</time>
      </trkpt>
      <trkpt lat="45.01307" lon="5.51775">
        <ele>1235.912109375</ele>
        <time>2011-07-09T09:24:35Z</time>
      </trkpt>
      <trkpt lat="45.01328" lon="5.51767">
        <ele>1234.4702148438</ele>
        <time>2011-07-09T09:24:41Z</time>
      </trkpt>
      <trkpt lat="45.0134" lon="5.51763">
        <ele>1232.0668945312</ele>
        <time>2011-07-09T09:24:46Z</time>
      </trkpt>
      <trkpt lat="45.01352" lon="5.51759">
        <ele>1230.625</ele>
        <time>2011-07-09T09:24:51Z</time>
      </trkpt>
      <trkpt lat="45.0137" lon="5.51762">
        <ele>1221.01171875</ele>
        <time>2011-07-09T09:24:56Z</time>
      </trkpt>
      <trkpt lat="45.01387" lon="5.51765">
        <ele>1219.5698242188</ele>
        <time>2011-07-09T09:25:02Z</time>
      </trkpt>
      <trkpt lat="45.0139" lon="5.51765">
        <ele>1219.0891113281</ele>
        <time>2011-07-09T09:25:03Z</time>
      </trkpt>
      <trkpt lat="45.01407" lon="5.5177">
        <ele>1216.6857910156</ele>
        <time>2011-07-09T09:25:09Z</time>
      </trkpt>
      <trkpt lat="45.01416" lon="5.5177">
        <ele>1215.2438964844</ele>
        <time>2011-07-09T09:25:13Z</time>
      </trkpt>
      <trkpt lat="45.01432" lon="5.5177">
        <ele>1217.6469726562</ele>
        <time>2011-07-09T09:25:18Z</time>
      </trkpt>
      <trkpt lat="45.01444" lon="5.51769">
        <ele>1219.5698242188</ele>
        <time>2011-07-09T09:25:22Z</time>
      </trkpt>
      <trkpt lat="45.01459" lon="5.51767">
        <ele>1221.01171875</ele>
        <time>2011-07-09T09:25:27Z</time>
      </trkpt>
      <trkpt lat="45.01474" lon="5.51764">
        <ele>1223.4150390625</ele>
        <time>2011-07-09T09:25:32Z</time>
      </trkpt>
      <trkpt lat="45.01484" lon="5.51763">
        <ele>1223.8955078125</ele>
        <time>2011-07-09T09:25:36Z</time>
      </trkpt>
      <trkpt lat="45.01495" lon="5.5176">
        <ele>1222.4536132812</ele>
        <time>2011-07-09T09:25:39Z</time>
      </trkpt>
      <trkpt lat="45.01509" lon="5.51755">
        <ele>1223.4150390625</ele>
        <time>2011-07-09T09:25:45Z</time>
      </trkpt>
      <trkpt lat="45.01522" lon="5.51756">
        <ele>1216.6857910156</ele>
        <time>2011-07-09T09:25:49Z</time>
      </trkpt>
      <trkpt lat="45.01538" lon="5.51756">
        <ele>1213.3212890625</ele>
        <time>2011-07-09T09:25:54Z</time>
      </trkpt>
      <trkpt lat="45.0155" lon="5.51752">
        <ele>1211.8791503906</ele>
        <time>2011-07-09T09:25:58Z</time>
      </trkpt>
      <trkpt lat="45.01566" lon="5.51749">
        <ele>1213.8017578125</ele>
        <time>2011-07-09T09:26:03Z</time>
      </trkpt>
      <trkpt lat="45.01576" lon="5.51748">
        <ele>1213.8017578125</ele>
        <time>2011-07-09T09:26:07Z</time>
      </trkpt>
      <trkpt lat="45.01591" lon="5.51739">
        <ele>1213.3212890625</ele>
        <time>2011-07-09T09:26:12Z</time>
      </trkpt>
      <trkpt lat="45.01602" lon="5.51728">
        <ele>1214.7631835938</ele>
        <time>2011-07-09T09:26:16Z</time>
      </trkpt>
      <trkpt lat="45.01616" lon="5.5172">
        <ele>1211.3984375</ele>
        <time>2011-07-09T09:26:21Z</time>
      </trkpt>
      <trkpt lat="45.01631" lon="5.51706">
        <ele>1211.3984375</ele>
        <time>2011-07-09T09:26:27Z</time>
      </trkpt>
      <trkpt lat="45.01648" lon="5.51692">
        <ele>1209.4758300781</ele>
        <time>2011-07-09T09:26:33Z</time>
      </trkpt>
      <trkpt lat="45.01656" lon="5.51685">
        <ele>1208.9951171875</ele>
        <time>2011-07-09T09:26:37Z</time>
      </trkpt>
      <trkpt lat="45.01671" lon="5.51676">
        <ele>1208.5144042969</ele>
        <time>2011-07-09T09:26:42Z</time>
      </trkpt>
      <trkpt lat="45.01682" lon="5.5167">
        <ele>1207.5532226562</ele>
        <time>2011-07-09T09:26:46Z</time>
      </trkpt>
      <trkpt lat="45.01694" lon="5.5166">
        <ele>1205.6306152344</ele>
        <time>2011-07-09T09:26:51Z</time>
      </trkpt>
      <trkpt lat="45.01705" lon="5.51654">
        <ele>1204.6691894531</ele>
        <time>2011-07-09T09:26:55Z</time>
      </trkpt>
      <trkpt lat="45.01723" lon="5.51649">
        <ele>1202.2658691406</ele>
        <time>2011-07-09T09:27:01Z</time>
      </trkpt>
      <trkpt lat="45.01737" lon="5.51641">
        <ele>1201.3046875</ele>
        <time>2011-07-09T09:27:06Z</time>
      </trkpt>
      <trkpt lat="45.01752" lon="5.51635">
        <ele>1199.3820800781</ele>
        <time>2011-07-09T09:27:11Z</time>
      </trkpt>
      <trkpt lat="45.01764" lon="5.51633">
        <ele>1196.9787597656</ele>
        <time>2011-07-09T09:27:15Z</time>
      </trkpt>
      <trkpt lat="45.01781" lon="5.51628">
        <ele>1196.4982910156</ele>
        <time>2011-07-09T09:27:20Z</time>
      </trkpt>
      <trkpt lat="45.01793" lon="5.51627">
        <ele>1195.0559082031</ele>
        <time>2011-07-09T09:27:24Z</time>
      </trkpt>
      <trkpt lat="45.01805" lon="5.51626">
        <ele>1195.5366210938</ele>
        <time>2011-07-09T09:27:28Z</time>
      </trkpt>
      <trkpt lat="45.01817" lon="5.51622">
        <ele>1194.5751953125</ele>
        <time>2011-07-09T09:27:32Z</time>
      </trkpt>
      <trkpt lat="45.01829" lon="5.51619">
        <ele>1195.0559082031</ele>
        <time>2011-07-09T09:27:36Z</time>
      </trkpt>
      <trkpt lat="45.01844" lon="5.51617">
        <ele>1194.0947265625</ele>
        <time>2011-07-09T09:27:41Z</time>
      </trkpt>
      <trkpt lat="45.01859" lon="5.51614">
        <ele>1193.1333007812</ele>
        <time>2011-07-09T09:27:46Z</time>
      </trkpt>
      <trkpt lat="45.01876" lon="5.51611">
        <ele>1193.1333007812</ele>
        <time>2011-07-09T09:27:51Z</time>
      </trkpt>
      <trkpt lat="45.01887" lon="5.51607">
        <ele>1193.6140136719</ele>
        <time>2011-07-09T09:27:55Z</time>
      </trkpt>
      <trkpt lat="45.01897" lon="5.51597">
        <ele>1194.5751953125</ele>
        <time>2011-07-09T09:27:59Z</time>
      </trkpt>
      <trkpt lat="45.01914" lon="5.51585">
        <ele>1195.0559082031</ele>
        <time>2011-07-09T09:28:05Z</time>
      </trkpt>
      <trkpt lat="45.01924" lon="5.51573">
        <ele>1193.1333007812</ele>
        <time>2011-07-09T09:28:10Z</time>
      </trkpt>
      <trkpt lat="45.0194" lon="5.51561">
        <ele>1189.7687988281</ele>
        <time>2011-07-09T09:28:16Z</time>
      </trkpt>
      <trkpt lat="45.01954" lon="5.51549">
        <ele>1188.8076171875</ele>
        <time>2011-07-09T09:28:21Z</time>
      </trkpt>
      <trkpt lat="45.01967" lon="5.51543">
        <ele>1188.8076171875</ele>
        <time>2011-07-09T09:28:25Z</time>
      </trkpt>
      <trkpt lat="45.0198" lon="5.51542">
        <ele>1188.8076171875</ele>
        <time>2011-07-09T09:28:29Z</time>
      </trkpt>
      <trkpt lat="45.01994" lon="5.51541">
        <ele>1188.3269042969</ele>
        <time>2011-07-09T09:28:34Z</time>
      </trkpt>
      <trkpt lat="45.02007" lon="5.51544">
        <ele>1187.8461914062</ele>
        <time>2011-07-09T09:28:39Z</time>
      </trkpt>
      <trkpt lat="45.0202" lon="5.51546">
        <ele>1186.884765625</ele>
        <time>2011-07-09T09:28:43Z</time>
      </trkpt>
      <trkpt lat="45.02036" lon="5.51554">
        <ele>1183.5202636719</ele>
        <time>2011-07-09T09:28:48Z</time>
      </trkpt>
      <trkpt lat="45.02045" lon="5.51563">
        <ele>1181.1171875</ele>
        <time>2011-07-09T09:28:52Z</time>
      </trkpt>
      <trkpt lat="45.02057" lon="5.5157">
        <ele>1178.2329101562</ele>
        <time>2011-07-09T09:28:56Z</time>
      </trkpt>
      <trkpt lat="45.02072" lon="5.51579">
        <ele>1173.9069824219</ele>
        <time>2011-07-09T09:29:01Z</time>
      </trkpt>
      <trkpt lat="45.02082" lon="5.51595">
        <ele>1171.0231933594</ele>
        <time>2011-07-09T09:29:06Z</time>
      </trkpt>
      <trkpt lat="45.02086" lon="5.51612">
        <ele>1169.5812988281</ele>
        <time>2011-07-09T09:29:10Z</time>
      </trkpt>
      <trkpt lat="45.02088" lon="5.51626">
        <ele>1168.1391601562</ele>
        <time>2011-07-09T09:29:13Z</time>
      </trkpt>
      <trkpt lat="45.02096" lon="5.51643">
        <ele>1166.2165527344</ele>
        <time>2011-07-09T09:29:18Z</time>
      </trkpt>
      <trkpt lat="45.02101" lon="5.51653">
        <ele>1164.2939453125</ele>
        <time>2011-07-09T09:29:21Z</time>
      </trkpt>
      <trkpt lat="45.0211" lon="5.51664">
        <ele>1163.8129882812</ele>
        <time>2011-07-09T09:29:25Z</time>
      </trkpt>
      <trkpt lat="45.02118" lon="5.51671">
        <ele>1163.3325195312</ele>
        <time>2011-07-09T09:29:28Z</time>
      </trkpt>
      <trkpt lat="45.02138" lon="5.51678">
        <ele>1164.2939453125</ele>
        <time>2011-07-09T09:29:34Z</time>
      </trkpt>
      <trkpt lat="45.02152" lon="5.5168">
        <ele>1164.2939453125</ele>
        <time>2011-07-09T09:29:38Z</time>
      </trkpt>
      <trkpt lat="45.02167" lon="5.51687">
        <ele>1166.697265625</ele>
        <time>2011-07-09T09:29:43Z</time>
      </trkpt>
      <trkpt lat="45.0218" lon="5.51694">
        <ele>1167.6584472656</ele>
        <time>2011-07-09T09:29:47Z</time>
      </trkpt>
      <trkpt lat="45.02198" lon="5.51706">
        <ele>1167.6584472656</ele>
        <time>2011-07-09T09:29:53Z</time>
      </trkpt>
      <trkpt lat="45.02211" lon="5.51717">
        <ele>1165.7360839844</ele>
        <time>2011-07-09T09:29:58Z</time>
      </trkpt>
      <trkpt lat="45.02225" lon="5.51726">
        <ele>1165.7360839844</ele>
        <time>2011-07-09T09:30:03Z</time>
      </trkpt>
      <trkpt lat="45.02234" lon="5.51729">
        <ele>1165.7360839844</ele>
        <time>2011-07-09T09:30:06Z</time>
      </trkpt>
      <trkpt lat="45.02234" lon="5.51729">
        <ele>1165.7360839844</ele>
        <time>2011-07-09T09:30:06Z</time>
      </trkpt>
      <trkpt lat="45.0224" lon="5.51731">
        <ele>1166.2165527344</ele>
        <time>2011-07-09T09:30:08Z</time>
      </trkpt>
      <trkpt lat="45.02257" lon="5.51731">
        <ele>1168.1391601562</ele>
        <time>2011-07-09T09:30:12Z</time>
      </trkpt>
      <trkpt lat="45.02269" lon="5.51735">
        <ele>1169.1005859375</ele>
        <time>2011-07-09T09:30:16Z</time>
      </trkpt>
      <trkpt lat="45.02284" lon="5.51742">
        <ele>1169.5812988281</ele>
        <time>2011-07-09T09:30:21Z</time>
      </trkpt>
      <trkpt lat="45.02301" lon="5.51749">
        <ele>1169.1005859375</ele>
        <time>2011-07-09T09:30:26Z</time>
      </trkpt>
      <trkpt lat="45.02316" lon="5.51755">
        <ele>1169.1005859375</ele>
        <time>2011-07-09T09:30:31Z</time>
      </trkpt>
      <trkpt lat="45.0233" lon="5.51754">
        <ele>1169.1005859375</ele>
        <time>2011-07-09T09:30:35Z</time>
      </trkpt>
      <trkpt lat="45.02346" lon="5.51751">
        <ele>1170.0617675781</ele>
        <time>2011-07-09T09:30:40Z</time>
      </trkpt>
      <trkpt lat="45.02362" lon="5.51745">
        <ele>1171.0231933594</ele>
        <time>2011-07-09T09:30:45Z</time>
      </trkpt>
      <trkpt lat="45.0237" lon="5.51747">
        <ele>1171.984375</ele>
        <time>2011-07-09T09:30:48Z</time>
      </trkpt>
    </trkseg>
  </trk>
</gpx>